<?xml version="1.0" encoding="UTF-8" standalone="no" ?>
<gpx xmlns="http://www.topografix.com/GPX/1/1" xmlns:xsi="http://www.w3.org/2001/XMLSchema-instance" xsi:schemaLocation="http://www.topografix.com/GPX/1/1 http://www.topografix.com/GPX/1/1/gpx.xsd" version="1.1" creator="VisuGPX - https://www.visugpx.com">
  <metadata>
    <name>Départ chapelle Saint Germain à Cesseras</name>
    <desc><![CDATA[A travers des bosquets de pins et de chênes verts, sur des chemins de vigne en suivant des ruisseaux nous découvrons des puits grands comme nos deux mains; nous nous penchons sur la margelle... Olonzac est en bas.

Photos: http://vttolonzac.blogspot.fr/2014/01/depart-chapelle-saint-germain-cesseras.html]]></desc>
  </metadata>
  <trk>
    <name><![CDATA[20-JAN-14 17:04:06]]></name>
    <trkseg>
      <trkpt lat="43.32535" lon="2.69493">
        <ele>140.01</ele>
        <time>2014-01-20T12:54:23Z</time>
      </trkpt>
      <trkpt lat="43.32535" lon="2.69492">
        <ele>140.01</ele>
        <time>2014-01-20T12:54:24Z</time>
      </trkpt>
      <trkpt lat="43.32539" lon="2.6949">
        <ele>140.01</ele>
        <time>2014-01-20T12:54:26Z</time>
      </trkpt>
      <trkpt lat="43.32548" lon="2.69484">
        <ele>140.97</ele>
        <time>2014-01-20T12:54:33Z</time>
      </trkpt>
      <trkpt lat="43.32552" lon="2.69481">
        <ele>140.49</ele>
        <time>2014-01-20T12:54:36Z</time>
      </trkpt>
      <trkpt lat="43.32561" lon="2.6947">
        <ele>140.97</ele>
        <time>2014-01-20T12:54:48Z</time>
      </trkpt>
      <trkpt lat="43.32563" lon="2.69467">
        <ele>137.61</ele>
        <time>2014-01-20T12:54:52Z</time>
      </trkpt>
      <trkpt lat="43.32565" lon="2.69464">
        <ele>134.24</ele>
        <time>2014-01-20T12:54:55Z</time>
      </trkpt>
      <trkpt lat="43.32569" lon="2.6946">
        <ele>130.4</ele>
        <time>2014-01-20T12:55:00Z</time>
      </trkpt>
      <trkpt lat="43.32574" lon="2.69455">
        <ele>127.03</ele>
        <time>2014-01-20T12:55:06Z</time>
      </trkpt>
      <trkpt lat="43.32577" lon="2.6945">
        <ele>124.63</ele>
        <time>2014-01-20T12:55:12Z</time>
      </trkpt>
      <trkpt lat="43.32578" lon="2.69446">
        <ele>121.26</ele>
        <time>2014-01-20T12:55:21Z</time>
      </trkpt>
      <trkpt lat="43.32583" lon="2.69441">
        <ele>120.78</ele>
        <time>2014-01-20T12:55:29Z</time>
      </trkpt>
      <trkpt lat="43.32595" lon="2.69434">
        <ele>119.34</ele>
        <time>2014-01-20T12:55:40Z</time>
      </trkpt>
      <trkpt lat="43.32601" lon="2.69434">
        <ele>119.34</ele>
        <time>2014-01-20T12:55:45Z</time>
      </trkpt>
      <trkpt lat="43.32607" lon="2.69435">
        <ele>117.42</ele>
        <time>2014-01-20T12:55:56Z</time>
      </trkpt>
      <trkpt lat="43.32607" lon="2.6944">
        <ele>116.94</ele>
        <time>2014-01-20T12:56:01Z</time>
      </trkpt>
      <trkpt lat="43.32615" lon="2.69451">
        <ele>115.5</ele>
        <time>2014-01-20T12:56:13Z</time>
      </trkpt>
      <trkpt lat="43.32624" lon="2.69463">
        <ele>115.5</ele>
        <time>2014-01-20T12:56:23Z</time>
      </trkpt>
      <trkpt lat="43.32632" lon="2.69471">
        <ele>115.5</ele>
        <time>2014-01-20T12:56:34Z</time>
      </trkpt>
      <trkpt lat="43.32643" lon="2.69483">
        <ele>116.94</ele>
        <time>2014-01-20T12:56:47Z</time>
      </trkpt>
      <trkpt lat="43.32649" lon="2.69496">
        <ele>115.98</ele>
        <time>2014-01-20T12:57:00Z</time>
      </trkpt>
      <trkpt lat="43.32656" lon="2.69511">
        <ele>117.42</ele>
        <time>2014-01-20T12:57:13Z</time>
      </trkpt>
      <trkpt lat="43.32657" lon="2.69512">
        <ele>117.9</ele>
        <time>2014-01-20T12:57:14Z</time>
      </trkpt>
      <trkpt lat="43.32661" lon="2.69519">
        <ele>118.86</ele>
        <time>2014-01-20T12:57:20Z</time>
      </trkpt>
      <trkpt lat="43.32662" lon="2.69525">
        <ele>117.9</ele>
        <time>2014-01-20T12:57:23Z</time>
      </trkpt>
      <trkpt lat="43.32666" lon="2.69531">
        <ele>118.38</ele>
        <time>2014-01-20T12:57:27Z</time>
      </trkpt>
      <trkpt lat="43.32669" lon="2.69535">
        <ele>118.86</ele>
        <time>2014-01-20T12:57:30Z</time>
      </trkpt>
      <trkpt lat="43.32672" lon="2.6954">
        <ele>119.34</ele>
        <time>2014-01-20T12:57:34Z</time>
      </trkpt>
      <trkpt lat="43.32673" lon="2.69547">
        <ele>119.82</ele>
        <time>2014-01-20T12:57:41Z</time>
      </trkpt>
      <trkpt lat="43.32679" lon="2.69564">
        <ele>120.3</ele>
        <time>2014-01-20T12:57:53Z</time>
      </trkpt>
      <trkpt lat="43.32696" lon="2.69572">
        <ele>120.78</ele>
        <time>2014-01-20T12:58:07Z</time>
      </trkpt>
      <trkpt lat="43.32709" lon="2.69573">
        <ele>122.71</ele>
        <time>2014-01-20T12:58:20Z</time>
      </trkpt>
      <trkpt lat="43.32712" lon="2.69574">
        <ele>122.22</ele>
        <time>2014-01-20T12:58:23Z</time>
      </trkpt>
      <trkpt lat="43.32717" lon="2.69573">
        <ele>122.71</ele>
        <time>2014-01-20T12:58:27Z</time>
      </trkpt>
      <trkpt lat="43.32723" lon="2.69575">
        <ele>122.71</ele>
        <time>2014-01-20T12:58:32Z</time>
      </trkpt>
      <trkpt lat="43.3273" lon="2.69577">
        <ele>121.74</ele>
        <time>2014-01-20T12:58:40Z</time>
      </trkpt>
      <trkpt lat="43.32735" lon="2.69577">
        <ele>123.19</ele>
        <time>2014-01-20T12:58:45Z</time>
      </trkpt>
      <trkpt lat="43.32743" lon="2.69578">
        <ele>123.19</ele>
        <time>2014-01-20T12:58:51Z</time>
      </trkpt>
      <trkpt lat="43.32759" lon="2.69578">
        <ele>123.67</ele>
        <time>2014-01-20T12:59:04Z</time>
      </trkpt>
      <trkpt lat="43.32768" lon="2.69579">
        <ele>124.63</ele>
        <time>2014-01-20T12:59:12Z</time>
      </trkpt>
      <trkpt lat="43.32785" lon="2.6958">
        <ele>124.63</ele>
        <time>2014-01-20T12:59:26Z</time>
      </trkpt>
      <trkpt lat="43.32803" lon="2.69584">
        <ele>126.07</ele>
        <time>2014-01-20T12:59:41Z</time>
      </trkpt>
      <trkpt lat="43.32823" lon="2.69587">
        <ele>126.55</ele>
        <time>2014-01-20T12:59:57Z</time>
      </trkpt>
      <trkpt lat="43.32837" lon="2.69589">
        <ele>126.55</ele>
        <time>2014-01-20T13:00:08Z</time>
      </trkpt>
      <trkpt lat="43.32854" lon="2.69592">
        <ele>127.51</ele>
        <time>2014-01-20T13:00:21Z</time>
      </trkpt>
      <trkpt lat="43.32858" lon="2.69591">
        <ele>126.07</ele>
        <time>2014-01-20T13:00:24Z</time>
      </trkpt>
      <trkpt lat="43.3286" lon="2.69592">
        <ele>126.07</ele>
        <time>2014-01-20T13:00:26Z</time>
      </trkpt>
      <trkpt lat="43.3287" lon="2.69593">
        <ele>127.03</ele>
        <time>2014-01-20T13:00:34Z</time>
      </trkpt>
      <trkpt lat="43.3289" lon="2.69596">
        <ele>127.51</ele>
        <time>2014-01-20T13:00:51Z</time>
      </trkpt>
      <trkpt lat="43.32902" lon="2.69586">
        <ele>128.95</ele>
        <time>2014-01-20T13:01:02Z</time>
      </trkpt>
      <trkpt lat="43.3291" lon="2.6957">
        <ele>129.43</ele>
        <time>2014-01-20T13:01:16Z</time>
      </trkpt>
      <trkpt lat="43.32914" lon="2.69551">
        <ele>130.88</ele>
        <time>2014-01-20T13:01:28Z</time>
      </trkpt>
      <trkpt lat="43.32914" lon="2.69545">
        <ele>130.4</ele>
        <time>2014-01-20T13:01:31Z</time>
      </trkpt>
      <trkpt lat="43.32914" lon="2.69538">
        <ele>130.4</ele>
        <time>2014-01-20T13:01:35Z</time>
      </trkpt>
      <trkpt lat="43.32914" lon="2.69532">
        <ele>129.92</ele>
        <time>2014-01-20T13:01:39Z</time>
      </trkpt>
      <trkpt lat="43.32913" lon="2.69529">
        <ele>129.92</ele>
        <time>2014-01-20T13:01:41Z</time>
      </trkpt>
      <trkpt lat="43.32913" lon="2.6952">
        <ele>130.4</ele>
        <time>2014-01-20T13:01:47Z</time>
      </trkpt>
      <trkpt lat="43.32913" lon="2.69515">
        <ele>130.88</ele>
        <time>2014-01-20T13:01:50Z</time>
      </trkpt>
      <trkpt lat="43.32912" lon="2.69507">
        <ele>130.4</ele>
        <time>2014-01-20T13:01:56Z</time>
      </trkpt>
      <trkpt lat="43.32911" lon="2.69501">
        <ele>130.88</ele>
        <time>2014-01-20T13:02:00Z</time>
      </trkpt>
      <trkpt lat="43.32912" lon="2.6949">
        <ele>131.84</ele>
        <time>2014-01-20T13:02:07Z</time>
      </trkpt>
      <trkpt lat="43.32913" lon="2.69485">
        <ele>131.84</ele>
        <time>2014-01-20T13:02:12Z</time>
      </trkpt>
      <trkpt lat="43.32915" lon="2.69475">
        <ele>131.84</ele>
        <time>2014-01-20T13:02:20Z</time>
      </trkpt>
      <trkpt lat="43.32918" lon="2.69465">
        <ele>131.36</ele>
        <time>2014-01-20T13:02:29Z</time>
      </trkpt>
      <trkpt lat="43.32931" lon="2.6945">
        <ele>131.84</ele>
        <time>2014-01-20T13:02:44Z</time>
      </trkpt>
      <trkpt lat="43.32942" lon="2.69438">
        <ele>132.8</ele>
        <time>2014-01-20T13:02:57Z</time>
      </trkpt>
      <trkpt lat="43.3295" lon="2.6942">
        <ele>133.76</ele>
        <time>2014-01-20T13:03:12Z</time>
      </trkpt>
      <trkpt lat="43.32951" lon="2.69405">
        <ele>134.24</ele>
        <time>2014-01-20T13:03:21Z</time>
      </trkpt>
      <trkpt lat="43.32957" lon="2.69385">
        <ele>133.76</ele>
        <time>2014-01-20T13:03:36Z</time>
      </trkpt>
      <trkpt lat="43.3296" lon="2.69379">
        <ele>133.76</ele>
        <time>2014-01-20T13:03:42Z</time>
      </trkpt>
      <trkpt lat="43.32971" lon="2.69364">
        <ele>134.24</ele>
        <time>2014-01-20T13:03:55Z</time>
      </trkpt>
      <trkpt lat="43.32973" lon="2.69362">
        <ele>133.76</ele>
        <time>2014-01-20T13:03:58Z</time>
      </trkpt>
      <trkpt lat="43.32983" lon="2.69353">
        <ele>134.72</ele>
        <time>2014-01-20T13:04:08Z</time>
      </trkpt>
      <trkpt lat="43.32988" lon="2.6935">
        <ele>134.72</ele>
        <time>2014-01-20T13:04:13Z</time>
      </trkpt>
      <trkpt lat="43.32997" lon="2.69343">
        <ele>135.2</ele>
        <time>2014-01-20T13:04:24Z</time>
      </trkpt>
      <trkpt lat="43.33011" lon="2.69337">
        <ele>136.64</ele>
        <time>2014-01-20T13:04:38Z</time>
      </trkpt>
      <trkpt lat="43.33014" lon="2.69336">
        <ele>137.13</ele>
        <time>2014-01-20T13:04:41Z</time>
      </trkpt>
      <trkpt lat="43.33022" lon="2.69328">
        <ele>138.09</ele>
        <time>2014-01-20T13:04:50Z</time>
      </trkpt>
      <trkpt lat="43.33035" lon="2.69308">
        <ele>138.57</ele>
        <time>2014-01-20T13:05:06Z</time>
      </trkpt>
      <trkpt lat="43.33035" lon="2.69307">
        <ele>138.57</ele>
        <time>2014-01-20T13:05:07Z</time>
      </trkpt>
      <trkpt lat="43.33043" lon="2.69292">
        <ele>138.57</ele>
        <time>2014-01-20T13:05:20Z</time>
      </trkpt>
      <trkpt lat="43.33047" lon="2.69286">
        <ele>138.57</ele>
        <time>2014-01-20T13:05:26Z</time>
      </trkpt>
      <trkpt lat="43.33049" lon="2.6928">
        <ele>139.05</ele>
        <time>2014-01-20T13:05:31Z</time>
      </trkpt>
      <trkpt lat="43.33057" lon="2.69267">
        <ele>139.53</ele>
        <time>2014-01-20T13:05:45Z</time>
      </trkpt>
      <trkpt lat="43.33058" lon="2.69264">
        <ele>140.01</ele>
        <time>2014-01-20T13:05:47Z</time>
      </trkpt>
      <trkpt lat="43.33061" lon="2.69255">
        <ele>140.01</ele>
        <time>2014-01-20T13:05:55Z</time>
      </trkpt>
      <trkpt lat="43.33062" lon="2.6925">
        <ele>140.01</ele>
        <time>2014-01-20T13:05:58Z</time>
      </trkpt>
      <trkpt lat="43.33065" lon="2.69246">
        <ele>140.97</ele>
        <time>2014-01-20T13:06:02Z</time>
      </trkpt>
      <trkpt lat="43.33065" lon="2.69243">
        <ele>140.49</ele>
        <time>2014-01-20T13:06:04Z</time>
      </trkpt>
      <trkpt lat="43.33074" lon="2.69229">
        <ele>140.97</ele>
        <time>2014-01-20T13:06:16Z</time>
      </trkpt>
      <trkpt lat="43.33085" lon="2.69212">
        <ele>140.97</ele>
        <time>2014-01-20T13:06:31Z</time>
      </trkpt>
      <trkpt lat="43.33086" lon="2.6921">
        <ele>140.97</ele>
        <time>2014-01-20T13:06:33Z</time>
      </trkpt>
      <trkpt lat="43.33088" lon="2.69209">
        <ele>141.93</ele>
        <time>2014-01-20T13:06:35Z</time>
      </trkpt>
      <trkpt lat="43.33099" lon="2.69196">
        <ele>140.97</ele>
        <time>2014-01-20T13:06:49Z</time>
      </trkpt>
      <trkpt lat="43.33102" lon="2.69194">
        <ele>141.45</ele>
        <time>2014-01-20T13:06:52Z</time>
      </trkpt>
      <trkpt lat="43.33119" lon="2.69187">
        <ele>142.41</ele>
        <time>2014-01-20T13:07:09Z</time>
      </trkpt>
      <trkpt lat="43.33129" lon="2.69186">
        <ele>142.89</ele>
        <time>2014-01-20T13:07:18Z</time>
      </trkpt>
      <trkpt lat="43.33143" lon="2.69177">
        <ele>143.85</ele>
        <time>2014-01-20T13:07:33Z</time>
      </trkpt>
      <trkpt lat="43.33145" lon="2.69172">
        <ele>143.85</ele>
        <time>2014-01-20T13:07:36Z</time>
      </trkpt>
      <trkpt lat="43.3315" lon="2.69157">
        <ele>145.3</ele>
        <time>2014-01-20T13:07:48Z</time>
      </trkpt>
      <trkpt lat="43.33151" lon="2.69153">
        <ele>144.82</ele>
        <time>2014-01-20T13:07:51Z</time>
      </trkpt>
      <trkpt lat="43.33154" lon="2.69145">
        <ele>144.82</ele>
        <time>2014-01-20T13:07:58Z</time>
      </trkpt>
      <trkpt lat="43.33167" lon="2.69128">
        <ele>145.78</ele>
        <time>2014-01-20T13:08:14Z</time>
      </trkpt>
      <trkpt lat="43.33167" lon="2.69127">
        <ele>146.26</ele>
        <time>2014-01-20T13:08:15Z</time>
      </trkpt>
      <trkpt lat="43.33176" lon="2.69116">
        <ele>146.74</ele>
        <time>2014-01-20T13:08:28Z</time>
      </trkpt>
      <trkpt lat="43.33179" lon="2.69112">
        <ele>146.74</ele>
        <time>2014-01-20T13:08:31Z</time>
      </trkpt>
      <trkpt lat="43.33182" lon="2.69109">
        <ele>147.22</ele>
        <time>2014-01-20T13:08:34Z</time>
      </trkpt>
      <trkpt lat="43.33186" lon="2.691">
        <ele>147.7</ele>
        <time>2014-01-20T13:08:42Z</time>
      </trkpt>
      <trkpt lat="43.3319" lon="2.69089">
        <ele>148.18</ele>
        <time>2014-01-20T13:08:51Z</time>
      </trkpt>
      <trkpt lat="43.33191" lon="2.69083">
        <ele>147.7</ele>
        <time>2014-01-20T13:08:57Z</time>
      </trkpt>
      <trkpt lat="43.3319" lon="2.69077">
        <ele>148.18</ele>
        <time>2014-01-20T13:09:02Z</time>
      </trkpt>
      <trkpt lat="43.3319" lon="2.69069">
        <ele>148.18</ele>
        <time>2014-01-20T13:09:08Z</time>
      </trkpt>
      <trkpt lat="43.33188" lon="2.69064">
        <ele>148.66</ele>
        <time>2014-01-20T13:09:12Z</time>
      </trkpt>
      <trkpt lat="43.33188" lon="2.69061">
        <ele>149.14</ele>
        <time>2014-01-20T13:09:14Z</time>
      </trkpt>
      <trkpt lat="43.33188" lon="2.69056">
        <ele>148.66</ele>
        <time>2014-01-20T13:09:17Z</time>
      </trkpt>
      <trkpt lat="43.33188" lon="2.6905">
        <ele>150.1</ele>
        <time>2014-01-20T13:09:21Z</time>
      </trkpt>
      <trkpt lat="43.33201" lon="2.69031">
        <ele>151.06</ele>
        <time>2014-01-20T13:09:38Z</time>
      </trkpt>
      <trkpt lat="43.33204" lon="2.69032">
        <ele>150.58</ele>
        <time>2014-01-20T13:09:41Z</time>
      </trkpt>
      <trkpt lat="43.33206" lon="2.69033">
        <ele>150.58</ele>
        <time>2014-01-20T13:09:43Z</time>
      </trkpt>
      <trkpt lat="43.3321" lon="2.69034">
        <ele>151.06</ele>
        <time>2014-01-20T13:09:47Z</time>
      </trkpt>
      <trkpt lat="43.3322" lon="2.69037">
        <ele>151.06</ele>
        <time>2014-01-20T13:09:58Z</time>
      </trkpt>
      <trkpt lat="43.33233" lon="2.6903">
        <ele>150.58</ele>
        <time>2014-01-20T13:10:14Z</time>
      </trkpt>
      <trkpt lat="43.33237" lon="2.69023">
        <ele>150.1</ele>
        <time>2014-01-20T13:10:21Z</time>
      </trkpt>
      <trkpt lat="43.33242" lon="2.69001">
        <ele>151.06</ele>
        <time>2014-01-20T13:10:31Z</time>
      </trkpt>
      <trkpt lat="43.33242" lon="2.68993">
        <ele>152.03</ele>
        <time>2014-01-20T13:10:35Z</time>
      </trkpt>
      <trkpt lat="43.33241" lon="2.68985">
        <ele>152.51</ele>
        <time>2014-01-20T13:10:38Z</time>
      </trkpt>
      <trkpt lat="43.33239" lon="2.68972">
        <ele>152.51</ele>
        <time>2014-01-20T13:10:43Z</time>
      </trkpt>
      <trkpt lat="43.33239" lon="2.6895">
        <ele>153.47</ele>
        <time>2014-01-20T13:10:53Z</time>
      </trkpt>
      <trkpt lat="43.3324" lon="2.68946">
        <ele>153.47</ele>
        <time>2014-01-20T13:11:08Z</time>
      </trkpt>
      <trkpt lat="43.33241" lon="2.68944">
        <ele>153.47</ele>
        <time>2014-01-20T13:11:18Z</time>
      </trkpt>
      <trkpt lat="43.33239" lon="2.68943">
        <ele>152.99</ele>
        <time>2014-01-20T13:11:21Z</time>
      </trkpt>
      <trkpt lat="43.33237" lon="2.68937">
        <ele>152.99</ele>
        <time>2014-01-20T13:11:25Z</time>
      </trkpt>
      <trkpt lat="43.33233" lon="2.68917">
        <ele>153.47</ele>
        <time>2014-01-20T13:11:37Z</time>
      </trkpt>
      <trkpt lat="43.33233" lon="2.68913">
        <ele>153.47</ele>
        <time>2014-01-20T13:11:40Z</time>
      </trkpt>
      <trkpt lat="43.3323" lon="2.68893">
        <ele>153.95</ele>
        <time>2014-01-20T13:11:54Z</time>
      </trkpt>
      <trkpt lat="43.33229" lon="2.68891">
        <ele>153.47</ele>
        <time>2014-01-20T13:11:57Z</time>
      </trkpt>
      <trkpt lat="43.33222" lon="2.68875">
        <ele>153.95</ele>
        <time>2014-01-20T13:12:10Z</time>
      </trkpt>
      <trkpt lat="43.33217" lon="2.6887">
        <ele>154.91</ele>
        <time>2014-01-20T13:12:18Z</time>
      </trkpt>
      <trkpt lat="43.33211" lon="2.68867">
        <ele>155.39</ele>
        <time>2014-01-20T13:12:25Z</time>
      </trkpt>
      <trkpt lat="43.33208" lon="2.68866">
        <ele>155.39</ele>
        <time>2014-01-20T13:12:28Z</time>
      </trkpt>
      <trkpt lat="43.33195" lon="2.68857">
        <ele>156.83</ele>
        <time>2014-01-20T13:12:41Z</time>
      </trkpt>
      <trkpt lat="43.3319" lon="2.68853">
        <ele>157.31</ele>
        <time>2014-01-20T13:12:46Z</time>
      </trkpt>
      <trkpt lat="43.33189" lon="2.68851">
        <ele>157.31</ele>
        <time>2014-01-20T13:12:48Z</time>
      </trkpt>
      <trkpt lat="43.33185" lon="2.68849">
        <ele>157.31</ele>
        <time>2014-01-20T13:12:52Z</time>
      </trkpt>
      <trkpt lat="43.33177" lon="2.68836">
        <ele>158.75</ele>
        <time>2014-01-20T13:13:06Z</time>
      </trkpt>
      <trkpt lat="43.33176" lon="2.68833">
        <ele>159.24</ele>
        <time>2014-01-20T13:13:08Z</time>
      </trkpt>
      <trkpt lat="43.33179" lon="2.68817">
        <ele>159.24</ele>
        <time>2014-01-20T13:13:17Z</time>
      </trkpt>
      <trkpt lat="43.33183" lon="2.68808">
        <ele>159.24</ele>
        <time>2014-01-20T13:13:25Z</time>
      </trkpt>
      <trkpt lat="43.33183" lon="2.68791">
        <ele>159.72</ele>
        <time>2014-01-20T13:13:40Z</time>
      </trkpt>
      <trkpt lat="43.33183" lon="2.68787">
        <ele>159.72</ele>
        <time>2014-01-20T13:13:44Z</time>
      </trkpt>
      <trkpt lat="43.33181" lon="2.68771">
        <ele>159.72</ele>
        <time>2014-01-20T13:13:59Z</time>
      </trkpt>
      <trkpt lat="43.33178" lon="2.68768">
        <ele>159.24</ele>
        <time>2014-01-20T13:14:04Z</time>
      </trkpt>
      <trkpt lat="43.3317" lon="2.68766">
        <ele>159.72</ele>
        <time>2014-01-20T13:14:14Z</time>
      </trkpt>
      <trkpt lat="43.33161" lon="2.68759">
        <ele>159.24</ele>
        <time>2014-01-20T13:14:24Z</time>
      </trkpt>
      <trkpt lat="43.33151" lon="2.68753">
        <ele>159.72</ele>
        <time>2014-01-20T13:14:36Z</time>
      </trkpt>
      <trkpt lat="43.3315" lon="2.6875">
        <ele>159.24</ele>
        <time>2014-01-20T13:14:55Z</time>
      </trkpt>
      <trkpt lat="43.33143" lon="2.68746">
        <ele>158.75</ele>
        <time>2014-01-20T13:15:08Z</time>
      </trkpt>
      <trkpt lat="43.33138" lon="2.68744">
        <ele>157.79</ele>
        <time>2014-01-20T13:15:14Z</time>
      </trkpt>
      <trkpt lat="43.33132" lon="2.68734">
        <ele>156.83</ele>
        <time>2014-01-20T13:15:27Z</time>
      </trkpt>
      <trkpt lat="43.33131" lon="2.68734">
        <ele>156.83</ele>
        <time>2014-01-20T13:15:28Z</time>
      </trkpt>
      <trkpt lat="43.33127" lon="2.68725">
        <ele>156.83</ele>
        <time>2014-01-20T13:15:35Z</time>
      </trkpt>
      <trkpt lat="43.33127" lon="2.68718">
        <ele>156.83</ele>
        <time>2014-01-20T13:15:39Z</time>
      </trkpt>
      <trkpt lat="43.33128" lon="2.68712">
        <ele>156.83</ele>
        <time>2014-01-20T13:15:43Z</time>
      </trkpt>
      <trkpt lat="43.33129" lon="2.68704">
        <ele>155.87</ele>
        <time>2014-01-20T13:15:49Z</time>
      </trkpt>
      <trkpt lat="43.33129" lon="2.68698">
        <ele>155.87</ele>
        <time>2014-01-20T13:15:53Z</time>
      </trkpt>
      <trkpt lat="43.3313" lon="2.68691">
        <ele>155.87</ele>
        <time>2014-01-20T13:15:58Z</time>
      </trkpt>
      <trkpt lat="43.33128" lon="2.68673">
        <ele>154.91</ele>
        <time>2014-01-20T13:16:12Z</time>
      </trkpt>
      <trkpt lat="43.33129" lon="2.68665">
        <ele>154.91</ele>
        <time>2014-01-20T13:16:17Z</time>
      </trkpt>
      <trkpt lat="43.33128" lon="2.68657">
        <ele>154.91</ele>
        <time>2014-01-20T13:16:23Z</time>
      </trkpt>
      <trkpt lat="43.33128" lon="2.68647">
        <ele>152.99</ele>
        <time>2014-01-20T13:16:35Z</time>
      </trkpt>
      <trkpt lat="43.33128" lon="2.68636">
        <ele>152.51</ele>
        <time>2014-01-20T13:16:48Z</time>
      </trkpt>
      <trkpt lat="43.33132" lon="2.6862">
        <ele>151.54</ele>
        <time>2014-01-20T13:17:00Z</time>
      </trkpt>
      <trkpt lat="43.33134" lon="2.68616">
        <ele>151.54</ele>
        <time>2014-01-20T13:17:03Z</time>
      </trkpt>
      <trkpt lat="43.33142" lon="2.68606">
        <ele>152.03</ele>
        <time>2014-01-20T13:17:12Z</time>
      </trkpt>
      <trkpt lat="43.33147" lon="2.68593">
        <ele>152.51</ele>
        <time>2014-01-20T13:17:22Z</time>
      </trkpt>
      <trkpt lat="43.33157" lon="2.68577">
        <ele>151.06</ele>
        <time>2014-01-20T13:17:37Z</time>
      </trkpt>
      <trkpt lat="43.33163" lon="2.68573">
        <ele>151.54</ele>
        <time>2014-01-20T13:17:52Z</time>
      </trkpt>
      <trkpt lat="43.33171" lon="2.68566">
        <ele>151.06</ele>
        <time>2014-01-20T13:18:03Z</time>
      </trkpt>
      <trkpt lat="43.33174" lon="2.68562">
        <ele>151.54</ele>
        <time>2014-01-20T13:18:08Z</time>
      </trkpt>
      <trkpt lat="43.33182" lon="2.68552">
        <ele>150.58</ele>
        <time>2014-01-20T13:18:21Z</time>
      </trkpt>
      <trkpt lat="43.33181" lon="2.68539">
        <ele>151.06</ele>
        <time>2014-01-20T13:18:36Z</time>
      </trkpt>
      <trkpt lat="43.33181" lon="2.68535">
        <ele>151.54</ele>
        <time>2014-01-20T13:18:38Z</time>
      </trkpt>
      <trkpt lat="43.33184" lon="2.68528">
        <ele>152.03</ele>
        <time>2014-01-20T13:18:43Z</time>
      </trkpt>
      <trkpt lat="43.33189" lon="2.68523">
        <ele>152.03</ele>
        <time>2014-01-20T13:18:48Z</time>
      </trkpt>
      <trkpt lat="43.33205" lon="2.6851">
        <ele>149.62</ele>
        <time>2014-01-20T13:19:04Z</time>
      </trkpt>
      <trkpt lat="43.33219" lon="2.68507">
        <ele>148.66</ele>
        <time>2014-01-20T13:19:15Z</time>
      </trkpt>
      <trkpt lat="43.33224" lon="2.68507">
        <ele>148.18</ele>
        <time>2014-01-20T13:19:21Z</time>
      </trkpt>
      <trkpt lat="43.33227" lon="2.68504">
        <ele>148.18</ele>
        <time>2014-01-20T13:19:24Z</time>
      </trkpt>
      <trkpt lat="43.33229" lon="2.68502">
        <ele>148.18</ele>
        <time>2014-01-20T13:19:27Z</time>
      </trkpt>
      <trkpt lat="43.3323" lon="2.68487">
        <ele>149.14</ele>
        <time>2014-01-20T13:19:41Z</time>
      </trkpt>
      <trkpt lat="43.3323" lon="2.68486">
        <ele>149.14</ele>
        <time>2014-01-20T13:19:42Z</time>
      </trkpt>
      <trkpt lat="43.33232" lon="2.68482">
        <ele>149.62</ele>
        <time>2014-01-20T13:19:45Z</time>
      </trkpt>
      <trkpt lat="43.33232" lon="2.68475">
        <ele>150.1</ele>
        <time>2014-01-20T13:19:51Z</time>
      </trkpt>
      <trkpt lat="43.33224" lon="2.68472">
        <ele>149.62</ele>
        <time>2014-01-20T13:20:04Z</time>
      </trkpt>
      <trkpt lat="43.33221" lon="2.68471">
        <ele>149.62</ele>
        <time>2014-01-20T13:20:12Z</time>
      </trkpt>
      <trkpt lat="43.33219" lon="2.68469">
        <ele>149.62</ele>
        <time>2014-01-20T13:20:18Z</time>
      </trkpt>
      <trkpt lat="43.33212" lon="2.68469">
        <ele>148.66</ele>
        <time>2014-01-20T13:20:25Z</time>
      </trkpt>
      <trkpt lat="43.33205" lon="2.6847">
        <ele>147.7</ele>
        <time>2014-01-20T13:20:34Z</time>
      </trkpt>
      <trkpt lat="43.33199" lon="2.68468">
        <ele>147.7</ele>
        <time>2014-01-20T13:20:46Z</time>
      </trkpt>
      <trkpt lat="43.33191" lon="2.6847">
        <ele>145.78</ele>
        <time>2014-01-20T13:20:57Z</time>
      </trkpt>
      <trkpt lat="43.33188" lon="2.68471">
        <ele>146.26</ele>
        <time>2014-01-20T13:21:09Z</time>
      </trkpt>
      <trkpt lat="43.3318" lon="2.68479">
        <ele>145.78</ele>
        <time>2014-01-20T13:21:22Z</time>
      </trkpt>
      <trkpt lat="43.33173" lon="2.68488">
        <ele>144.82</ele>
        <time>2014-01-20T13:21:32Z</time>
      </trkpt>
      <trkpt lat="43.33168" lon="2.68492">
        <ele>145.3</ele>
        <time>2014-01-20T13:21:43Z</time>
      </trkpt>
      <trkpt lat="43.33155" lon="2.68497">
        <ele>145.3</ele>
        <time>2014-01-20T13:21:56Z</time>
      </trkpt>
      <trkpt lat="43.33152" lon="2.68498">
        <ele>145.3</ele>
        <time>2014-01-20T13:22:11Z</time>
      </trkpt>
      <trkpt lat="43.33142" lon="2.68504">
        <ele>143.85</ele>
        <time>2014-01-20T13:22:22Z</time>
      </trkpt>
      <trkpt lat="43.33129" lon="2.68507">
        <ele>142.89</ele>
        <time>2014-01-20T13:22:33Z</time>
      </trkpt>
      <trkpt lat="43.33118" lon="2.68507">
        <ele>140.97</ele>
        <time>2014-01-20T13:22:44Z</time>
      </trkpt>
      <trkpt lat="43.33114" lon="2.68507">
        <ele>140.97</ele>
        <time>2014-01-20T13:22:48Z</time>
      </trkpt>
      <trkpt lat="43.33099" lon="2.68504">
        <ele>140.97</ele>
        <time>2014-01-20T13:22:58Z</time>
      </trkpt>
      <trkpt lat="43.33095" lon="2.68501">
        <ele>140.01</ele>
        <time>2014-01-20T13:23:01Z</time>
      </trkpt>
      <trkpt lat="43.33087" lon="2.68495">
        <ele>139.53</ele>
        <time>2014-01-20T13:23:14Z</time>
      </trkpt>
      <trkpt lat="43.33079" lon="2.68487">
        <ele>140.01</ele>
        <time>2014-01-20T13:23:27Z</time>
      </trkpt>
      <trkpt lat="43.3307" lon="2.68477">
        <ele>140.01</ele>
        <time>2014-01-20T13:23:40Z</time>
      </trkpt>
      <trkpt lat="43.33067" lon="2.68476">
        <ele>140.01</ele>
        <time>2014-01-20T13:23:43Z</time>
      </trkpt>
      <trkpt lat="43.33058" lon="2.68465">
        <ele>139.53</ele>
        <time>2014-01-20T13:23:56Z</time>
      </trkpt>
      <trkpt lat="43.3305" lon="2.68452">
        <ele>140.01</ele>
        <time>2014-01-20T13:24:11Z</time>
      </trkpt>
      <trkpt lat="43.33046" lon="2.68445">
        <ele>140.01</ele>
        <time>2014-01-20T13:24:17Z</time>
      </trkpt>
      <trkpt lat="43.33037" lon="2.68428">
        <ele>140.01</ele>
        <time>2014-01-20T13:24:31Z</time>
      </trkpt>
      <trkpt lat="43.33034" lon="2.68425">
        <ele>140.01</ele>
        <time>2014-01-20T13:24:35Z</time>
      </trkpt>
      <trkpt lat="43.33026" lon="2.68406">
        <ele>140.97</ele>
        <time>2014-01-20T13:24:50Z</time>
      </trkpt>
      <trkpt lat="43.33021" lon="2.68389">
        <ele>141.93</ele>
        <time>2014-01-20T13:25:05Z</time>
      </trkpt>
      <trkpt lat="43.33024" lon="2.68382">
        <ele>142.89</ele>
        <time>2014-01-20T13:25:16Z</time>
      </trkpt>
      <trkpt lat="43.33024" lon="2.68382">
        <ele>142.41</ele>
        <time>2014-01-20T13:25:17Z</time>
      </trkpt>
      <trkpt lat="43.3302" lon="2.68385">
        <ele>141.93</ele>
        <time>2014-01-20T13:25:27Z</time>
      </trkpt>
      <trkpt lat="43.33018" lon="2.68384">
        <ele>140.97</ele>
        <time>2014-01-20T13:25:38Z</time>
      </trkpt>
      <trkpt lat="43.33019" lon="2.68382">
        <ele>141.93</ele>
        <time>2014-01-20T13:25:52Z</time>
      </trkpt>
      <trkpt lat="43.3302" lon="2.68379">
        <ele>142.41</ele>
        <time>2014-01-20T13:26:07Z</time>
      </trkpt>
      <trkpt lat="43.33018" lon="2.68373">
        <ele>143.37</ele>
        <time>2014-01-20T13:26:13Z</time>
      </trkpt>
      <trkpt lat="43.33018" lon="2.68354">
        <ele>143.37</ele>
        <time>2014-01-20T13:26:29Z</time>
      </trkpt>
      <trkpt lat="43.3301" lon="2.68339">
        <ele>144.82</ele>
        <time>2014-01-20T13:26:44Z</time>
      </trkpt>
      <trkpt lat="43.33007" lon="2.68337">
        <ele>144.82</ele>
        <time>2014-01-20T13:26:48Z</time>
      </trkpt>
      <trkpt lat="43.33" lon="2.68321">
        <ele>145.78</ele>
        <time>2014-01-20T13:27:00Z</time>
      </trkpt>
      <trkpt lat="43.33" lon="2.68301">
        <ele>145.3</ele>
        <time>2014-01-20T13:27:15Z</time>
      </trkpt>
      <trkpt lat="43.32996" lon="2.68283">
        <ele>144.34</ele>
        <time>2014-01-20T13:27:29Z</time>
      </trkpt>
      <trkpt lat="43.33003" lon="2.68269">
        <ele>143.85</ele>
        <time>2014-01-20T13:27:44Z</time>
      </trkpt>
      <trkpt lat="43.33003" lon="2.68266">
        <ele>143.85</ele>
        <time>2014-01-20T13:27:58Z</time>
      </trkpt>
      <trkpt lat="43.33004" lon="2.68266">
        <ele>144.34</ele>
        <time>2014-01-20T13:28:20Z</time>
      </trkpt>
      <trkpt lat="43.33001" lon="2.68269">
        <ele>144.82</ele>
        <time>2014-01-20T13:28:35Z</time>
      </trkpt>
      <trkpt lat="43.33001" lon="2.68269">
        <ele>144.34</ele>
        <time>2014-01-20T13:28:37Z</time>
      </trkpt>
      <trkpt lat="43.32997" lon="2.68259">
        <ele>143.37</ele>
        <time>2014-01-20T13:28:46Z</time>
      </trkpt>
      <trkpt lat="43.32992" lon="2.68246">
        <ele>141.93</ele>
        <time>2014-01-20T13:28:55Z</time>
      </trkpt>
      <trkpt lat="43.32989" lon="2.68238">
        <ele>141.45</ele>
        <time>2014-01-20T13:29:00Z</time>
      </trkpt>
      <trkpt lat="43.32983" lon="2.68221">
        <ele>140.01</ele>
        <time>2014-01-20T13:29:13Z</time>
      </trkpt>
      <trkpt lat="43.32982" lon="2.68215">
        <ele>139.53</ele>
        <time>2014-01-20T13:29:17Z</time>
      </trkpt>
      <trkpt lat="43.3298" lon="2.68191">
        <ele>138.09</ele>
        <time>2014-01-20T13:29:30Z</time>
      </trkpt>
      <trkpt lat="43.3298" lon="2.68186">
        <ele>137.61</ele>
        <time>2014-01-20T13:29:33Z</time>
      </trkpt>
      <trkpt lat="43.32981" lon="2.6818">
        <ele>137.13</ele>
        <time>2014-01-20T13:29:36Z</time>
      </trkpt>
      <trkpt lat="43.32984" lon="2.68164">
        <ele>137.13</ele>
        <time>2014-01-20T13:29:45Z</time>
      </trkpt>
      <trkpt lat="43.32983" lon="2.68161">
        <ele>136.64</ele>
        <time>2014-01-20T13:29:47Z</time>
      </trkpt>
      <trkpt lat="43.3298" lon="2.68153">
        <ele>138.09</ele>
        <time>2014-01-20T13:29:54Z</time>
      </trkpt>
      <trkpt lat="43.32972" lon="2.6814">
        <ele>140.97</ele>
        <time>2014-01-20T13:30:07Z</time>
      </trkpt>
      <trkpt lat="43.32959" lon="2.68122">
        <ele>142.41</ele>
        <time>2014-01-20T13:30:21Z</time>
      </trkpt>
      <trkpt lat="43.3295" lon="2.68103">
        <ele>142.41</ele>
        <time>2014-01-20T13:30:36Z</time>
      </trkpt>
      <trkpt lat="43.32944" lon="2.68077">
        <ele>142.41</ele>
        <time>2014-01-20T13:30:52Z</time>
      </trkpt>
      <trkpt lat="43.32941" lon="2.6805">
        <ele>142.41</ele>
        <time>2014-01-20T13:31:07Z</time>
      </trkpt>
      <trkpt lat="43.32941" lon="2.68042">
        <ele>142.41</ele>
        <time>2014-01-20T13:31:14Z</time>
      </trkpt>
      <trkpt lat="43.32939" lon="2.6804">
        <ele>142.89</ele>
        <time>2014-01-20T13:31:16Z</time>
      </trkpt>
      <trkpt lat="43.32927" lon="2.68022">
        <ele>143.85</ele>
        <time>2014-01-20T13:31:30Z</time>
      </trkpt>
      <trkpt lat="43.3292" lon="2.68017">
        <ele>143.37</ele>
        <time>2014-01-20T13:31:38Z</time>
      </trkpt>
      <trkpt lat="43.32917" lon="2.6801">
        <ele>143.37</ele>
        <time>2014-01-20T13:31:43Z</time>
      </trkpt>
      <trkpt lat="43.32912" lon="2.68006">
        <ele>142.89</ele>
        <time>2014-01-20T13:31:48Z</time>
      </trkpt>
      <trkpt lat="43.32899" lon="2.68001">
        <ele>141.45</ele>
        <time>2014-01-20T13:32:02Z</time>
      </trkpt>
      <trkpt lat="43.32886" lon="2.67999">
        <ele>140.49</ele>
        <time>2014-01-20T13:32:15Z</time>
      </trkpt>
      <trkpt lat="43.32869" lon="2.67995">
        <ele>140.01</ele>
        <time>2014-01-20T13:32:29Z</time>
      </trkpt>
      <trkpt lat="43.32855" lon="2.67992">
        <ele>140.01</ele>
        <time>2014-01-20T13:32:42Z</time>
      </trkpt>
      <trkpt lat="43.32854" lon="2.67991">
        <ele>140.01</ele>
        <time>2014-01-20T13:32:43Z</time>
      </trkpt>
      <trkpt lat="43.32851" lon="2.67989">
        <ele>140.01</ele>
        <time>2014-01-20T13:32:55Z</time>
      </trkpt>
      <trkpt lat="43.3285" lon="2.67985">
        <ele>140.97</ele>
        <time>2014-01-20T13:32:57Z</time>
      </trkpt>
      <trkpt lat="43.3285" lon="2.6797">
        <ele>141.93</ele>
        <time>2014-01-20T13:33:06Z</time>
      </trkpt>
      <trkpt lat="43.32846" lon="2.67946">
        <ele>142.89</ele>
        <time>2014-01-20T13:33:21Z</time>
      </trkpt>
      <trkpt lat="43.32845" lon="2.67923">
        <ele>144.34</ele>
        <time>2014-01-20T13:33:35Z</time>
      </trkpt>
      <trkpt lat="43.32842" lon="2.67914">
        <ele>143.37</ele>
        <time>2014-01-20T13:33:41Z</time>
      </trkpt>
      <trkpt lat="43.32841" lon="2.67904">
        <ele>143.85</ele>
        <time>2014-01-20T13:33:46Z</time>
      </trkpt>
      <trkpt lat="43.32839" lon="2.67899">
        <ele>143.85</ele>
        <time>2014-01-20T13:33:50Z</time>
      </trkpt>
      <trkpt lat="43.32835" lon="2.67887">
        <ele>143.37</ele>
        <time>2014-01-20T13:33:58Z</time>
      </trkpt>
      <trkpt lat="43.32834" lon="2.67878">
        <ele>143.37</ele>
        <time>2014-01-20T13:34:03Z</time>
      </trkpt>
      <trkpt lat="43.32828" lon="2.67854">
        <ele>141.45</ele>
        <time>2014-01-20T13:34:17Z</time>
      </trkpt>
      <trkpt lat="43.32828" lon="2.67851">
        <ele>141.93</ele>
        <time>2014-01-20T13:34:19Z</time>
      </trkpt>
      <trkpt lat="43.32828" lon="2.67845">
        <ele>142.41</ele>
        <time>2014-01-20T13:34:23Z</time>
      </trkpt>
      <trkpt lat="43.32825" lon="2.6783">
        <ele>141.93</ele>
        <time>2014-01-20T13:34:38Z</time>
      </trkpt>
      <trkpt lat="43.32823" lon="2.67823">
        <ele>140.97</ele>
        <time>2014-01-20T13:34:45Z</time>
      </trkpt>
      <trkpt lat="43.32818" lon="2.67802">
        <ele>140.49</ele>
        <time>2014-01-20T13:35:00Z</time>
      </trkpt>
      <trkpt lat="43.32816" lon="2.67794">
        <ele>140.49</ele>
        <time>2014-01-20T13:35:11Z</time>
      </trkpt>
      <trkpt lat="43.32815" lon="2.67783">
        <ele>140.49</ele>
        <time>2014-01-20T13:35:22Z</time>
      </trkpt>
      <trkpt lat="43.32814" lon="2.67769">
        <ele>140.49</ele>
        <time>2014-01-20T13:35:35Z</time>
      </trkpt>
      <trkpt lat="43.32813" lon="2.67768">
        <ele>140.49</ele>
        <time>2014-01-20T13:35:36Z</time>
      </trkpt>
      <trkpt lat="43.32808" lon="2.67759">
        <ele>140.49</ele>
        <time>2014-01-20T13:35:47Z</time>
      </trkpt>
      <trkpt lat="43.32808" lon="2.67753">
        <ele>140.97</ele>
        <time>2014-01-20T13:35:58Z</time>
      </trkpt>
      <trkpt lat="43.32807" lon="2.67752">
        <ele>140.49</ele>
        <time>2014-01-20T13:35:59Z</time>
      </trkpt>
      <trkpt lat="43.32806" lon="2.67741">
        <ele>141.45</ele>
        <time>2014-01-20T13:36:08Z</time>
      </trkpt>
      <trkpt lat="43.32804" lon="2.67725">
        <ele>141.93</ele>
        <time>2014-01-20T13:36:22Z</time>
      </trkpt>
      <trkpt lat="43.32802" lon="2.67713">
        <ele>141.93</ele>
        <time>2014-01-20T13:36:34Z</time>
      </trkpt>
      <trkpt lat="43.328" lon="2.67702">
        <ele>142.89</ele>
        <time>2014-01-20T13:36:47Z</time>
      </trkpt>
      <trkpt lat="43.32798" lon="2.67697">
        <ele>142.89</ele>
        <time>2014-01-20T13:36:52Z</time>
      </trkpt>
      <trkpt lat="43.32796" lon="2.67695">
        <ele>142.89</ele>
        <time>2014-01-20T13:36:54Z</time>
      </trkpt>
      <trkpt lat="43.32792" lon="2.67689">
        <ele>142.41</ele>
        <time>2014-01-20T13:37:00Z</time>
      </trkpt>
      <trkpt lat="43.32789" lon="2.67685">
        <ele>141.45</ele>
        <time>2014-01-20T13:37:04Z</time>
      </trkpt>
      <trkpt lat="43.32782" lon="2.6767">
        <ele>141.45</ele>
        <time>2014-01-20T13:37:17Z</time>
      </trkpt>
      <trkpt lat="43.32781" lon="2.67669">
        <ele>141.45</ele>
        <time>2014-01-20T13:37:18Z</time>
      </trkpt>
      <trkpt lat="43.32782" lon="2.67651">
        <ele>140.97</ele>
        <time>2014-01-20T13:37:27Z</time>
      </trkpt>
      <trkpt lat="43.32784" lon="2.67635">
        <ele>141.45</ele>
        <time>2014-01-20T13:37:38Z</time>
      </trkpt>
      <trkpt lat="43.32783" lon="2.6761">
        <ele>141.45</ele>
        <time>2014-01-20T13:37:54Z</time>
      </trkpt>
      <trkpt lat="43.32779" lon="2.67588">
        <ele>141.93</ele>
        <time>2014-01-20T13:38:10Z</time>
      </trkpt>
      <trkpt lat="43.32779" lon="2.67587">
        <ele>141.45</ele>
        <time>2014-01-20T13:38:12Z</time>
      </trkpt>
      <trkpt lat="43.32778" lon="2.67581">
        <ele>142.41</ele>
        <time>2014-01-20T13:38:16Z</time>
      </trkpt>
      <trkpt lat="43.32777" lon="2.67574">
        <ele>142.41</ele>
        <time>2014-01-20T13:38:25Z</time>
      </trkpt>
      <trkpt lat="43.32775" lon="2.67568">
        <ele>143.37</ele>
        <time>2014-01-20T13:38:29Z</time>
      </trkpt>
      <trkpt lat="43.32772" lon="2.67561">
        <ele>143.37</ele>
        <time>2014-01-20T13:38:40Z</time>
      </trkpt>
      <trkpt lat="43.32759" lon="2.67559">
        <ele>142.89</ele>
        <time>2014-01-20T13:38:52Z</time>
      </trkpt>
      <trkpt lat="43.3275" lon="2.67556">
        <ele>143.37</ele>
        <time>2014-01-20T13:39:00Z</time>
      </trkpt>
      <trkpt lat="43.32744" lon="2.67554">
        <ele>143.37</ele>
        <time>2014-01-20T13:39:12Z</time>
      </trkpt>
      <trkpt lat="43.3274" lon="2.67554">
        <ele>142.41</ele>
        <time>2014-01-20T13:39:23Z</time>
      </trkpt>
      <trkpt lat="43.32734" lon="2.67556">
        <ele>142.41</ele>
        <time>2014-01-20T13:39:38Z</time>
      </trkpt>
      <trkpt lat="43.32733" lon="2.67559">
        <ele>141.93</ele>
        <time>2014-01-20T13:39:51Z</time>
      </trkpt>
      <trkpt lat="43.32732" lon="2.67559">
        <ele>142.41</ele>
        <time>2014-01-20T13:39:52Z</time>
      </trkpt>
      <trkpt lat="43.32731" lon="2.67558">
        <ele>142.41</ele>
        <time>2014-01-20T13:39:54Z</time>
      </trkpt>
      <trkpt lat="43.32719" lon="2.67544">
        <ele>142.89</ele>
        <time>2014-01-20T13:40:08Z</time>
      </trkpt>
      <trkpt lat="43.32717" lon="2.6754">
        <ele>142.89</ele>
        <time>2014-01-20T13:40:11Z</time>
      </trkpt>
      <trkpt lat="43.32714" lon="2.6753">
        <ele>143.37</ele>
        <time>2014-01-20T13:40:16Z</time>
      </trkpt>
      <trkpt lat="43.32704" lon="2.67507">
        <ele>143.85</ele>
        <time>2014-01-20T13:40:32Z</time>
      </trkpt>
      <trkpt lat="43.32704" lon="2.67504">
        <ele>143.85</ele>
        <time>2014-01-20T13:40:34Z</time>
      </trkpt>
      <trkpt lat="43.32698" lon="2.67487">
        <ele>145.3</ele>
        <time>2014-01-20T13:40:45Z</time>
      </trkpt>
      <trkpt lat="43.32695" lon="2.67477">
        <ele>145.78</ele>
        <time>2014-01-20T13:40:53Z</time>
      </trkpt>
      <trkpt lat="43.32695" lon="2.67474">
        <ele>146.26</ele>
        <time>2014-01-20T13:40:55Z</time>
      </trkpt>
      <trkpt lat="43.32692" lon="2.67465">
        <ele>146.26</ele>
        <time>2014-01-20T13:41:00Z</time>
      </trkpt>
      <trkpt lat="43.32692" lon="2.67444">
        <ele>147.22</ele>
        <time>2014-01-20T13:41:13Z</time>
      </trkpt>
      <trkpt lat="43.32693" lon="2.67421">
        <ele>147.22</ele>
        <time>2014-01-20T13:41:27Z</time>
      </trkpt>
      <trkpt lat="43.32696" lon="2.67394">
        <ele>147.7</ele>
        <time>2014-01-20T13:41:42Z</time>
      </trkpt>
      <trkpt lat="43.32698" lon="2.67373">
        <ele>147.7</ele>
        <time>2014-01-20T13:41:56Z</time>
      </trkpt>
      <trkpt lat="43.32701" lon="2.67351">
        <ele>147.22</ele>
        <time>2014-01-20T13:42:11Z</time>
      </trkpt>
      <trkpt lat="43.32701" lon="2.67336">
        <ele>146.74</ele>
        <time>2014-01-20T13:42:21Z</time>
      </trkpt>
      <trkpt lat="43.32696" lon="2.67331">
        <ele>146.26</ele>
        <time>2014-01-20T13:42:27Z</time>
      </trkpt>
      <trkpt lat="43.32692" lon="2.67326">
        <ele>145.78</ele>
        <time>2014-01-20T13:42:40Z</time>
      </trkpt>
      <trkpt lat="43.3269" lon="2.67328">
        <ele>144.82</ele>
        <time>2014-01-20T13:42:53Z</time>
      </trkpt>
      <trkpt lat="43.32686" lon="2.67334">
        <ele>143.37</ele>
        <time>2014-01-20T13:43:00Z</time>
      </trkpt>
      <trkpt lat="43.32677" lon="2.67346">
        <ele>142.41</ele>
        <time>2014-01-20T13:43:14Z</time>
      </trkpt>
      <trkpt lat="43.32665" lon="2.67352">
        <ele>141.45</ele>
        <time>2014-01-20T13:43:25Z</time>
      </trkpt>
      <trkpt lat="43.32655" lon="2.67356">
        <ele>140.97</ele>
        <time>2014-01-20T13:43:37Z</time>
      </trkpt>
      <trkpt lat="43.32648" lon="2.67361">
        <ele>140.49</ele>
        <time>2014-01-20T13:43:50Z</time>
      </trkpt>
      <trkpt lat="43.32647" lon="2.67363">
        <ele>140.97</ele>
        <time>2014-01-20T13:43:53Z</time>
      </trkpt>
      <trkpt lat="43.32645" lon="2.67365">
        <ele>141.45</ele>
        <time>2014-01-20T13:43:55Z</time>
      </trkpt>
      <trkpt lat="43.32641" lon="2.67371">
        <ele>140.01</ele>
        <time>2014-01-20T13:44:00Z</time>
      </trkpt>
      <trkpt lat="43.32635" lon="2.67391">
        <ele>139.05</ele>
        <time>2014-01-20T13:44:13Z</time>
      </trkpt>
      <trkpt lat="43.32631" lon="2.67397">
        <ele>138.57</ele>
        <time>2014-01-20T13:44:19Z</time>
      </trkpt>
      <trkpt lat="43.32618" lon="2.67412">
        <ele>139.05</ele>
        <time>2014-01-20T13:44:32Z</time>
      </trkpt>
      <trkpt lat="43.32617" lon="2.67412">
        <ele>138.57</ele>
        <time>2014-01-20T13:44:33Z</time>
      </trkpt>
      <trkpt lat="43.32612" lon="2.67414">
        <ele>138.09</ele>
        <time>2014-01-20T13:44:37Z</time>
      </trkpt>
      <trkpt lat="43.32604" lon="2.67422">
        <ele>136.64</ele>
        <time>2014-01-20T13:44:47Z</time>
      </trkpt>
      <trkpt lat="43.32599" lon="2.67424">
        <ele>136.16</ele>
        <time>2014-01-20T13:44:52Z</time>
      </trkpt>
      <trkpt lat="43.32592" lon="2.6743">
        <ele>136.16</ele>
        <time>2014-01-20T13:44:59Z</time>
      </trkpt>
      <trkpt lat="43.32585" lon="2.67441">
        <ele>135.2</ele>
        <time>2014-01-20T13:45:08Z</time>
      </trkpt>
      <trkpt lat="43.32576" lon="2.67449">
        <ele>134.24</ele>
        <time>2014-01-20T13:45:20Z</time>
      </trkpt>
      <trkpt lat="43.3257" lon="2.67454">
        <ele>132.8</ele>
        <time>2014-01-20T13:45:32Z</time>
      </trkpt>
      <trkpt lat="43.32567" lon="2.67456">
        <ele>131.84</ele>
        <time>2014-01-20T13:45:38Z</time>
      </trkpt>
      <trkpt lat="43.32561" lon="2.67466">
        <ele>131.84</ele>
        <time>2014-01-20T13:45:44Z</time>
      </trkpt>
      <trkpt lat="43.32549" lon="2.67471">
        <ele>130.4</ele>
        <time>2014-01-20T13:45:51Z</time>
      </trkpt>
      <trkpt lat="43.32538" lon="2.67489">
        <ele>128.47</ele>
        <time>2014-01-20T13:46:02Z</time>
      </trkpt>
      <trkpt lat="43.32537" lon="2.67489">
        <ele>128.47</ele>
        <time>2014-01-20T13:46:03Z</time>
      </trkpt>
      <trkpt lat="43.32521" lon="2.67499">
        <ele>127.03</ele>
        <time>2014-01-20T13:46:13Z</time>
      </trkpt>
      <trkpt lat="43.32519" lon="2.675">
        <ele>126.55</ele>
        <time>2014-01-20T13:46:14Z</time>
      </trkpt>
      <trkpt lat="43.32512" lon="2.67505">
        <ele>127.03</ele>
        <time>2014-01-20T13:46:26Z</time>
      </trkpt>
      <trkpt lat="43.3251" lon="2.67507">
        <ele>126.07</ele>
        <time>2014-01-20T13:46:28Z</time>
      </trkpt>
      <trkpt lat="43.32508" lon="2.67508">
        <ele>126.07</ele>
        <time>2014-01-20T13:46:31Z</time>
      </trkpt>
      <trkpt lat="43.32506" lon="2.67512">
        <ele>124.63</ele>
        <time>2014-01-20T13:46:36Z</time>
      </trkpt>
      <trkpt lat="43.32504" lon="2.6752">
        <ele>124.15</ele>
        <time>2014-01-20T13:46:41Z</time>
      </trkpt>
      <trkpt lat="43.325" lon="2.67532">
        <ele>122.71</ele>
        <time>2014-01-20T13:46:52Z</time>
      </trkpt>
      <trkpt lat="43.32498" lon="2.67534">
        <ele>122.22</ele>
        <time>2014-01-20T13:46:54Z</time>
      </trkpt>
      <trkpt lat="43.32491" lon="2.67538">
        <ele>122.22</ele>
        <time>2014-01-20T13:47:06Z</time>
      </trkpt>
      <trkpt lat="43.32491" lon="2.6754">
        <ele>121.74</ele>
        <time>2014-01-20T13:47:08Z</time>
      </trkpt>
      <trkpt lat="43.32489" lon="2.67545">
        <ele>121.26</ele>
        <time>2014-01-20T13:47:11Z</time>
      </trkpt>
      <trkpt lat="43.3248" lon="2.67553">
        <ele>120.3</ele>
        <time>2014-01-20T13:47:22Z</time>
      </trkpt>
      <trkpt lat="43.32475" lon="2.67562">
        <ele>119.82</ele>
        <time>2014-01-20T13:47:33Z</time>
      </trkpt>
      <trkpt lat="43.32475" lon="2.67562">
        <ele>119.34</ele>
        <time>2014-01-20T13:47:41Z</time>
      </trkpt>
      <trkpt lat="43.32477" lon="2.67563">
        <ele>118.86</ele>
        <time>2014-01-20T13:47:43Z</time>
      </trkpt>
      <trkpt lat="43.32481" lon="2.67567">
        <ele>119.82</ele>
        <time>2014-01-20T13:47:55Z</time>
      </trkpt>
      <trkpt lat="43.32478" lon="2.67565">
        <ele>119.34</ele>
        <time>2014-01-20T13:48:06Z</time>
      </trkpt>
      <trkpt lat="43.32479" lon="2.67564">
        <ele>118.86</ele>
        <time>2014-01-20T13:48:18Z</time>
      </trkpt>
      <trkpt lat="43.32476" lon="2.67561">
        <ele>119.34</ele>
        <time>2014-01-20T13:48:31Z</time>
      </trkpt>
      <trkpt lat="43.32478" lon="2.67562">
        <ele>118.86</ele>
        <time>2014-01-20T13:48:48Z</time>
      </trkpt>
      <trkpt lat="43.32475" lon="2.67561">
        <ele>118.86</ele>
        <time>2014-01-20T13:48:52Z</time>
      </trkpt>
      <trkpt lat="43.32473" lon="2.6756">
        <ele>119.34</ele>
        <time>2014-01-20T13:48:54Z</time>
      </trkpt>
      <trkpt lat="43.32457" lon="2.67558">
        <ele>116.94</ele>
        <time>2014-01-20T13:49:08Z</time>
      </trkpt>
      <trkpt lat="43.32453" lon="2.67556">
        <ele>115.98</ele>
        <time>2014-01-20T13:49:20Z</time>
      </trkpt>
      <trkpt lat="43.32446" lon="2.67555">
        <ele>114.53</ele>
        <time>2014-01-20T13:49:33Z</time>
      </trkpt>
      <trkpt lat="43.32444" lon="2.67555">
        <ele>114.05</ele>
        <time>2014-01-20T13:49:36Z</time>
      </trkpt>
      <trkpt lat="43.3244" lon="2.67555">
        <ele>113.57</ele>
        <time>2014-01-20T13:49:41Z</time>
      </trkpt>
      <trkpt lat="43.32435" lon="2.67554">
        <ele>113.09</ele>
        <time>2014-01-20T13:49:46Z</time>
      </trkpt>
      <trkpt lat="43.32431" lon="2.67558">
        <ele>112.13</ele>
        <time>2014-01-20T13:49:53Z</time>
      </trkpt>
      <trkpt lat="43.32428" lon="2.6756">
        <ele>112.13</ele>
        <time>2014-01-20T13:49:56Z</time>
      </trkpt>
      <trkpt lat="43.32425" lon="2.67565">
        <ele>111.17</ele>
        <time>2014-01-20T13:50:02Z</time>
      </trkpt>
      <trkpt lat="43.3242" lon="2.67572">
        <ele>111.17</ele>
        <time>2014-01-20T13:50:09Z</time>
      </trkpt>
      <trkpt lat="43.32411" lon="2.67592">
        <ele>111.17</ele>
        <time>2014-01-20T13:50:24Z</time>
      </trkpt>
      <trkpt lat="43.32406" lon="2.67602">
        <ele>111.65</ele>
        <time>2014-01-20T13:50:30Z</time>
      </trkpt>
      <trkpt lat="43.32392" lon="2.6762">
        <ele>111.17</ele>
        <time>2014-01-20T13:50:44Z</time>
      </trkpt>
      <trkpt lat="43.32391" lon="2.67622">
        <ele>111.17</ele>
        <time>2014-01-20T13:50:45Z</time>
      </trkpt>
      <trkpt lat="43.32389" lon="2.67625">
        <ele>111.65</ele>
        <time>2014-01-20T13:50:48Z</time>
      </trkpt>
      <trkpt lat="43.32385" lon="2.67635">
        <ele>111.65</ele>
        <time>2014-01-20T13:50:55Z</time>
      </trkpt>
      <trkpt lat="43.32381" lon="2.67643">
        <ele>110.69</ele>
        <time>2014-01-20T13:51:03Z</time>
      </trkpt>
      <trkpt lat="43.32379" lon="2.67648">
        <ele>110.69</ele>
        <time>2014-01-20T13:51:07Z</time>
      </trkpt>
      <trkpt lat="43.32375" lon="2.6766">
        <ele>111.65</ele>
        <time>2014-01-20T13:51:21Z</time>
      </trkpt>
      <trkpt lat="43.32375" lon="2.6766">
        <ele>111.17</ele>
        <time>2014-01-20T13:51:35Z</time>
      </trkpt>
      <trkpt lat="43.32371" lon="2.67666">
        <ele>112.13</ele>
        <time>2014-01-20T13:51:41Z</time>
      </trkpt>
      <trkpt lat="43.32366" lon="2.67667">
        <ele>110.69</ele>
        <time>2014-01-20T13:51:48Z</time>
      </trkpt>
      <trkpt lat="43.32366" lon="2.67667">
        <ele>110.21</ele>
        <time>2014-01-20T13:51:49Z</time>
      </trkpt>
      <trkpt lat="43.32364" lon="2.67664">
        <ele>108.77</ele>
        <time>2014-01-20T13:51:51Z</time>
      </trkpt>
      <trkpt lat="43.32364" lon="2.67662">
        <ele>110.21</ele>
        <time>2014-01-20T13:51:52Z</time>
      </trkpt>
      <trkpt lat="43.32371" lon="2.67646">
        <ele>109.73</ele>
        <time>2014-01-20T13:52:04Z</time>
      </trkpt>
      <trkpt lat="43.32372" lon="2.67644">
        <ele>109.25</ele>
        <time>2014-01-20T13:52:06Z</time>
      </trkpt>
      <trkpt lat="43.32378" lon="2.67632">
        <ele>108.77</ele>
        <time>2014-01-20T13:52:17Z</time>
      </trkpt>
      <trkpt lat="43.32387" lon="2.67613">
        <ele>108.77</ele>
        <time>2014-01-20T13:52:32Z</time>
      </trkpt>
      <trkpt lat="43.32398" lon="2.67597">
        <ele>108.77</ele>
        <time>2014-01-20T13:52:46Z</time>
      </trkpt>
      <trkpt lat="43.32401" lon="2.67591">
        <ele>108.77</ele>
        <time>2014-01-20T13:52:52Z</time>
      </trkpt>
      <trkpt lat="43.32406" lon="2.67572">
        <ele>108.29</ele>
        <time>2014-01-20T13:53:06Z</time>
      </trkpt>
      <trkpt lat="43.32405" lon="2.67554">
        <ele>107.81</ele>
        <time>2014-01-20T13:53:21Z</time>
      </trkpt>
      <trkpt lat="43.32404" lon="2.67548">
        <ele>107.81</ele>
        <time>2014-01-20T13:53:25Z</time>
      </trkpt>
      <trkpt lat="43.32396" lon="2.67529">
        <ele>106.36</ele>
        <time>2014-01-20T13:53:40Z</time>
      </trkpt>
      <trkpt lat="43.32389" lon="2.67517">
        <ele>106.36</ele>
        <time>2014-01-20T13:53:51Z</time>
      </trkpt>
      <trkpt lat="43.32387" lon="2.67511">
        <ele>106.36</ele>
        <time>2014-01-20T13:53:55Z</time>
      </trkpt>
      <trkpt lat="43.32381" lon="2.67493">
        <ele>106.84</ele>
        <time>2014-01-20T13:54:09Z</time>
      </trkpt>
      <trkpt lat="43.32376" lon="2.67482">
        <ele>105.88</ele>
        <time>2014-01-20T13:54:21Z</time>
      </trkpt>
      <trkpt lat="43.32372" lon="2.67479">
        <ele>105.4</ele>
        <time>2014-01-20T13:54:30Z</time>
      </trkpt>
      <trkpt lat="43.32373" lon="2.67479">
        <ele>105.88</ele>
        <time>2014-01-20T13:54:39Z</time>
      </trkpt>
      <trkpt lat="43.32374" lon="2.67477">
        <ele>105.88</ele>
        <time>2014-01-20T13:54:41Z</time>
      </trkpt>
      <trkpt lat="43.32376" lon="2.67468">
        <ele>105.4</ele>
        <time>2014-01-20T13:54:55Z</time>
      </trkpt>
      <trkpt lat="43.32374" lon="2.67466">
        <ele>104.92</ele>
        <time>2014-01-20T13:55:09Z</time>
      </trkpt>
      <trkpt lat="43.3237" lon="2.67465">
        <ele>103.48</ele>
        <time>2014-01-20T13:55:22Z</time>
      </trkpt>
      <trkpt lat="43.32368" lon="2.67462">
        <ele>102.52</ele>
        <time>2014-01-20T13:55:35Z</time>
      </trkpt>
      <trkpt lat="43.32366" lon="2.67462">
        <ele>102.52</ele>
        <time>2014-01-20T13:55:51Z</time>
      </trkpt>
      <trkpt lat="43.32367" lon="2.67457">
        <ele>103</ele>
        <time>2014-01-20T13:56:03Z</time>
      </trkpt>
      <trkpt lat="43.32369" lon="2.67452">
        <ele>105.88</ele>
        <time>2014-01-20T13:56:17Z</time>
      </trkpt>
      <trkpt lat="43.3237" lon="2.67448">
        <ele>106.84</ele>
        <time>2014-01-20T13:56:31Z</time>
      </trkpt>
      <trkpt lat="43.32369" lon="2.67441">
        <ele>108.29</ele>
        <time>2014-01-20T13:56:42Z</time>
      </trkpt>
      <trkpt lat="43.32369" lon="2.6744">
        <ele>108.77</ele>
        <time>2014-01-20T13:56:43Z</time>
      </trkpt>
      <trkpt lat="43.32368" lon="2.67434">
        <ele>109.25</ele>
        <time>2014-01-20T13:56:48Z</time>
      </trkpt>
      <trkpt lat="43.32366" lon="2.67433">
        <ele>109.25</ele>
        <time>2014-01-20T13:56:51Z</time>
      </trkpt>
      <trkpt lat="43.32357" lon="2.67423">
        <ele>111.65</ele>
        <time>2014-01-20T13:57:05Z</time>
      </trkpt>
      <trkpt lat="43.32349" lon="2.67415">
        <ele>113.09</ele>
        <time>2014-01-20T13:57:18Z</time>
      </trkpt>
      <trkpt lat="43.32343" lon="2.67409">
        <ele>115.01</ele>
        <time>2014-01-20T13:57:30Z</time>
      </trkpt>
      <trkpt lat="43.32332" lon="2.67401">
        <ele>115.5</ele>
        <time>2014-01-20T13:57:44Z</time>
      </trkpt>
      <trkpt lat="43.3233" lon="2.67399">
        <ele>115.5</ele>
        <time>2014-01-20T13:57:47Z</time>
      </trkpt>
      <trkpt lat="43.32316" lon="2.6739">
        <ele>117.42</ele>
        <time>2014-01-20T13:58:05Z</time>
      </trkpt>
      <trkpt lat="43.32314" lon="2.67389">
        <ele>116.46</ele>
        <time>2014-01-20T13:58:08Z</time>
      </trkpt>
      <trkpt lat="43.32307" lon="2.67384">
        <ele>117.42</ele>
        <time>2014-01-20T13:58:19Z</time>
      </trkpt>
      <trkpt lat="43.32304" lon="2.67383">
        <ele>117.42</ele>
        <time>2014-01-20T13:58:22Z</time>
      </trkpt>
      <trkpt lat="43.32293" lon="2.67375">
        <ele>118.38</ele>
        <time>2014-01-20T13:58:37Z</time>
      </trkpt>
      <trkpt lat="43.32291" lon="2.67374">
        <ele>117.42</ele>
        <time>2014-01-20T13:58:41Z</time>
      </trkpt>
      <trkpt lat="43.32289" lon="2.67373">
        <ele>116.94</ele>
        <time>2014-01-20T13:58:43Z</time>
      </trkpt>
      <trkpt lat="43.32285" lon="2.67369">
        <ele>116.94</ele>
        <time>2014-01-20T13:58:47Z</time>
      </trkpt>
      <trkpt lat="43.32281" lon="2.67368">
        <ele>116.94</ele>
        <time>2014-01-20T13:58:51Z</time>
      </trkpt>
      <trkpt lat="43.32277" lon="2.67364">
        <ele>116.94</ele>
        <time>2014-01-20T13:58:58Z</time>
      </trkpt>
      <trkpt lat="43.32279" lon="2.6736">
        <ele>116.46</ele>
        <time>2014-01-20T13:59:09Z</time>
      </trkpt>
      <trkpt lat="43.3228" lon="2.67359">
        <ele>116.46</ele>
        <time>2014-01-20T13:59:10Z</time>
      </trkpt>
      <trkpt lat="43.32283" lon="2.67354">
        <ele>116.46</ele>
        <time>2014-01-20T13:59:15Z</time>
      </trkpt>
      <trkpt lat="43.32285" lon="2.67353">
        <ele>115.98</ele>
        <time>2014-01-20T13:59:17Z</time>
      </trkpt>
      <trkpt lat="43.3229" lon="2.67348">
        <ele>115.98</ele>
        <time>2014-01-20T13:59:23Z</time>
      </trkpt>
      <trkpt lat="43.32304" lon="2.6734">
        <ele>115.98</ele>
        <time>2014-01-20T13:59:38Z</time>
      </trkpt>
      <trkpt lat="43.32309" lon="2.67338">
        <ele>115.98</ele>
        <time>2014-01-20T13:59:43Z</time>
      </trkpt>
      <trkpt lat="43.32315" lon="2.67335">
        <ele>116.46</ele>
        <time>2014-01-20T13:59:50Z</time>
      </trkpt>
      <trkpt lat="43.32318" lon="2.67333">
        <ele>115.98</ele>
        <time>2014-01-20T13:59:53Z</time>
      </trkpt>
      <trkpt lat="43.32323" lon="2.67331">
        <ele>116.46</ele>
        <time>2014-01-20T13:59:57Z</time>
      </trkpt>
      <trkpt lat="43.32326" lon="2.67328">
        <ele>115.98</ele>
        <time>2014-01-20T14:00:01Z</time>
      </trkpt>
      <trkpt lat="43.32336" lon="2.67325">
        <ele>115.5</ele>
        <time>2014-01-20T14:00:12Z</time>
      </trkpt>
      <trkpt lat="43.32338" lon="2.67322">
        <ele>115.98</ele>
        <time>2014-01-20T14:00:15Z</time>
      </trkpt>
      <trkpt lat="43.32353" lon="2.67316">
        <ele>115.5</ele>
        <time>2014-01-20T14:00:30Z</time>
      </trkpt>
      <trkpt lat="43.32355" lon="2.67315">
        <ele>115.01</ele>
        <time>2014-01-20T14:00:35Z</time>
      </trkpt>
      <trkpt lat="43.3236" lon="2.67312">
        <ele>115.5</ele>
        <time>2014-01-20T14:00:41Z</time>
      </trkpt>
      <trkpt lat="43.32366" lon="2.67305">
        <ele>116.46</ele>
        <time>2014-01-20T14:00:47Z</time>
      </trkpt>
      <trkpt lat="43.32371" lon="2.67299">
        <ele>116.46</ele>
        <time>2014-01-20T14:00:52Z</time>
      </trkpt>
      <trkpt lat="43.32375" lon="2.67293">
        <ele>115.98</ele>
        <time>2014-01-20T14:00:57Z</time>
      </trkpt>
      <trkpt lat="43.32382" lon="2.67283">
        <ele>115.98</ele>
        <time>2014-01-20T14:01:06Z</time>
      </trkpt>
      <trkpt lat="43.32383" lon="2.6728">
        <ele>116.46</ele>
        <time>2014-01-20T14:01:08Z</time>
      </trkpt>
      <trkpt lat="43.3239" lon="2.67266">
        <ele>115.01</ele>
        <time>2014-01-20T14:01:24Z</time>
      </trkpt>
      <trkpt lat="43.32392" lon="2.67263">
        <ele>115.01</ele>
        <time>2014-01-20T14:01:29Z</time>
      </trkpt>
      <trkpt lat="43.32393" lon="2.67248">
        <ele>114.53</ele>
        <time>2014-01-20T14:01:41Z</time>
      </trkpt>
      <trkpt lat="43.32392" lon="2.6724">
        <ele>114.05</ele>
        <time>2014-01-20T14:01:46Z</time>
      </trkpt>
      <trkpt lat="43.32392" lon="2.67234">
        <ele>114.05</ele>
        <time>2014-01-20T14:01:50Z</time>
      </trkpt>
      <trkpt lat="43.32394" lon="2.67224">
        <ele>114.53</ele>
        <time>2014-01-20T14:01:57Z</time>
      </trkpt>
      <trkpt lat="43.32394" lon="2.6722">
        <ele>114.05</ele>
        <time>2014-01-20T14:02:00Z</time>
      </trkpt>
      <trkpt lat="43.32395" lon="2.67212">
        <ele>114.05</ele>
        <time>2014-01-20T14:02:05Z</time>
      </trkpt>
      <trkpt lat="43.32396" lon="2.67195">
        <ele>113.57</ele>
        <time>2014-01-20T14:02:16Z</time>
      </trkpt>
      <trkpt lat="43.32396" lon="2.67189">
        <ele>112.61</ele>
        <time>2014-01-20T14:02:20Z</time>
      </trkpt>
      <trkpt lat="43.32397" lon="2.67178">
        <ele>113.57</ele>
        <time>2014-01-20T14:02:28Z</time>
      </trkpt>
      <trkpt lat="43.32398" lon="2.67173">
        <ele>113.57</ele>
        <time>2014-01-20T14:02:31Z</time>
      </trkpt>
      <trkpt lat="43.32399" lon="2.67168">
        <ele>113.57</ele>
        <time>2014-01-20T14:02:35Z</time>
      </trkpt>
      <trkpt lat="43.324" lon="2.6716">
        <ele>113.09</ele>
        <time>2014-01-20T14:02:40Z</time>
      </trkpt>
      <trkpt lat="43.32401" lon="2.67144">
        <ele>113.57</ele>
        <time>2014-01-20T14:02:50Z</time>
      </trkpt>
      <trkpt lat="43.32402" lon="2.67136">
        <ele>113.57</ele>
        <time>2014-01-20T14:02:55Z</time>
      </trkpt>
      <trkpt lat="43.32402" lon="2.67125">
        <ele>113.09</ele>
        <time>2014-01-20T14:03:03Z</time>
      </trkpt>
      <trkpt lat="43.32403" lon="2.67119">
        <ele>113.57</ele>
        <time>2014-01-20T14:03:07Z</time>
      </trkpt>
      <trkpt lat="43.32404" lon="2.67109">
        <ele>113.09</ele>
        <time>2014-01-20T14:03:14Z</time>
      </trkpt>
      <trkpt lat="43.32405" lon="2.67097">
        <ele>113.57</ele>
        <time>2014-01-20T14:03:21Z</time>
      </trkpt>
      <trkpt lat="43.32407" lon="2.67088">
        <ele>113.09</ele>
        <time>2014-01-20T14:03:30Z</time>
      </trkpt>
      <trkpt lat="43.32407" lon="2.67079">
        <ele>113.57</ele>
        <time>2014-01-20T14:03:35Z</time>
      </trkpt>
      <trkpt lat="43.32408" lon="2.67062">
        <ele>113.57</ele>
        <time>2014-01-20T14:03:47Z</time>
      </trkpt>
      <trkpt lat="43.32409" lon="2.67043">
        <ele>113.57</ele>
        <time>2014-01-20T14:04:01Z</time>
      </trkpt>
      <trkpt lat="43.3241" lon="2.67029">
        <ele>114.05</ele>
        <time>2014-01-20T14:04:11Z</time>
      </trkpt>
      <trkpt lat="43.3241" lon="2.67023">
        <ele>114.05</ele>
        <time>2014-01-20T14:04:15Z</time>
      </trkpt>
      <trkpt lat="43.32411" lon="2.67014">
        <ele>114.05</ele>
        <time>2014-01-20T14:04:23Z</time>
      </trkpt>
      <trkpt lat="43.32411" lon="2.67011">
        <ele>114.53</ele>
        <time>2014-01-20T14:04:25Z</time>
      </trkpt>
      <trkpt lat="43.32412" lon="2.66999">
        <ele>115.01</ele>
        <time>2014-01-20T14:04:32Z</time>
      </trkpt>
      <trkpt lat="43.32412" lon="2.66978">
        <ele>115.01</ele>
        <time>2014-01-20T14:04:47Z</time>
      </trkpt>
      <trkpt lat="43.32412" lon="2.66974">
        <ele>115.01</ele>
        <time>2014-01-20T14:04:57Z</time>
      </trkpt>
      <trkpt lat="43.32411" lon="2.66972">
        <ele>114.53</ele>
        <time>2014-01-20T14:04:59Z</time>
      </trkpt>
      <trkpt lat="43.32411" lon="2.66967">
        <ele>115.01</ele>
        <time>2014-01-20T14:05:06Z</time>
      </trkpt>
      <trkpt lat="43.32411" lon="2.66964">
        <ele>115.01</ele>
        <time>2014-01-20T14:05:08Z</time>
      </trkpt>
      <trkpt lat="43.32407" lon="2.66952">
        <ele>114.53</ele>
        <time>2014-01-20T14:05:18Z</time>
      </trkpt>
      <trkpt lat="43.32406" lon="2.66949">
        <ele>115.01</ele>
        <time>2014-01-20T14:05:20Z</time>
      </trkpt>
      <trkpt lat="43.32403" lon="2.66943">
        <ele>115.5</ele>
        <time>2014-01-20T14:05:25Z</time>
      </trkpt>
      <trkpt lat="43.324" lon="2.66938">
        <ele>115.98</ele>
        <time>2014-01-20T14:05:30Z</time>
      </trkpt>
      <trkpt lat="43.32395" lon="2.66919">
        <ele>115.98</ele>
        <time>2014-01-20T14:05:43Z</time>
      </trkpt>
      <trkpt lat="43.32391" lon="2.66899">
        <ele>115.01</ele>
        <time>2014-01-20T14:05:57Z</time>
      </trkpt>
      <trkpt lat="43.32389" lon="2.66886">
        <ele>115.5</ele>
        <time>2014-01-20T14:06:05Z</time>
      </trkpt>
      <trkpt lat="43.32387" lon="2.66867">
        <ele>114.53</ele>
        <time>2014-01-20T14:06:17Z</time>
      </trkpt>
      <trkpt lat="43.32381" lon="2.66846">
        <ele>115.01</ele>
        <time>2014-01-20T14:06:32Z</time>
      </trkpt>
      <trkpt lat="43.32379" lon="2.66843">
        <ele>115.5</ele>
        <time>2014-01-20T14:06:36Z</time>
      </trkpt>
      <trkpt lat="43.3237" lon="2.66831">
        <ele>115.5</ele>
        <time>2014-01-20T14:06:49Z</time>
      </trkpt>
      <trkpt lat="43.32369" lon="2.66823">
        <ele>115.5</ele>
        <time>2014-01-20T14:06:59Z</time>
      </trkpt>
      <trkpt lat="43.32368" lon="2.66821">
        <ele>115.98</ele>
        <time>2014-01-20T14:07:01Z</time>
      </trkpt>
      <trkpt lat="43.32361" lon="2.66803">
        <ele>115.5</ele>
        <time>2014-01-20T14:07:14Z</time>
      </trkpt>
      <trkpt lat="43.32356" lon="2.66787">
        <ele>115.5</ele>
        <time>2014-01-20T14:07:26Z</time>
      </trkpt>
      <trkpt lat="43.32355" lon="2.66783">
        <ele>115.5</ele>
        <time>2014-01-20T14:07:29Z</time>
      </trkpt>
      <trkpt lat="43.32352" lon="2.66761">
        <ele>115.01</ele>
        <time>2014-01-20T14:07:44Z</time>
      </trkpt>
      <trkpt lat="43.32349" lon="2.66754">
        <ele>115.01</ele>
        <time>2014-01-20T14:07:49Z</time>
      </trkpt>
      <trkpt lat="43.3235" lon="2.66747">
        <ele>114.53</ele>
        <time>2014-01-20T14:07:54Z</time>
      </trkpt>
      <trkpt lat="43.32349" lon="2.66743">
        <ele>114.53</ele>
        <time>2014-01-20T14:07:57Z</time>
      </trkpt>
      <trkpt lat="43.32347" lon="2.66735">
        <ele>115.5</ele>
        <time>2014-01-20T14:08:02Z</time>
      </trkpt>
      <trkpt lat="43.32349" lon="2.66718">
        <ele>115.98</ele>
        <time>2014-01-20T14:08:15Z</time>
      </trkpt>
      <trkpt lat="43.32357" lon="2.66699">
        <ele>115.98</ele>
        <time>2014-01-20T14:08:28Z</time>
      </trkpt>
      <trkpt lat="43.32361" lon="2.66692">
        <ele>117.42</ele>
        <time>2014-01-20T14:08:35Z</time>
      </trkpt>
      <trkpt lat="43.32362" lon="2.6669">
        <ele>117.42</ele>
        <time>2014-01-20T14:08:37Z</time>
      </trkpt>
      <trkpt lat="43.32367" lon="2.6668">
        <ele>118.38</ele>
        <time>2014-01-20T14:08:49Z</time>
      </trkpt>
      <trkpt lat="43.32368" lon="2.66677">
        <ele>118.86</ele>
        <time>2014-01-20T14:08:51Z</time>
      </trkpt>
      <trkpt lat="43.3237" lon="2.66668">
        <ele>118.86</ele>
        <time>2014-01-20T14:08:59Z</time>
      </trkpt>
      <trkpt lat="43.32369" lon="2.66662">
        <ele>119.34</ele>
        <time>2014-01-20T14:09:03Z</time>
      </trkpt>
      <trkpt lat="43.32368" lon="2.66659">
        <ele>118.86</ele>
        <time>2014-01-20T14:09:05Z</time>
      </trkpt>
      <trkpt lat="43.32367" lon="2.66654">
        <ele>118.86</ele>
        <time>2014-01-20T14:09:09Z</time>
      </trkpt>
      <trkpt lat="43.32357" lon="2.6664">
        <ele>118.86</ele>
        <time>2014-01-20T14:09:18Z</time>
      </trkpt>
      <trkpt lat="43.32343" lon="2.66618">
        <ele>118.38</ele>
        <time>2014-01-20T14:09:30Z</time>
      </trkpt>
      <trkpt lat="43.32327" lon="2.66599">
        <ele>119.34</ele>
        <time>2014-01-20T14:09:39Z</time>
      </trkpt>
      <trkpt lat="43.32316" lon="2.6659">
        <ele>118.86</ele>
        <time>2014-01-20T14:09:48Z</time>
      </trkpt>
      <trkpt lat="43.3231" lon="2.66584">
        <ele>118.86</ele>
        <time>2014-01-20T14:09:54Z</time>
      </trkpt>
      <trkpt lat="43.32301" lon="2.66572">
        <ele>118.38</ele>
        <time>2014-01-20T14:10:03Z</time>
      </trkpt>
      <trkpt lat="43.3229" lon="2.66558">
        <ele>118.38</ele>
        <time>2014-01-20T14:10:17Z</time>
      </trkpt>
      <trkpt lat="43.32284" lon="2.66558">
        <ele>118.38</ele>
        <time>2014-01-20T14:10:29Z</time>
      </trkpt>
      <trkpt lat="43.32287" lon="2.66558">
        <ele>118.86</ele>
        <time>2014-01-20T14:10:42Z</time>
      </trkpt>
      <trkpt lat="43.3229" lon="2.66556">
        <ele>118.38</ele>
        <time>2014-01-20T14:10:45Z</time>
      </trkpt>
      <trkpt lat="43.32291" lon="2.66556">
        <ele>118.86</ele>
        <time>2014-01-20T14:10:47Z</time>
      </trkpt>
      <trkpt lat="43.32298" lon="2.66548">
        <ele>118.38</ele>
        <time>2014-01-20T14:10:56Z</time>
      </trkpt>
      <trkpt lat="43.32303" lon="2.66545">
        <ele>117.9</ele>
        <time>2014-01-20T14:11:00Z</time>
      </trkpt>
      <trkpt lat="43.32315" lon="2.66539">
        <ele>118.38</ele>
        <time>2014-01-20T14:11:12Z</time>
      </trkpt>
      <trkpt lat="43.3233" lon="2.66536">
        <ele>119.82</ele>
        <time>2014-01-20T14:11:27Z</time>
      </trkpt>
      <trkpt lat="43.3235" lon="2.6653">
        <ele>121.26</ele>
        <time>2014-01-20T14:11:45Z</time>
      </trkpt>
      <trkpt lat="43.32357" lon="2.66526">
        <ele>121.74</ele>
        <time>2014-01-20T14:11:52Z</time>
      </trkpt>
      <trkpt lat="43.32375" lon="2.6652">
        <ele>123.19</ele>
        <time>2014-01-20T14:12:09Z</time>
      </trkpt>
      <trkpt lat="43.32387" lon="2.66515">
        <ele>124.15</ele>
        <time>2014-01-20T14:12:21Z</time>
      </trkpt>
      <trkpt lat="43.32389" lon="2.66514">
        <ele>124.63</ele>
        <time>2014-01-20T14:12:23Z</time>
      </trkpt>
      <trkpt lat="43.32393" lon="2.66511">
        <ele>124.63</ele>
        <time>2014-01-20T14:12:29Z</time>
      </trkpt>
      <trkpt lat="43.324" lon="2.66509">
        <ele>124.63</ele>
        <time>2014-01-20T14:12:35Z</time>
      </trkpt>
      <trkpt lat="43.32413" lon="2.66502">
        <ele>125.59</ele>
        <time>2014-01-20T14:12:49Z</time>
      </trkpt>
      <trkpt lat="43.32415" lon="2.66502">
        <ele>125.59</ele>
        <time>2014-01-20T14:12:51Z</time>
      </trkpt>
      <trkpt lat="43.32419" lon="2.66502">
        <ele>126.07</ele>
        <time>2014-01-20T14:13:04Z</time>
      </trkpt>
      <trkpt lat="43.3242" lon="2.66502">
        <ele>126.07</ele>
        <time>2014-01-20T14:13:07Z</time>
      </trkpt>
      <trkpt lat="43.3243" lon="2.66498">
        <ele>127.03</ele>
        <time>2014-01-20T14:13:19Z</time>
      </trkpt>
      <trkpt lat="43.32441" lon="2.665">
        <ele>128.95</ele>
        <time>2014-01-20T14:13:32Z</time>
      </trkpt>
      <trkpt lat="43.32461" lon="2.66486">
        <ele>130.88</ele>
        <time>2014-01-20T14:13:44Z</time>
      </trkpt>
      <trkpt lat="43.32472" lon="2.66481">
        <ele>130.88</ele>
        <time>2014-01-20T14:13:53Z</time>
      </trkpt>
      <trkpt lat="43.32487" lon="2.66482">
        <ele>131.36</ele>
        <time>2014-01-20T14:14:07Z</time>
      </trkpt>
      <trkpt lat="43.32488" lon="2.66482">
        <ele>131.36</ele>
        <time>2014-01-20T14:14:19Z</time>
      </trkpt>
      <trkpt lat="43.32498" lon="2.66494">
        <ele>131.84</ele>
        <time>2014-01-20T14:14:27Z</time>
      </trkpt>
      <trkpt lat="43.32504" lon="2.66502">
        <ele>131.36</ele>
        <time>2014-01-20T14:14:36Z</time>
      </trkpt>
      <trkpt lat="43.32504" lon="2.66503">
        <ele>131.84</ele>
        <time>2014-01-20T14:14:37Z</time>
      </trkpt>
      <trkpt lat="43.32509" lon="2.66519">
        <ele>131.84</ele>
        <time>2014-01-20T14:14:48Z</time>
      </trkpt>
      <trkpt lat="43.32522" lon="2.66529">
        <ele>132.8</ele>
        <time>2014-01-20T14:15:00Z</time>
      </trkpt>
      <trkpt lat="43.32525" lon="2.66531">
        <ele>132.8</ele>
        <time>2014-01-20T14:15:03Z</time>
      </trkpt>
      <trkpt lat="43.32528" lon="2.66531">
        <ele>133.28</ele>
        <time>2014-01-20T14:15:07Z</time>
      </trkpt>
      <trkpt lat="43.3253" lon="2.66532">
        <ele>133.28</ele>
        <time>2014-01-20T14:15:09Z</time>
      </trkpt>
      <trkpt lat="43.32533" lon="2.66534">
        <ele>133.28</ele>
        <time>2014-01-20T14:15:12Z</time>
      </trkpt>
      <trkpt lat="43.32535" lon="2.66536">
        <ele>133.76</ele>
        <time>2014-01-20T14:15:14Z</time>
      </trkpt>
      <trkpt lat="43.32549" lon="2.66546">
        <ele>134.24</ele>
        <time>2014-01-20T14:15:29Z</time>
      </trkpt>
      <trkpt lat="43.3255" lon="2.66548">
        <ele>134.24</ele>
        <time>2014-01-20T14:15:32Z</time>
      </trkpt>
      <trkpt lat="43.32553" lon="2.66549">
        <ele>134.24</ele>
        <time>2014-01-20T14:15:34Z</time>
      </trkpt>
      <trkpt lat="43.32563" lon="2.66556">
        <ele>134.24</ele>
        <time>2014-01-20T14:15:44Z</time>
      </trkpt>
      <trkpt lat="43.32572" lon="2.6656">
        <ele>134.72</ele>
        <time>2014-01-20T14:15:54Z</time>
      </trkpt>
      <trkpt lat="43.32576" lon="2.66564">
        <ele>135.2</ele>
        <time>2014-01-20T14:15:58Z</time>
      </trkpt>
      <trkpt lat="43.32582" lon="2.66569">
        <ele>135.2</ele>
        <time>2014-01-20T14:16:04Z</time>
      </trkpt>
      <trkpt lat="43.32586" lon="2.66572">
        <ele>135.68</ele>
        <time>2014-01-20T14:16:08Z</time>
      </trkpt>
      <trkpt lat="43.32597" lon="2.66573">
        <ele>136.16</ele>
        <time>2014-01-20T14:16:22Z</time>
      </trkpt>
      <trkpt lat="43.32599" lon="2.66567">
        <ele>137.13</ele>
        <time>2014-01-20T14:16:31Z</time>
      </trkpt>
      <trkpt lat="43.32599" lon="2.66563">
        <ele>136.64</ele>
        <time>2014-01-20T14:16:34Z</time>
      </trkpt>
      <trkpt lat="43.32594" lon="2.66542">
        <ele>138.09</ele>
        <time>2014-01-20T14:16:50Z</time>
      </trkpt>
      <trkpt lat="43.326" lon="2.66528">
        <ele>138.57</ele>
        <time>2014-01-20T14:17:00Z</time>
      </trkpt>
      <trkpt lat="43.32608" lon="2.66512">
        <ele>140.01</ele>
        <time>2014-01-20T14:17:16Z</time>
      </trkpt>
      <trkpt lat="43.32608" lon="2.6651">
        <ele>139.05</ele>
        <time>2014-01-20T14:17:18Z</time>
      </trkpt>
      <trkpt lat="43.32614" lon="2.66501">
        <ele>140.01</ele>
        <time>2014-01-20T14:17:27Z</time>
      </trkpt>
      <trkpt lat="43.32619" lon="2.66482">
        <ele>141.45</ele>
        <time>2014-01-20T14:17:42Z</time>
      </trkpt>
      <trkpt lat="43.32619" lon="2.66479">
        <ele>141.45</ele>
        <time>2014-01-20T14:17:45Z</time>
      </trkpt>
      <trkpt lat="43.32622" lon="2.66465">
        <ele>141.93</ele>
        <time>2014-01-20T14:17:57Z</time>
      </trkpt>
      <trkpt lat="43.32626" lon="2.66451">
        <ele>141.93</ele>
        <time>2014-01-20T14:18:09Z</time>
      </trkpt>
      <trkpt lat="43.32628" lon="2.66444">
        <ele>142.89</ele>
        <time>2014-01-20T14:18:15Z</time>
      </trkpt>
      <trkpt lat="43.32629" lon="2.6644">
        <ele>142.89</ele>
        <time>2014-01-20T14:18:18Z</time>
      </trkpt>
      <trkpt lat="43.3264" lon="2.66436">
        <ele>143.85</ele>
        <time>2014-01-20T14:18:33Z</time>
      </trkpt>
      <trkpt lat="43.32652" lon="2.66436">
        <ele>145.3</ele>
        <time>2014-01-20T14:18:46Z</time>
      </trkpt>
      <trkpt lat="43.32654" lon="2.66436">
        <ele>144.34</ele>
        <time>2014-01-20T14:18:48Z</time>
      </trkpt>
      <trkpt lat="43.32658" lon="2.66436">
        <ele>144.34</ele>
        <time>2014-01-20T14:18:53Z</time>
      </trkpt>
      <trkpt lat="43.3267" lon="2.66433">
        <ele>146.26</ele>
        <time>2014-01-20T14:19:07Z</time>
      </trkpt>
      <trkpt lat="43.32674" lon="2.6643">
        <ele>145.78</ele>
        <time>2014-01-20T14:19:12Z</time>
      </trkpt>
      <trkpt lat="43.32677" lon="2.66428">
        <ele>146.26</ele>
        <time>2014-01-20T14:19:16Z</time>
      </trkpt>
      <trkpt lat="43.32689" lon="2.66422">
        <ele>147.22</ele>
        <time>2014-01-20T14:19:32Z</time>
      </trkpt>
      <trkpt lat="43.32691" lon="2.6642">
        <ele>146.74</ele>
        <time>2014-01-20T14:19:34Z</time>
      </trkpt>
      <trkpt lat="43.32692" lon="2.66419">
        <ele>147.22</ele>
        <time>2014-01-20T14:19:36Z</time>
      </trkpt>
      <trkpt lat="43.32699" lon="2.66412">
        <ele>147.22</ele>
        <time>2014-01-20T14:19:50Z</time>
      </trkpt>
      <trkpt lat="43.32702" lon="2.66408">
        <ele>148.18</ele>
        <time>2014-01-20T14:20:00Z</time>
      </trkpt>
      <trkpt lat="43.32706" lon="2.664">
        <ele>148.66</ele>
        <time>2014-01-20T14:20:10Z</time>
      </trkpt>
      <trkpt lat="43.32711" lon="2.6639">
        <ele>148.66</ele>
        <time>2014-01-20T14:20:22Z</time>
      </trkpt>
      <trkpt lat="43.32715" lon="2.66384">
        <ele>149.62</ele>
        <time>2014-01-20T14:20:32Z</time>
      </trkpt>
      <trkpt lat="43.32715" lon="2.66383">
        <ele>150.1</ele>
        <time>2014-01-20T14:20:47Z</time>
      </trkpt>
      <trkpt lat="43.32714" lon="2.66383">
        <ele>150.1</ele>
        <time>2014-01-20T14:21:05Z</time>
      </trkpt>
      <trkpt lat="43.32714" lon="2.66383">
        <ele>149.62</ele>
        <time>2014-01-20T14:21:28Z</time>
      </trkpt>
      <trkpt lat="43.32715" lon="2.66382">
        <ele>150.1</ele>
        <time>2014-01-20T14:21:50Z</time>
      </trkpt>
      <trkpt lat="43.32715" lon="2.66382">
        <ele>149.62</ele>
        <time>2014-01-20T14:22:13Z</time>
      </trkpt>
      <trkpt lat="43.32715" lon="2.66382">
        <ele>149.62</ele>
        <time>2014-01-20T14:22:28Z</time>
      </trkpt>
      <trkpt lat="43.32716" lon="2.66381">
        <ele>150.1</ele>
        <time>2014-01-20T14:22:48Z</time>
      </trkpt>
      <trkpt lat="43.32716" lon="2.6638">
        <ele>150.1</ele>
        <time>2014-01-20T14:23:07Z</time>
      </trkpt>
      <trkpt lat="43.32716" lon="2.6638">
        <ele>149.62</ele>
        <time>2014-01-20T14:23:23Z</time>
      </trkpt>
      <trkpt lat="43.32716" lon="2.6638">
        <ele>150.1</ele>
        <time>2014-01-20T14:23:37Z</time>
      </trkpt>
      <trkpt lat="43.32717" lon="2.6638">
        <ele>150.1</ele>
        <time>2014-01-20T14:23:55Z</time>
      </trkpt>
      <trkpt lat="43.32717" lon="2.6638">
        <ele>150.1</ele>
        <time>2014-01-20T14:24:09Z</time>
      </trkpt>
      <trkpt lat="43.32717" lon="2.6638">
        <ele>150.58</ele>
        <time>2014-01-20T14:24:29Z</time>
      </trkpt>
      <trkpt lat="43.32717" lon="2.6638">
        <ele>150.1</ele>
        <time>2014-01-20T14:24:51Z</time>
      </trkpt>
      <trkpt lat="43.32716" lon="2.6638">
        <ele>149.62</ele>
        <time>2014-01-20T14:25:14Z</time>
      </trkpt>
      <trkpt lat="43.32717" lon="2.6638">
        <ele>149.14</ele>
        <time>2014-01-20T14:25:40Z</time>
      </trkpt>
      <trkpt lat="43.32717" lon="2.66379">
        <ele>149.62</ele>
        <time>2014-01-20T14:25:56Z</time>
      </trkpt>
      <trkpt lat="43.32716" lon="2.66379">
        <ele>149.62</ele>
        <time>2014-01-20T14:26:11Z</time>
      </trkpt>
      <trkpt lat="43.32716" lon="2.66379">
        <ele>149.62</ele>
        <time>2014-01-20T14:26:28Z</time>
      </trkpt>
      <trkpt lat="43.32716" lon="2.66379">
        <ele>149.62</ele>
        <time>2014-01-20T14:26:50Z</time>
      </trkpt>
      <trkpt lat="43.32716" lon="2.6638">
        <ele>149.14</ele>
        <time>2014-01-20T14:27:05Z</time>
      </trkpt>
      <trkpt lat="43.32717" lon="2.6638">
        <ele>149.14</ele>
        <time>2014-01-20T14:27:30Z</time>
      </trkpt>
      <trkpt lat="43.32717" lon="2.6638">
        <ele>149.14</ele>
        <time>2014-01-20T14:27:49Z</time>
      </trkpt>
      <trkpt lat="43.32717" lon="2.6638">
        <ele>149.14</ele>
        <time>2014-01-20T14:28:06Z</time>
      </trkpt>
      <trkpt lat="43.32717" lon="2.6638">
        <ele>150.1</ele>
        <time>2014-01-20T14:28:23Z</time>
      </trkpt>
      <trkpt lat="43.32717" lon="2.66382">
        <ele>149.62</ele>
        <time>2014-01-20T14:28:35Z</time>
      </trkpt>
      <trkpt lat="43.32717" lon="2.66382">
        <ele>149.14</ele>
        <time>2014-01-20T14:28:48Z</time>
      </trkpt>
      <trkpt lat="43.32717" lon="2.66382">
        <ele>149.62</ele>
        <time>2014-01-20T14:29:06Z</time>
      </trkpt>
      <trkpt lat="43.32717" lon="2.66382">
        <ele>149.14</ele>
        <time>2014-01-20T14:29:24Z</time>
      </trkpt>
      <trkpt lat="43.32719" lon="2.66381">
        <ele>149.14</ele>
        <time>2014-01-20T14:29:38Z</time>
      </trkpt>
      <trkpt lat="43.32718" lon="2.6638">
        <ele>149.62</ele>
        <time>2014-01-20T14:29:50Z</time>
      </trkpt>
      <trkpt lat="43.32718" lon="2.6638">
        <ele>149.62</ele>
        <time>2014-01-20T14:30:03Z</time>
      </trkpt>
      <trkpt lat="43.32724" lon="2.66373">
        <ele>150.58</ele>
        <time>2014-01-20T14:30:15Z</time>
      </trkpt>
      <trkpt lat="43.32727" lon="2.6637">
        <ele>150.58</ele>
        <time>2014-01-20T14:30:26Z</time>
      </trkpt>
      <trkpt lat="43.32728" lon="2.66365">
        <ele>151.54</ele>
        <time>2014-01-20T14:30:38Z</time>
      </trkpt>
      <trkpt lat="43.32727" lon="2.66366">
        <ele>151.06</ele>
        <time>2014-01-20T14:30:39Z</time>
      </trkpt>
      <trkpt lat="43.32724" lon="2.66367">
        <ele>151.06</ele>
        <time>2014-01-20T14:30:50Z</time>
      </trkpt>
      <trkpt lat="43.32725" lon="2.66368">
        <ele>151.06</ele>
        <time>2014-01-20T14:31:11Z</time>
      </trkpt>
      <trkpt lat="43.32727" lon="2.66368">
        <ele>151.06</ele>
        <time>2014-01-20T14:31:19Z</time>
      </trkpt>
      <trkpt lat="43.32729" lon="2.66364">
        <ele>151.06</ele>
        <time>2014-01-20T14:31:22Z</time>
      </trkpt>
      <trkpt lat="43.32732" lon="2.66359">
        <ele>152.51</ele>
        <time>2014-01-20T14:31:27Z</time>
      </trkpt>
      <trkpt lat="43.32734" lon="2.66356">
        <ele>152.51</ele>
        <time>2014-01-20T14:31:30Z</time>
      </trkpt>
      <trkpt lat="43.32738" lon="2.66347">
        <ele>153.95</ele>
        <time>2014-01-20T14:31:44Z</time>
      </trkpt>
      <trkpt lat="43.32739" lon="2.66346">
        <ele>154.43</ele>
        <time>2014-01-20T14:31:51Z</time>
      </trkpt>
      <trkpt lat="43.32741" lon="2.66345">
        <ele>154.91</ele>
        <time>2014-01-20T14:31:54Z</time>
      </trkpt>
      <trkpt lat="43.32751" lon="2.66334">
        <ele>155.87</ele>
        <time>2014-01-20T14:32:08Z</time>
      </trkpt>
      <trkpt lat="43.32753" lon="2.66333">
        <ele>156.35</ele>
        <time>2014-01-20T14:32:13Z</time>
      </trkpt>
      <trkpt lat="43.32762" lon="2.66326">
        <ele>157.79</ele>
        <time>2014-01-20T14:32:22Z</time>
      </trkpt>
      <trkpt lat="43.32769" lon="2.66321">
        <ele>158.75</ele>
        <time>2014-01-20T14:32:29Z</time>
      </trkpt>
      <trkpt lat="43.32775" lon="2.66318">
        <ele>159.72</ele>
        <time>2014-01-20T14:32:36Z</time>
      </trkpt>
      <trkpt lat="43.3278" lon="2.66315">
        <ele>159.72</ele>
        <time>2014-01-20T14:32:41Z</time>
      </trkpt>
      <trkpt lat="43.32794" lon="2.66305">
        <ele>160.68</ele>
        <time>2014-01-20T14:32:54Z</time>
      </trkpt>
      <trkpt lat="43.32798" lon="2.66301">
        <ele>161.16</ele>
        <time>2014-01-20T14:32:58Z</time>
      </trkpt>
      <trkpt lat="43.32807" lon="2.66297">
        <ele>163.08</ele>
        <time>2014-01-20T14:33:10Z</time>
      </trkpt>
      <trkpt lat="43.3281" lon="2.66295">
        <ele>163.08</ele>
        <time>2014-01-20T14:33:14Z</time>
      </trkpt>
      <trkpt lat="43.32813" lon="2.66293">
        <ele>164.04</ele>
        <time>2014-01-20T14:33:18Z</time>
      </trkpt>
      <trkpt lat="43.3282" lon="2.66287">
        <ele>165.48</ele>
        <time>2014-01-20T14:33:27Z</time>
      </trkpt>
      <trkpt lat="43.32831" lon="2.66281">
        <ele>166.45</ele>
        <time>2014-01-20T14:33:38Z</time>
      </trkpt>
      <trkpt lat="43.32838" lon="2.66281">
        <ele>167.41</ele>
        <time>2014-01-20T14:33:44Z</time>
      </trkpt>
      <trkpt lat="43.32855" lon="2.66277">
        <ele>168.37</ele>
        <time>2014-01-20T14:33:56Z</time>
      </trkpt>
      <trkpt lat="43.32861" lon="2.66276">
        <ele>169.33</ele>
        <time>2014-01-20T14:34:02Z</time>
      </trkpt>
      <trkpt lat="43.32865" lon="2.66277">
        <ele>169.33</ele>
        <time>2014-01-20T14:34:05Z</time>
      </trkpt>
      <trkpt lat="43.32873" lon="2.66277">
        <ele>170.29</ele>
        <time>2014-01-20T14:34:16Z</time>
      </trkpt>
      <trkpt lat="43.32874" lon="2.66277">
        <ele>169.81</ele>
        <time>2014-01-20T14:34:17Z</time>
      </trkpt>
      <trkpt lat="43.32883" lon="2.6628">
        <ele>171.25</ele>
        <time>2014-01-20T14:34:31Z</time>
      </trkpt>
      <trkpt lat="43.32891" lon="2.66282">
        <ele>173.66</ele>
        <time>2014-01-20T14:34:48Z</time>
      </trkpt>
      <trkpt lat="43.329" lon="2.66283">
        <ele>174.14</ele>
        <time>2014-01-20T14:34:57Z</time>
      </trkpt>
      <trkpt lat="43.32902" lon="2.66285">
        <ele>174.62</ele>
        <time>2014-01-20T14:35:00Z</time>
      </trkpt>
      <trkpt lat="43.32919" lon="2.66292">
        <ele>175.58</ele>
        <time>2014-01-20T14:35:15Z</time>
      </trkpt>
      <trkpt lat="43.32931" lon="2.66295">
        <ele>176.54</ele>
        <time>2014-01-20T14:35:31Z</time>
      </trkpt>
      <trkpt lat="43.32935" lon="2.66297">
        <ele>176.54</ele>
        <time>2014-01-20T14:35:36Z</time>
      </trkpt>
      <trkpt lat="43.32943" lon="2.66299">
        <ele>177.02</ele>
        <time>2014-01-20T14:35:44Z</time>
      </trkpt>
      <trkpt lat="43.32957" lon="2.66301">
        <ele>177.5</ele>
        <time>2014-01-20T14:35:58Z</time>
      </trkpt>
      <trkpt lat="43.32968" lon="2.66307">
        <ele>178.94</ele>
        <time>2014-01-20T14:36:10Z</time>
      </trkpt>
      <trkpt lat="43.32977" lon="2.66309">
        <ele>179.9</ele>
        <time>2014-01-20T14:36:20Z</time>
      </trkpt>
      <trkpt lat="43.32986" lon="2.6631">
        <ele>181.35</ele>
        <time>2014-01-20T14:36:32Z</time>
      </trkpt>
      <trkpt lat="43.32992" lon="2.66311">
        <ele>181.83</ele>
        <time>2014-01-20T14:36:38Z</time>
      </trkpt>
      <trkpt lat="43.32995" lon="2.66314">
        <ele>181.83</ele>
        <time>2014-01-20T14:36:41Z</time>
      </trkpt>
      <trkpt lat="43.33009" lon="2.66314">
        <ele>183.27</ele>
        <time>2014-01-20T14:36:55Z</time>
      </trkpt>
      <trkpt lat="43.33023" lon="2.66318">
        <ele>184.23</ele>
        <time>2014-01-20T14:37:08Z</time>
      </trkpt>
      <trkpt lat="43.33024" lon="2.66319">
        <ele>184.23</ele>
        <time>2014-01-20T14:37:09Z</time>
      </trkpt>
      <trkpt lat="43.33027" lon="2.66319">
        <ele>184.23</ele>
        <time>2014-01-20T14:37:12Z</time>
      </trkpt>
      <trkpt lat="43.33032" lon="2.6632">
        <ele>184.71</ele>
        <time>2014-01-20T14:37:16Z</time>
      </trkpt>
      <trkpt lat="43.33038" lon="2.66325">
        <ele>184.71</ele>
        <time>2014-01-20T14:37:24Z</time>
      </trkpt>
      <trkpt lat="43.3305" lon="2.66324">
        <ele>185.67</ele>
        <time>2014-01-20T14:37:36Z</time>
      </trkpt>
      <trkpt lat="43.33056" lon="2.66323">
        <ele>185.19</ele>
        <time>2014-01-20T14:37:42Z</time>
      </trkpt>
      <trkpt lat="43.33058" lon="2.66323">
        <ele>185.67</ele>
        <time>2014-01-20T14:37:44Z</time>
      </trkpt>
      <trkpt lat="43.33064" lon="2.66321">
        <ele>186.15</ele>
        <time>2014-01-20T14:37:50Z</time>
      </trkpt>
      <trkpt lat="43.33078" lon="2.66318">
        <ele>187.11</ele>
        <time>2014-01-20T14:38:05Z</time>
      </trkpt>
      <trkpt lat="43.33089" lon="2.66321">
        <ele>188.08</ele>
        <time>2014-01-20T14:38:19Z</time>
      </trkpt>
      <trkpt lat="43.33101" lon="2.66324">
        <ele>188.56</ele>
        <time>2014-01-20T14:38:33Z</time>
      </trkpt>
      <trkpt lat="43.33106" lon="2.66323">
        <ele>189.04</ele>
        <time>2014-01-20T14:38:37Z</time>
      </trkpt>
      <trkpt lat="43.3312" lon="2.66325">
        <ele>189.52</ele>
        <time>2014-01-20T14:38:53Z</time>
      </trkpt>
      <trkpt lat="43.33121" lon="2.6633">
        <ele>190</ele>
        <time>2014-01-20T14:38:57Z</time>
      </trkpt>
      <trkpt lat="43.33118" lon="2.66345">
        <ele>189.52</ele>
        <time>2014-01-20T14:39:10Z</time>
      </trkpt>
      <trkpt lat="43.33112" lon="2.66356">
        <ele>189.04</ele>
        <time>2014-01-20T14:39:24Z</time>
      </trkpt>
      <trkpt lat="43.33106" lon="2.6637">
        <ele>189.04</ele>
        <time>2014-01-20T14:39:38Z</time>
      </trkpt>
      <trkpt lat="43.33099" lon="2.6637">
        <ele>189.04</ele>
        <time>2014-01-20T14:39:47Z</time>
      </trkpt>
      <trkpt lat="43.33085" lon="2.6637">
        <ele>189.04</ele>
        <time>2014-01-20T14:40:02Z</time>
      </trkpt>
      <trkpt lat="43.33081" lon="2.66371">
        <ele>188.56</ele>
        <time>2014-01-20T14:40:07Z</time>
      </trkpt>
      <trkpt lat="43.33072" lon="2.6637">
        <ele>187.59</ele>
        <time>2014-01-20T14:40:19Z</time>
      </trkpt>
      <trkpt lat="43.33059" lon="2.66365">
        <ele>186.63</ele>
        <time>2014-01-20T14:40:32Z</time>
      </trkpt>
      <trkpt lat="43.33043" lon="2.66363">
        <ele>185.19</ele>
        <time>2014-01-20T14:40:48Z</time>
      </trkpt>
      <trkpt lat="43.33034" lon="2.66358">
        <ele>183.75</ele>
        <time>2014-01-20T14:41:01Z</time>
      </trkpt>
      <trkpt lat="43.33026" lon="2.66358">
        <ele>183.27</ele>
        <time>2014-01-20T14:41:10Z</time>
      </trkpt>
      <trkpt lat="43.33016" lon="2.66363">
        <ele>183.75</ele>
        <time>2014-01-20T14:41:19Z</time>
      </trkpt>
      <trkpt lat="43.33011" lon="2.66373">
        <ele>183.75</ele>
        <time>2014-01-20T14:41:27Z</time>
      </trkpt>
      <trkpt lat="43.33005" lon="2.66388">
        <ele>185.19</ele>
        <time>2014-01-20T14:41:40Z</time>
      </trkpt>
      <trkpt lat="43.33001" lon="2.66394">
        <ele>184.71</ele>
        <time>2014-01-20T14:41:46Z</time>
      </trkpt>
      <trkpt lat="43.32998" lon="2.66397">
        <ele>184.71</ele>
        <time>2014-01-20T14:41:49Z</time>
      </trkpt>
      <trkpt lat="43.32988" lon="2.66415">
        <ele>185.19</ele>
        <time>2014-01-20T14:42:05Z</time>
      </trkpt>
      <trkpt lat="43.32985" lon="2.66432">
        <ele>186.15</ele>
        <time>2014-01-20T14:42:20Z</time>
      </trkpt>
      <trkpt lat="43.32994" lon="2.66446">
        <ele>185.67</ele>
        <time>2014-01-20T14:42:34Z</time>
      </trkpt>
      <trkpt lat="43.32995" lon="2.66454">
        <ele>186.15</ele>
        <time>2014-01-20T14:42:42Z</time>
      </trkpt>
      <trkpt lat="43.32991" lon="2.66473">
        <ele>185.67</ele>
        <time>2014-01-20T14:42:55Z</time>
      </trkpt>
      <trkpt lat="43.32991" lon="2.66474">
        <ele>185.19</ele>
        <time>2014-01-20T14:42:56Z</time>
      </trkpt>
      <trkpt lat="43.32985" lon="2.66494">
        <ele>184.71</ele>
        <time>2014-01-20T14:43:12Z</time>
      </trkpt>
      <trkpt lat="43.32981" lon="2.66503">
        <ele>184.71</ele>
        <time>2014-01-20T14:43:20Z</time>
      </trkpt>
      <trkpt lat="43.3298" lon="2.66508">
        <ele>184.23</ele>
        <time>2014-01-20T14:43:23Z</time>
      </trkpt>
      <trkpt lat="43.32977" lon="2.66516">
        <ele>184.23</ele>
        <time>2014-01-20T14:43:29Z</time>
      </trkpt>
      <trkpt lat="43.32976" lon="2.66528">
        <ele>184.71</ele>
        <time>2014-01-20T14:43:37Z</time>
      </trkpt>
      <trkpt lat="43.32976" lon="2.66533">
        <ele>185.19</ele>
        <time>2014-01-20T14:43:40Z</time>
      </trkpt>
      <trkpt lat="43.32976" lon="2.66541">
        <ele>185.67</ele>
        <time>2014-01-20T14:43:48Z</time>
      </trkpt>
      <trkpt lat="43.32977" lon="2.66554">
        <ele>185.67</ele>
        <time>2014-01-20T14:43:56Z</time>
      </trkpt>
      <trkpt lat="43.32974" lon="2.66571">
        <ele>185.19</ele>
        <time>2014-01-20T14:44:08Z</time>
      </trkpt>
      <trkpt lat="43.32972" lon="2.6659">
        <ele>185.19</ele>
        <time>2014-01-20T14:44:22Z</time>
      </trkpt>
      <trkpt lat="43.32972" lon="2.66603">
        <ele>183.27</ele>
        <time>2014-01-20T14:44:34Z</time>
      </trkpt>
      <trkpt lat="43.32976" lon="2.66611">
        <ele>182.31</ele>
        <time>2014-01-20T14:44:42Z</time>
      </trkpt>
      <trkpt lat="43.32978" lon="2.66614">
        <ele>181.83</ele>
        <time>2014-01-20T14:44:45Z</time>
      </trkpt>
      <trkpt lat="43.32989" lon="2.66627">
        <ele>180.87</ele>
        <time>2014-01-20T14:45:00Z</time>
      </trkpt>
      <trkpt lat="43.32992" lon="2.6663">
        <ele>180.38</ele>
        <time>2014-01-20T14:45:12Z</time>
      </trkpt>
      <trkpt lat="43.32996" lon="2.6664">
        <ele>178.46</ele>
        <time>2014-01-20T14:45:24Z</time>
      </trkpt>
      <trkpt lat="43.32988" lon="2.66646">
        <ele>177.02</ele>
        <time>2014-01-20T14:45:37Z</time>
      </trkpt>
      <trkpt lat="43.32985" lon="2.66647">
        <ele>177.02</ele>
        <time>2014-01-20T14:45:40Z</time>
      </trkpt>
      <trkpt lat="43.32982" lon="2.66647">
        <ele>176.54</ele>
        <time>2014-01-20T14:45:43Z</time>
      </trkpt>
      <trkpt lat="43.32972" lon="2.66652">
        <ele>175.58</ele>
        <time>2014-01-20T14:45:56Z</time>
      </trkpt>
      <trkpt lat="43.32965" lon="2.66662">
        <ele>173.66</ele>
        <time>2014-01-20T14:46:09Z</time>
      </trkpt>
      <trkpt lat="43.32959" lon="2.66668">
        <ele>172.21</ele>
        <time>2014-01-20T14:46:17Z</time>
      </trkpt>
      <trkpt lat="43.32951" lon="2.66679">
        <ele>170.77</ele>
        <time>2014-01-20T14:46:30Z</time>
      </trkpt>
      <trkpt lat="43.32948" lon="2.66698">
        <ele>170.29</ele>
        <time>2014-01-20T14:46:44Z</time>
      </trkpt>
      <trkpt lat="43.32942" lon="2.66721">
        <ele>168.85</ele>
        <time>2014-01-20T14:47:01Z</time>
      </trkpt>
      <trkpt lat="43.32938" lon="2.66736">
        <ele>168.37</ele>
        <time>2014-01-20T14:47:15Z</time>
      </trkpt>
      <trkpt lat="43.32937" lon="2.66743">
        <ele>167.89</ele>
        <time>2014-01-20T14:47:27Z</time>
      </trkpt>
      <trkpt lat="43.32937" lon="2.66744">
        <ele>166.93</ele>
        <time>2014-01-20T14:47:28Z</time>
      </trkpt>
      <trkpt lat="43.32937" lon="2.66747">
        <ele>166.93</ele>
        <time>2014-01-20T14:47:31Z</time>
      </trkpt>
      <trkpt lat="43.32937" lon="2.66751">
        <ele>165.96</ele>
        <time>2014-01-20T14:47:34Z</time>
      </trkpt>
      <trkpt lat="43.32934" lon="2.66754">
        <ele>166.45</ele>
        <time>2014-01-20T14:47:37Z</time>
      </trkpt>
      <trkpt lat="43.32934" lon="2.66761">
        <ele>165.96</ele>
        <time>2014-01-20T14:47:42Z</time>
      </trkpt>
      <trkpt lat="43.32933" lon="2.66779">
        <ele>164.04</ele>
        <time>2014-01-20T14:47:56Z</time>
      </trkpt>
      <trkpt lat="43.32931" lon="2.66782">
        <ele>163.08</ele>
        <time>2014-01-20T14:47:59Z</time>
      </trkpt>
      <trkpt lat="43.32923" lon="2.66792">
        <ele>161.64</ele>
        <time>2014-01-20T14:48:10Z</time>
      </trkpt>
      <trkpt lat="43.32915" lon="2.66794">
        <ele>160.2</ele>
        <time>2014-01-20T14:48:20Z</time>
      </trkpt>
      <trkpt lat="43.3291" lon="2.66792">
        <ele>159.72</ele>
        <time>2014-01-20T14:48:26Z</time>
      </trkpt>
      <trkpt lat="43.32894" lon="2.66783">
        <ele>159.24</ele>
        <time>2014-01-20T14:48:42Z</time>
      </trkpt>
      <trkpt lat="43.32882" lon="2.66774">
        <ele>158.75</ele>
        <time>2014-01-20T14:48:56Z</time>
      </trkpt>
      <trkpt lat="43.32873" lon="2.66777">
        <ele>157.79</ele>
        <time>2014-01-20T14:49:06Z</time>
      </trkpt>
      <trkpt lat="43.3287" lon="2.66779">
        <ele>157.79</ele>
        <time>2014-01-20T14:49:09Z</time>
      </trkpt>
      <trkpt lat="43.32865" lon="2.6678">
        <ele>157.31</ele>
        <time>2014-01-20T14:49:14Z</time>
      </trkpt>
      <trkpt lat="43.32851" lon="2.66779">
        <ele>156.35</ele>
        <time>2014-01-20T14:49:29Z</time>
      </trkpt>
      <trkpt lat="43.3284" lon="2.66775">
        <ele>155.39</ele>
        <time>2014-01-20T14:49:41Z</time>
      </trkpt>
      <trkpt lat="43.32838" lon="2.66774">
        <ele>155.39</ele>
        <time>2014-01-20T14:49:43Z</time>
      </trkpt>
      <trkpt lat="43.32825" lon="2.66768">
        <ele>153.47</ele>
        <time>2014-01-20T14:49:58Z</time>
      </trkpt>
      <trkpt lat="43.32822" lon="2.66768">
        <ele>152.51</ele>
        <time>2014-01-20T14:50:02Z</time>
      </trkpt>
      <trkpt lat="43.3281" lon="2.66766">
        <ele>150.58</ele>
        <time>2014-01-20T14:50:16Z</time>
      </trkpt>
      <trkpt lat="43.32808" lon="2.66766">
        <ele>151.06</ele>
        <time>2014-01-20T14:50:18Z</time>
      </trkpt>
      <trkpt lat="43.32794" lon="2.66769">
        <ele>151.06</ele>
        <time>2014-01-20T14:50:32Z</time>
      </trkpt>
      <trkpt lat="43.32779" lon="2.66767">
        <ele>150.1</ele>
        <time>2014-01-20T14:50:48Z</time>
      </trkpt>
      <trkpt lat="43.32767" lon="2.66762">
        <ele>152.03</ele>
        <time>2014-01-20T14:51:00Z</time>
      </trkpt>
      <trkpt lat="43.32763" lon="2.66761">
        <ele>152.03</ele>
        <time>2014-01-20T14:51:04Z</time>
      </trkpt>
      <trkpt lat="43.32756" lon="2.66763">
        <ele>151.06</ele>
        <time>2014-01-20T14:51:10Z</time>
      </trkpt>
      <trkpt lat="43.32754" lon="2.66767">
        <ele>152.03</ele>
        <time>2014-01-20T14:51:16Z</time>
      </trkpt>
      <trkpt lat="43.32755" lon="2.66765">
        <ele>151.54</ele>
        <time>2014-01-20T14:51:18Z</time>
      </trkpt>
      <trkpt lat="43.32759" lon="2.66762">
        <ele>152.03</ele>
        <time>2014-01-20T14:51:22Z</time>
      </trkpt>
      <trkpt lat="43.32761" lon="2.6676">
        <ele>151.54</ele>
        <time>2014-01-20T14:51:35Z</time>
      </trkpt>
      <trkpt lat="43.3276" lon="2.6676">
        <ele>151.54</ele>
        <time>2014-01-20T14:52:04Z</time>
      </trkpt>
      <trkpt lat="43.32745" lon="2.66773">
        <ele>151.06</ele>
        <time>2014-01-20T14:52:19Z</time>
      </trkpt>
      <trkpt lat="43.32737" lon="2.66795">
        <ele>149.62</ele>
        <time>2014-01-20T14:52:35Z</time>
      </trkpt>
      <trkpt lat="43.32736" lon="2.6681">
        <ele>149.62</ele>
        <time>2014-01-20T14:52:44Z</time>
      </trkpt>
      <trkpt lat="43.32732" lon="2.66837">
        <ele>149.14</ele>
        <time>2014-01-20T14:52:58Z</time>
      </trkpt>
      <trkpt lat="43.32725" lon="2.66846">
        <ele>149.14</ele>
        <time>2014-01-20T14:53:06Z</time>
      </trkpt>
      <trkpt lat="43.32718" lon="2.66848">
        <ele>147.7</ele>
        <time>2014-01-20T14:53:13Z</time>
      </trkpt>
      <trkpt lat="43.32714" lon="2.66846">
        <ele>147.7</ele>
        <time>2014-01-20T14:53:17Z</time>
      </trkpt>
      <trkpt lat="43.32707" lon="2.66841">
        <ele>146.74</ele>
        <time>2014-01-20T14:53:24Z</time>
      </trkpt>
      <trkpt lat="43.32698" lon="2.66835">
        <ele>146.26</ele>
        <time>2014-01-20T14:53:32Z</time>
      </trkpt>
      <trkpt lat="43.32685" lon="2.66829">
        <ele>144.34</ele>
        <time>2014-01-20T14:53:43Z</time>
      </trkpt>
      <trkpt lat="43.32674" lon="2.66828">
        <ele>141.45</ele>
        <time>2014-01-20T14:53:53Z</time>
      </trkpt>
      <trkpt lat="43.32671" lon="2.66827">
        <ele>140.49</ele>
        <time>2014-01-20T14:53:55Z</time>
      </trkpt>
      <trkpt lat="43.32661" lon="2.66829">
        <ele>139.05</ele>
        <time>2014-01-20T14:54:07Z</time>
      </trkpt>
      <trkpt lat="43.32651" lon="2.66829">
        <ele>136.64</ele>
        <time>2014-01-20T14:54:20Z</time>
      </trkpt>
      <trkpt lat="43.32639" lon="2.66826">
        <ele>135.68</ele>
        <time>2014-01-20T14:54:30Z</time>
      </trkpt>
      <trkpt lat="43.32631" lon="2.66821">
        <ele>134.24</ele>
        <time>2014-01-20T14:54:42Z</time>
      </trkpt>
      <trkpt lat="43.32629" lon="2.66822">
        <ele>133.76</ele>
        <time>2014-01-20T14:54:58Z</time>
      </trkpt>
      <trkpt lat="43.32627" lon="2.66825">
        <ele>133.76</ele>
        <time>2014-01-20T14:55:11Z</time>
      </trkpt>
      <trkpt lat="43.32624" lon="2.66825">
        <ele>133.76</ele>
        <time>2014-01-20T14:55:22Z</time>
      </trkpt>
      <trkpt lat="43.32618" lon="2.6682">
        <ele>133.28</ele>
        <time>2014-01-20T14:55:34Z</time>
      </trkpt>
      <trkpt lat="43.32611" lon="2.66816">
        <ele>132.32</ele>
        <time>2014-01-20T14:55:45Z</time>
      </trkpt>
      <trkpt lat="43.32606" lon="2.66814">
        <ele>131.36</ele>
        <time>2014-01-20T14:55:51Z</time>
      </trkpt>
      <trkpt lat="43.32596" lon="2.66808">
        <ele>130.88</ele>
        <time>2014-01-20T14:56:07Z</time>
      </trkpt>
      <trkpt lat="43.32585" lon="2.66802">
        <ele>129.92</ele>
        <time>2014-01-20T14:56:19Z</time>
      </trkpt>
      <trkpt lat="43.32572" lon="2.66792">
        <ele>128.95</ele>
        <time>2014-01-20T14:56:35Z</time>
      </trkpt>
      <trkpt lat="43.32561" lon="2.66784">
        <ele>127.51</ele>
        <time>2014-01-20T14:56:49Z</time>
      </trkpt>
      <trkpt lat="43.3256" lon="2.66783">
        <ele>127.99</ele>
        <time>2014-01-20T14:56:50Z</time>
      </trkpt>
      <trkpt lat="43.32555" lon="2.66777">
        <ele>127.51</ele>
        <time>2014-01-20T14:56:59Z</time>
      </trkpt>
      <trkpt lat="43.32548" lon="2.6677">
        <ele>126.07</ele>
        <time>2014-01-20T14:57:11Z</time>
      </trkpt>
      <trkpt lat="43.32537" lon="2.66765">
        <ele>125.11</ele>
        <time>2014-01-20T14:57:24Z</time>
      </trkpt>
      <trkpt lat="43.32531" lon="2.66763">
        <ele>125.59</ele>
        <time>2014-01-20T14:57:33Z</time>
      </trkpt>
      <trkpt lat="43.32528" lon="2.66762">
        <ele>125.11</ele>
        <time>2014-01-20T14:57:36Z</time>
      </trkpt>
      <trkpt lat="43.32514" lon="2.66754">
        <ele>124.63</ele>
        <time>2014-01-20T14:57:51Z</time>
      </trkpt>
      <trkpt lat="43.32511" lon="2.66751">
        <ele>124.15</ele>
        <time>2014-01-20T14:57:56Z</time>
      </trkpt>
      <trkpt lat="43.32496" lon="2.66742">
        <ele>122.71</ele>
        <time>2014-01-20T14:58:10Z</time>
      </trkpt>
      <trkpt lat="43.32482" lon="2.66733">
        <ele>121.74</ele>
        <time>2014-01-20T14:58:25Z</time>
      </trkpt>
      <trkpt lat="43.32473" lon="2.66726">
        <ele>120.3</ele>
        <time>2014-01-20T14:58:36Z</time>
      </trkpt>
      <trkpt lat="43.32463" lon="2.66719">
        <ele>119.82</ele>
        <time>2014-01-20T14:58:49Z</time>
      </trkpt>
      <trkpt lat="43.32457" lon="2.66716">
        <ele>118.86</ele>
        <time>2014-01-20T14:58:56Z</time>
      </trkpt>
      <trkpt lat="43.32446" lon="2.66711">
        <ele>118.86</ele>
        <time>2014-01-20T14:59:06Z</time>
      </trkpt>
      <trkpt lat="43.32433" lon="2.66703">
        <ele>118.38</ele>
        <time>2014-01-20T14:59:20Z</time>
      </trkpt>
      <trkpt lat="43.32423" lon="2.66699">
        <ele>117.42</ele>
        <time>2014-01-20T14:59:33Z</time>
      </trkpt>
      <trkpt lat="43.3242" lon="2.66696">
        <ele>117.9</ele>
        <time>2014-01-20T14:59:41Z</time>
      </trkpt>
      <trkpt lat="43.32412" lon="2.66694">
        <ele>117.9</ele>
        <time>2014-01-20T14:59:52Z</time>
      </trkpt>
      <trkpt lat="43.32412" lon="2.66693">
        <ele>117.42</ele>
        <time>2014-01-20T15:00:04Z</time>
      </trkpt>
      <trkpt lat="43.32405" lon="2.66687">
        <ele>116.46</ele>
        <time>2014-01-20T15:00:11Z</time>
      </trkpt>
      <trkpt lat="43.32397" lon="2.66681">
        <ele>116.46</ele>
        <time>2014-01-20T15:00:19Z</time>
      </trkpt>
      <trkpt lat="43.32396" lon="2.66679">
        <ele>115.98</ele>
        <time>2014-01-20T15:00:21Z</time>
      </trkpt>
      <trkpt lat="43.32394" lon="2.66678">
        <ele>116.46</ele>
        <time>2014-01-20T15:00:23Z</time>
      </trkpt>
      <trkpt lat="43.32385" lon="2.66674">
        <ele>115.98</ele>
        <time>2014-01-20T15:00:32Z</time>
      </trkpt>
      <trkpt lat="43.32382" lon="2.66673">
        <ele>115.5</ele>
        <time>2014-01-20T15:00:35Z</time>
      </trkpt>
      <trkpt lat="43.32376" lon="2.66671">
        <ele>115.98</ele>
        <time>2014-01-20T15:00:45Z</time>
      </trkpt>
      <trkpt lat="43.32374" lon="2.66669">
        <ele>115.5</ele>
        <time>2014-01-20T15:00:57Z</time>
      </trkpt>
      <trkpt lat="43.32374" lon="2.66671">
        <ele>115.98</ele>
        <time>2014-01-20T15:01:05Z</time>
      </trkpt>
      <trkpt lat="43.32375" lon="2.66676">
        <ele>115.5</ele>
        <time>2014-01-20T15:01:16Z</time>
      </trkpt>
      <trkpt lat="43.32379" lon="2.66681">
        <ele>115.98</ele>
        <time>2014-01-20T15:01:28Z</time>
      </trkpt>
      <trkpt lat="43.32378" lon="2.66681">
        <ele>115.98</ele>
        <time>2014-01-20T15:01:40Z</time>
      </trkpt>
      <trkpt lat="43.32379" lon="2.6668">
        <ele>115.98</ele>
        <time>2014-01-20T15:01:53Z</time>
      </trkpt>
      <trkpt lat="43.32378" lon="2.6668">
        <ele>115.98</ele>
        <time>2014-01-20T15:02:02Z</time>
      </trkpt>
      <trkpt lat="43.32377" lon="2.66679">
        <ele>115.5</ele>
        <time>2014-01-20T15:02:13Z</time>
      </trkpt>
      <trkpt lat="43.32375" lon="2.66677">
        <ele>115.01</ele>
        <time>2014-01-20T15:02:23Z</time>
      </trkpt>
      <trkpt lat="43.3237" lon="2.66682">
        <ele>114.53</ele>
        <time>2014-01-20T15:02:35Z</time>
      </trkpt>
      <trkpt lat="43.32369" lon="2.66683">
        <ele>114.05</ele>
        <time>2014-01-20T15:02:36Z</time>
      </trkpt>
      <trkpt lat="43.32366" lon="2.66686">
        <ele>114.05</ele>
        <time>2014-01-20T15:02:39Z</time>
      </trkpt>
      <trkpt lat="43.3236" lon="2.66693">
        <ele>113.57</ele>
        <time>2014-01-20T15:02:46Z</time>
      </trkpt>
      <trkpt lat="43.3235" lon="2.66713">
        <ele>112.61</ele>
        <time>2014-01-20T15:03:01Z</time>
      </trkpt>
      <trkpt lat="43.32348" lon="2.66719">
        <ele>113.09</ele>
        <time>2014-01-20T15:03:05Z</time>
      </trkpt>
      <trkpt lat="43.32347" lon="2.66724">
        <ele>112.61</ele>
        <time>2014-01-20T15:03:09Z</time>
      </trkpt>
      <trkpt lat="43.32346" lon="2.66732">
        <ele>113.09</ele>
        <time>2014-01-20T15:03:14Z</time>
      </trkpt>
      <trkpt lat="43.32347" lon="2.6674">
        <ele>112.61</ele>
        <time>2014-01-20T15:03:20Z</time>
      </trkpt>
      <trkpt lat="43.32348" lon="2.66754">
        <ele>112.13</ele>
        <time>2014-01-20T15:03:32Z</time>
      </trkpt>
      <trkpt lat="43.32349" lon="2.66756">
        <ele>112.61</ele>
        <time>2014-01-20T15:03:34Z</time>
      </trkpt>
      <trkpt lat="43.32351" lon="2.66765">
        <ele>112.61</ele>
        <time>2014-01-20T15:03:41Z</time>
      </trkpt>
      <trkpt lat="43.32353" lon="2.66777">
        <ele>112.61</ele>
        <time>2014-01-20T15:03:51Z</time>
      </trkpt>
      <trkpt lat="43.32356" lon="2.66787">
        <ele>113.09</ele>
        <time>2014-01-20T15:04:02Z</time>
      </trkpt>
      <trkpt lat="43.32362" lon="2.66807">
        <ele>113.57</ele>
        <time>2014-01-20T15:04:16Z</time>
      </trkpt>
      <trkpt lat="43.32366" lon="2.66818">
        <ele>113.09</ele>
        <time>2014-01-20T15:04:25Z</time>
      </trkpt>
      <trkpt lat="43.32373" lon="2.6683">
        <ele>112.61</ele>
        <time>2014-01-20T15:04:34Z</time>
      </trkpt>
      <trkpt lat="43.3238" lon="2.66841">
        <ele>112.61</ele>
        <time>2014-01-20T15:04:44Z</time>
      </trkpt>
      <trkpt lat="43.32385" lon="2.66854">
        <ele>112.61</ele>
        <time>2014-01-20T15:04:52Z</time>
      </trkpt>
      <trkpt lat="43.32387" lon="2.66861">
        <ele>112.13</ele>
        <time>2014-01-20T15:04:57Z</time>
      </trkpt>
      <trkpt lat="43.3239" lon="2.66883">
        <ele>112.13</ele>
        <time>2014-01-20T15:05:12Z</time>
      </trkpt>
      <trkpt lat="43.32391" lon="2.66896">
        <ele>112.13</ele>
        <time>2014-01-20T15:05:20Z</time>
      </trkpt>
      <trkpt lat="43.32394" lon="2.66915">
        <ele>113.09</ele>
        <time>2014-01-20T15:05:34Z</time>
      </trkpt>
      <trkpt lat="43.32399" lon="2.66932">
        <ele>113.09</ele>
        <time>2014-01-20T15:05:47Z</time>
      </trkpt>
      <trkpt lat="43.32406" lon="2.66946">
        <ele>111.65</ele>
        <time>2014-01-20T15:06:01Z</time>
      </trkpt>
      <trkpt lat="43.3241" lon="2.66955">
        <ele>111.65</ele>
        <time>2014-01-20T15:06:08Z</time>
      </trkpt>
      <trkpt lat="43.3241" lon="2.66962">
        <ele>111.65</ele>
        <time>2014-01-20T15:06:13Z</time>
      </trkpt>
      <trkpt lat="43.3241" lon="2.66973">
        <ele>111.65</ele>
        <time>2014-01-20T15:06:20Z</time>
      </trkpt>
      <trkpt lat="43.32411" lon="2.66996">
        <ele>112.61</ele>
        <time>2014-01-20T15:06:35Z</time>
      </trkpt>
      <trkpt lat="43.3241" lon="2.67019">
        <ele>111.65</ele>
        <time>2014-01-20T15:06:50Z</time>
      </trkpt>
      <trkpt lat="43.32409" lon="2.67044">
        <ele>111.65</ele>
        <time>2014-01-20T15:07:06Z</time>
      </trkpt>
      <trkpt lat="43.32408" lon="2.67068">
        <ele>110.69</ele>
        <time>2014-01-20T15:07:21Z</time>
      </trkpt>
      <trkpt lat="43.32407" lon="2.67081">
        <ele>110.69</ele>
        <time>2014-01-20T15:07:29Z</time>
      </trkpt>
      <trkpt lat="43.32405" lon="2.67101">
        <ele>110.69</ele>
        <time>2014-01-20T15:07:43Z</time>
      </trkpt>
      <trkpt lat="43.32404" lon="2.67115">
        <ele>110.21</ele>
        <time>2014-01-20T15:07:53Z</time>
      </trkpt>
      <trkpt lat="43.32402" lon="2.67136">
        <ele>110.21</ele>
        <time>2014-01-20T15:08:07Z</time>
      </trkpt>
      <trkpt lat="43.32401" lon="2.67156">
        <ele>109.73</ele>
        <time>2014-01-20T15:08:21Z</time>
      </trkpt>
      <trkpt lat="43.324" lon="2.67158">
        <ele>110.21</ele>
        <time>2014-01-20T15:08:23Z</time>
      </trkpt>
      <trkpt lat="43.32399" lon="2.6717">
        <ele>109.73</ele>
        <time>2014-01-20T15:08:32Z</time>
      </trkpt>
      <trkpt lat="43.32398" lon="2.67173">
        <ele>110.21</ele>
        <time>2014-01-20T15:08:34Z</time>
      </trkpt>
      <trkpt lat="43.32396" lon="2.67185">
        <ele>110.21</ele>
        <time>2014-01-20T15:08:43Z</time>
      </trkpt>
      <trkpt lat="43.32394" lon="2.67203">
        <ele>110.21</ele>
        <time>2014-01-20T15:08:57Z</time>
      </trkpt>
      <trkpt lat="43.32395" lon="2.67211">
        <ele>110.21</ele>
        <time>2014-01-20T15:09:08Z</time>
      </trkpt>
      <trkpt lat="43.32394" lon="2.67225">
        <ele>110.69</ele>
        <time>2014-01-20T15:09:21Z</time>
      </trkpt>
      <trkpt lat="43.32393" lon="2.67239">
        <ele>110.69</ele>
        <time>2014-01-20T15:09:34Z</time>
      </trkpt>
      <trkpt lat="43.32393" lon="2.67252">
        <ele>110.69</ele>
        <time>2014-01-20T15:09:47Z</time>
      </trkpt>
      <trkpt lat="43.32392" lon="2.67259">
        <ele>111.17</ele>
        <time>2014-01-20T15:09:52Z</time>
      </trkpt>
      <trkpt lat="43.32391" lon="2.67266">
        <ele>110.69</ele>
        <time>2014-01-20T15:09:57Z</time>
      </trkpt>
      <trkpt lat="43.3238" lon="2.67285">
        <ele>111.17</ele>
        <time>2014-01-20T15:10:13Z</time>
      </trkpt>
      <trkpt lat="43.32372" lon="2.67297">
        <ele>111.17</ele>
        <time>2014-01-20T15:10:25Z</time>
      </trkpt>
      <trkpt lat="43.3237" lon="2.673">
        <ele>111.65</ele>
        <time>2014-01-20T15:10:28Z</time>
      </trkpt>
      <trkpt lat="43.3236" lon="2.67313">
        <ele>111.65</ele>
        <time>2014-01-20T15:10:42Z</time>
      </trkpt>
      <trkpt lat="43.32346" lon="2.6732">
        <ele>111.17</ele>
        <time>2014-01-20T15:10:57Z</time>
      </trkpt>
      <trkpt lat="43.32332" lon="2.67325">
        <ele>111.17</ele>
        <time>2014-01-20T15:11:11Z</time>
      </trkpt>
      <trkpt lat="43.32318" lon="2.67332">
        <ele>110.69</ele>
        <time>2014-01-20T15:11:26Z</time>
      </trkpt>
      <trkpt lat="43.32306" lon="2.67338">
        <ele>110.69</ele>
        <time>2014-01-20T15:11:39Z</time>
      </trkpt>
      <trkpt lat="43.32292" lon="2.67346">
        <ele>111.17</ele>
        <time>2014-01-20T15:11:52Z</time>
      </trkpt>
      <trkpt lat="43.32286" lon="2.67352">
        <ele>110.21</ele>
        <time>2014-01-20T15:11:59Z</time>
      </trkpt>
      <trkpt lat="43.32284" lon="2.67353">
        <ele>110.21</ele>
        <time>2014-01-20T15:12:01Z</time>
      </trkpt>
      <trkpt lat="43.32276" lon="2.6736">
        <ele>113.09</ele>
        <time>2014-01-20T15:12:12Z</time>
      </trkpt>
      <trkpt lat="43.32277" lon="2.67364">
        <ele>112.13</ele>
        <time>2014-01-20T15:12:15Z</time>
      </trkpt>
      <trkpt lat="43.32291" lon="2.67374">
        <ele>112.61</ele>
        <time>2014-01-20T15:12:30Z</time>
      </trkpt>
      <trkpt lat="43.32303" lon="2.67382">
        <ele>112.61</ele>
        <time>2014-01-20T15:12:45Z</time>
      </trkpt>
      <trkpt lat="43.32312" lon="2.67387">
        <ele>112.13</ele>
        <time>2014-01-20T15:12:58Z</time>
      </trkpt>
      <trkpt lat="43.32312" lon="2.67388">
        <ele>112.13</ele>
        <time>2014-01-20T15:13:01Z</time>
      </trkpt>
      <trkpt lat="43.32322" lon="2.67392">
        <ele>111.65</ele>
        <time>2014-01-20T15:13:15Z</time>
      </trkpt>
      <trkpt lat="43.32332" lon="2.67398">
        <ele>110.21</ele>
        <time>2014-01-20T15:13:31Z</time>
      </trkpt>
      <trkpt lat="43.32336" lon="2.674">
        <ele>110.21</ele>
        <time>2014-01-20T15:13:35Z</time>
      </trkpt>
      <trkpt lat="43.32347" lon="2.6741">
        <ele>108.77</ele>
        <time>2014-01-20T15:13:50Z</time>
      </trkpt>
      <trkpt lat="43.32348" lon="2.67411">
        <ele>108.77</ele>
        <time>2014-01-20T15:13:52Z</time>
      </trkpt>
      <trkpt lat="43.32355" lon="2.67417">
        <ele>106.84</ele>
        <time>2014-01-20T15:14:04Z</time>
      </trkpt>
      <trkpt lat="43.32363" lon="2.67423">
        <ele>105.4</ele>
        <time>2014-01-20T15:14:16Z</time>
      </trkpt>
      <trkpt lat="43.32368" lon="2.67428">
        <ele>103.96</ele>
        <time>2014-01-20T15:14:29Z</time>
      </trkpt>
      <trkpt lat="43.32369" lon="2.6743">
        <ele>103.96</ele>
        <time>2014-01-20T15:14:43Z</time>
      </trkpt>
      <trkpt lat="43.32369" lon="2.67431">
        <ele>103.48</ele>
        <time>2014-01-20T15:14:55Z</time>
      </trkpt>
      <trkpt lat="43.3237" lon="2.67434">
        <ele>103</ele>
        <time>2014-01-20T15:15:09Z</time>
      </trkpt>
      <trkpt lat="43.32371" lon="2.67435">
        <ele>102.52</ele>
        <time>2014-01-20T15:15:22Z</time>
      </trkpt>
      <trkpt lat="43.32372" lon="2.67439">
        <ele>101.56</ele>
        <time>2014-01-20T15:15:36Z</time>
      </trkpt>
      <trkpt lat="43.32372" lon="2.67442">
        <ele>100.6</ele>
        <time>2014-01-20T15:15:53Z</time>
      </trkpt>
      <trkpt lat="43.32372" lon="2.67444">
        <ele>100.11</ele>
        <time>2014-01-20T15:16:06Z</time>
      </trkpt>
      <trkpt lat="43.32372" lon="2.67446">
        <ele>99.15</ele>
        <time>2014-01-20T15:16:19Z</time>
      </trkpt>
      <trkpt lat="43.32369" lon="2.67451">
        <ele>97.23</ele>
        <time>2014-01-20T15:16:31Z</time>
      </trkpt>
      <trkpt lat="43.32372" lon="2.67458">
        <ele>98.19</ele>
        <time>2014-01-20T15:16:43Z</time>
      </trkpt>
      <trkpt lat="43.32377" lon="2.67465">
        <ele>100.11</ele>
        <time>2014-01-20T15:16:55Z</time>
      </trkpt>
      <trkpt lat="43.32375" lon="2.67471">
        <ele>100.6</ele>
        <time>2014-01-20T15:17:01Z</time>
      </trkpt>
      <trkpt lat="43.32379" lon="2.67482">
        <ele>100.6</ele>
        <time>2014-01-20T15:17:13Z</time>
      </trkpt>
      <trkpt lat="43.32381" lon="2.67486">
        <ele>100.6</ele>
        <time>2014-01-20T15:17:16Z</time>
      </trkpt>
      <trkpt lat="43.32384" lon="2.67496">
        <ele>100.6</ele>
        <time>2014-01-20T15:17:24Z</time>
      </trkpt>
      <trkpt lat="43.32387" lon="2.67504">
        <ele>100.11</ele>
        <time>2014-01-20T15:17:32Z</time>
      </trkpt>
      <trkpt lat="43.3239" lon="2.67515">
        <ele>101.08</ele>
        <time>2014-01-20T15:17:40Z</time>
      </trkpt>
      <trkpt lat="43.32392" lon="2.67518">
        <ele>100.6</ele>
        <time>2014-01-20T15:17:43Z</time>
      </trkpt>
      <trkpt lat="43.32398" lon="2.67529">
        <ele>101.08</ele>
        <time>2014-01-20T15:17:52Z</time>
      </trkpt>
      <trkpt lat="43.32406" lon="2.67547">
        <ele>101.56</ele>
        <time>2014-01-20T15:18:06Z</time>
      </trkpt>
      <trkpt lat="43.32407" lon="2.67554">
        <ele>101.56</ele>
        <time>2014-01-20T15:18:11Z</time>
      </trkpt>
      <trkpt lat="43.32406" lon="2.67564">
        <ele>102.04</ele>
        <time>2014-01-20T15:18:19Z</time>
      </trkpt>
      <trkpt lat="43.32406" lon="2.67573">
        <ele>102.52</ele>
        <time>2014-01-20T15:18:26Z</time>
      </trkpt>
      <trkpt lat="43.32405" lon="2.67578">
        <ele>103</ele>
        <time>2014-01-20T15:18:29Z</time>
      </trkpt>
      <trkpt lat="43.32405" lon="2.67581">
        <ele>102.52</ele>
        <time>2014-01-20T15:18:31Z</time>
      </trkpt>
      <trkpt lat="43.32402" lon="2.67589">
        <ele>102.52</ele>
        <time>2014-01-20T15:18:37Z</time>
      </trkpt>
      <trkpt lat="43.32398" lon="2.67595">
        <ele>103</ele>
        <time>2014-01-20T15:18:42Z</time>
      </trkpt>
      <trkpt lat="43.32397" lon="2.67599">
        <ele>103</ele>
        <time>2014-01-20T15:18:45Z</time>
      </trkpt>
      <trkpt lat="43.32385" lon="2.67619">
        <ele>102.52</ele>
        <time>2014-01-20T15:19:02Z</time>
      </trkpt>
      <trkpt lat="43.32377" lon="2.67637">
        <ele>102.52</ele>
        <time>2014-01-20T15:19:15Z</time>
      </trkpt>
      <trkpt lat="43.32375" lon="2.67643">
        <ele>102.52</ele>
        <time>2014-01-20T15:19:19Z</time>
      </trkpt>
      <trkpt lat="43.32372" lon="2.6765">
        <ele>103</ele>
        <time>2014-01-20T15:19:25Z</time>
      </trkpt>
      <trkpt lat="43.32367" lon="2.67658">
        <ele>103</ele>
        <time>2014-01-20T15:19:31Z</time>
      </trkpt>
      <trkpt lat="43.32357" lon="2.67676">
        <ele>103.96</ele>
        <time>2014-01-20T15:19:46Z</time>
      </trkpt>
      <trkpt lat="43.32353" lon="2.6769">
        <ele>104.44</ele>
        <time>2014-01-20T15:19:56Z</time>
      </trkpt>
      <trkpt lat="43.32355" lon="2.67702">
        <ele>104.92</ele>
        <time>2014-01-20T15:20:09Z</time>
      </trkpt>
      <trkpt lat="43.32355" lon="2.67703">
        <ele>104.92</ele>
        <time>2014-01-20T15:20:10Z</time>
      </trkpt>
      <trkpt lat="43.32351" lon="2.67714">
        <ele>105.88</ele>
        <time>2014-01-20T15:20:19Z</time>
      </trkpt>
      <trkpt lat="43.32347" lon="2.6772">
        <ele>105.88</ele>
        <time>2014-01-20T15:20:25Z</time>
      </trkpt>
      <trkpt lat="43.32341" lon="2.67735">
        <ele>105.4</ele>
        <time>2014-01-20T15:20:38Z</time>
      </trkpt>
      <trkpt lat="43.32341" lon="2.67736">
        <ele>106.36</ele>
        <time>2014-01-20T15:20:39Z</time>
      </trkpt>
      <trkpt lat="43.3234" lon="2.67739">
        <ele>105.88</ele>
        <time>2014-01-20T15:20:42Z</time>
      </trkpt>
      <trkpt lat="43.32334" lon="2.67751">
        <ele>106.36</ele>
        <time>2014-01-20T15:20:54Z</time>
      </trkpt>
      <trkpt lat="43.32327" lon="2.67769">
        <ele>106.36</ele>
        <time>2014-01-20T15:21:09Z</time>
      </trkpt>
      <trkpt lat="43.3232" lon="2.67783">
        <ele>106.84</ele>
        <time>2014-01-20T15:21:22Z</time>
      </trkpt>
      <trkpt lat="43.32307" lon="2.67791">
        <ele>106.84</ele>
        <time>2014-01-20T15:21:37Z</time>
      </trkpt>
      <trkpt lat="43.32295" lon="2.67797">
        <ele>107.81</ele>
        <time>2014-01-20T15:21:53Z</time>
      </trkpt>
      <trkpt lat="43.32282" lon="2.67804">
        <ele>108.77</ele>
        <time>2014-01-20T15:22:06Z</time>
      </trkpt>
      <trkpt lat="43.32269" lon="2.67809">
        <ele>108.29</ele>
        <time>2014-01-20T15:22:19Z</time>
      </trkpt>
      <trkpt lat="43.32256" lon="2.67811">
        <ele>108.29</ele>
        <time>2014-01-20T15:22:33Z</time>
      </trkpt>
      <trkpt lat="43.32249" lon="2.67812">
        <ele>108.29</ele>
        <time>2014-01-20T15:22:44Z</time>
      </trkpt>
      <trkpt lat="43.32243" lon="2.67813">
        <ele>108.29</ele>
        <time>2014-01-20T15:22:55Z</time>
      </trkpt>
      <trkpt lat="43.32245" lon="2.67825">
        <ele>106.84</ele>
        <time>2014-01-20T15:23:08Z</time>
      </trkpt>
      <trkpt lat="43.3225" lon="2.67839">
        <ele>105.4</ele>
        <time>2014-01-20T15:23:22Z</time>
      </trkpt>
      <trkpt lat="43.32253" lon="2.67842">
        <ele>105.4</ele>
        <time>2014-01-20T15:23:38Z</time>
      </trkpt>
      <trkpt lat="43.32254" lon="2.67846">
        <ele>104.92</ele>
        <time>2014-01-20T15:23:44Z</time>
      </trkpt>
      <trkpt lat="43.32258" lon="2.67852">
        <ele>104.44</ele>
        <time>2014-01-20T15:23:49Z</time>
      </trkpt>
      <trkpt lat="43.32258" lon="2.67855">
        <ele>104.92</ele>
        <time>2014-01-20T15:23:51Z</time>
      </trkpt>
      <trkpt lat="43.32262" lon="2.67866">
        <ele>104.44</ele>
        <time>2014-01-20T15:23:57Z</time>
      </trkpt>
      <trkpt lat="43.32269" lon="2.67873">
        <ele>103.96</ele>
        <time>2014-01-20T15:24:07Z</time>
      </trkpt>
      <trkpt lat="43.32268" lon="2.67876">
        <ele>103.48</ele>
        <time>2014-01-20T15:24:10Z</time>
      </trkpt>
      <trkpt lat="43.32276" lon="2.67898">
        <ele>103.48</ele>
        <time>2014-01-20T15:24:22Z</time>
      </trkpt>
      <trkpt lat="43.3228" lon="2.67907">
        <ele>103</ele>
        <time>2014-01-20T15:24:28Z</time>
      </trkpt>
      <trkpt lat="43.32283" lon="2.67913">
        <ele>103</ele>
        <time>2014-01-20T15:24:32Z</time>
      </trkpt>
      <trkpt lat="43.32286" lon="2.67919">
        <ele>103</ele>
        <time>2014-01-20T15:24:37Z</time>
      </trkpt>
      <trkpt lat="43.32293" lon="2.67932">
        <ele>102.04</ele>
        <time>2014-01-20T15:24:46Z</time>
      </trkpt>
      <trkpt lat="43.32294" lon="2.67936">
        <ele>102.04</ele>
        <time>2014-01-20T15:24:49Z</time>
      </trkpt>
      <trkpt lat="43.32299" lon="2.67945">
        <ele>102.52</ele>
        <time>2014-01-20T15:24:56Z</time>
      </trkpt>
      <trkpt lat="43.32304" lon="2.6796">
        <ele>101.08</ele>
        <time>2014-01-20T15:25:07Z</time>
      </trkpt>
      <trkpt lat="43.32308" lon="2.67968">
        <ele>100.6</ele>
        <time>2014-01-20T15:25:13Z</time>
      </trkpt>
      <trkpt lat="43.3231" lon="2.67971">
        <ele>101.08</ele>
        <time>2014-01-20T15:25:16Z</time>
      </trkpt>
      <trkpt lat="43.32316" lon="2.67989">
        <ele>99.63</ele>
        <time>2014-01-20T15:25:30Z</time>
      </trkpt>
      <trkpt lat="43.3232" lon="2.67996">
        <ele>99.63</ele>
        <time>2014-01-20T15:25:36Z</time>
      </trkpt>
      <trkpt lat="43.32324" lon="2.68006">
        <ele>100.11</ele>
        <time>2014-01-20T15:25:45Z</time>
      </trkpt>
      <trkpt lat="43.32327" lon="2.68015">
        <ele>100.11</ele>
        <time>2014-01-20T15:25:51Z</time>
      </trkpt>
      <trkpt lat="43.32329" lon="2.68021">
        <ele>99.63</ele>
        <time>2014-01-20T15:25:56Z</time>
      </trkpt>
      <trkpt lat="43.32336" lon="2.68033">
        <ele>99.63</ele>
        <time>2014-01-20T15:26:08Z</time>
      </trkpt>
      <trkpt lat="43.3234" lon="2.68042">
        <ele>100.11</ele>
        <time>2014-01-20T15:26:14Z</time>
      </trkpt>
      <trkpt lat="43.32348" lon="2.68061">
        <ele>100.6</ele>
        <time>2014-01-20T15:26:29Z</time>
      </trkpt>
      <trkpt lat="43.32356" lon="2.68078">
        <ele>100.6</ele>
        <time>2014-01-20T15:26:43Z</time>
      </trkpt>
      <trkpt lat="43.32363" lon="2.681">
        <ele>100.6</ele>
        <time>2014-01-20T15:26:59Z</time>
      </trkpt>
      <trkpt lat="43.32369" lon="2.68121">
        <ele>100.6</ele>
        <time>2014-01-20T15:27:14Z</time>
      </trkpt>
      <trkpt lat="43.3237" lon="2.68126">
        <ele>101.08</ele>
        <time>2014-01-20T15:27:21Z</time>
      </trkpt>
      <trkpt lat="43.32376" lon="2.68143">
        <ele>100.6</ele>
        <time>2014-01-20T15:27:32Z</time>
      </trkpt>
      <trkpt lat="43.32379" lon="2.68145">
        <ele>99.15</ele>
        <time>2014-01-20T15:27:35Z</time>
      </trkpt>
      <trkpt lat="43.32382" lon="2.68155">
        <ele>98.67</ele>
        <time>2014-01-20T15:27:48Z</time>
      </trkpt>
      <trkpt lat="43.32383" lon="2.68155">
        <ele>99.15</ele>
        <time>2014-01-20T15:27:49Z</time>
      </trkpt>
      <trkpt lat="43.32387" lon="2.68172">
        <ele>97.71</ele>
        <time>2014-01-20T15:28:04Z</time>
      </trkpt>
      <trkpt lat="43.3239" lon="2.68174">
        <ele>97.23</ele>
        <time>2014-01-20T15:28:23Z</time>
      </trkpt>
      <trkpt lat="43.32393" lon="2.68178">
        <ele>97.23</ele>
        <time>2014-01-20T15:28:32Z</time>
      </trkpt>
      <trkpt lat="43.324" lon="2.68188">
        <ele>97.23</ele>
        <time>2014-01-20T15:28:44Z</time>
      </trkpt>
      <trkpt lat="43.324" lon="2.68186">
        <ele>97.23</ele>
        <time>2014-01-20T15:28:51Z</time>
      </trkpt>
      <trkpt lat="43.324" lon="2.68186">
        <ele>96.75</ele>
        <time>2014-01-20T15:29:04Z</time>
      </trkpt>
      <trkpt lat="43.32395" lon="2.68191">
        <ele>95.31</ele>
        <time>2014-01-20T15:29:20Z</time>
      </trkpt>
      <trkpt lat="43.32395" lon="2.68192">
        <ele>96.27</ele>
        <time>2014-01-20T15:29:35Z</time>
      </trkpt>
      <trkpt lat="43.32394" lon="2.68192">
        <ele>96.27</ele>
        <time>2014-01-20T15:29:55Z</time>
      </trkpt>
      <trkpt lat="43.32393" lon="2.68192">
        <ele>95.79</ele>
        <time>2014-01-20T15:30:10Z</time>
      </trkpt>
      <trkpt lat="43.32394" lon="2.68188">
        <ele>95.79</ele>
        <time>2014-01-20T15:30:21Z</time>
      </trkpt>
      <trkpt lat="43.32394" lon="2.68188">
        <ele>96.75</ele>
        <time>2014-01-20T15:30:42Z</time>
      </trkpt>
      <trkpt lat="43.32394" lon="2.68187">
        <ele>96.75</ele>
        <time>2014-01-20T15:31:05Z</time>
      </trkpt>
      <trkpt lat="43.32395" lon="2.68187">
        <ele>96.27</ele>
        <time>2014-01-20T15:31:30Z</time>
      </trkpt>
      <trkpt lat="43.32394" lon="2.68187">
        <ele>96.75</ele>
        <time>2014-01-20T15:31:55Z</time>
      </trkpt>
      <trkpt lat="43.32394" lon="2.68189">
        <ele>97.71</ele>
        <time>2014-01-20T15:32:10Z</time>
      </trkpt>
      <trkpt lat="43.32399" lon="2.6819">
        <ele>98.67</ele>
        <time>2014-01-20T15:32:24Z</time>
      </trkpt>
      <trkpt lat="43.32404" lon="2.68196">
        <ele>98.67</ele>
        <time>2014-01-20T15:32:32Z</time>
      </trkpt>
      <trkpt lat="43.32405" lon="2.68206">
        <ele>98.67</ele>
        <time>2014-01-20T15:32:38Z</time>
      </trkpt>
      <trkpt lat="43.32403" lon="2.68225">
        <ele>98.19</ele>
        <time>2014-01-20T15:32:51Z</time>
      </trkpt>
      <trkpt lat="43.32401" lon="2.68228">
        <ele>98.19</ele>
        <time>2014-01-20T15:32:55Z</time>
      </trkpt>
      <trkpt lat="43.3239" lon="2.68231">
        <ele>98.67</ele>
        <time>2014-01-20T15:33:09Z</time>
      </trkpt>
      <trkpt lat="43.32389" lon="2.68231">
        <ele>98.19</ele>
        <time>2014-01-20T15:33:11Z</time>
      </trkpt>
      <trkpt lat="43.32374" lon="2.68237">
        <ele>98.67</ele>
        <time>2014-01-20T15:33:24Z</time>
      </trkpt>
      <trkpt lat="43.32371" lon="2.68236">
        <ele>98.19</ele>
        <time>2014-01-20T15:33:27Z</time>
      </trkpt>
      <trkpt lat="43.32368" lon="2.68237">
        <ele>98.67</ele>
        <time>2014-01-20T15:33:30Z</time>
      </trkpt>
      <trkpt lat="43.32355" lon="2.6824">
        <ele>98.67</ele>
        <time>2014-01-20T15:33:42Z</time>
      </trkpt>
      <trkpt lat="43.32349" lon="2.68241">
        <ele>98.19</ele>
        <time>2014-01-20T15:33:46Z</time>
      </trkpt>
      <trkpt lat="43.32332" lon="2.68244">
        <ele>98.67</ele>
        <time>2014-01-20T15:33:59Z</time>
      </trkpt>
      <trkpt lat="43.32325" lon="2.68241">
        <ele>98.19</ele>
        <time>2014-01-20T15:34:09Z</time>
      </trkpt>
      <trkpt lat="43.32322" lon="2.68239">
        <ele>97.71</ele>
        <time>2014-01-20T15:34:11Z</time>
      </trkpt>
      <trkpt lat="43.32311" lon="2.6823">
        <ele>98.19</ele>
        <time>2014-01-20T15:34:21Z</time>
      </trkpt>
      <trkpt lat="43.32303" lon="2.68226">
        <ele>97.71</ele>
        <time>2014-01-20T15:34:28Z</time>
      </trkpt>
      <trkpt lat="43.32291" lon="2.68219">
        <ele>97.23</ele>
        <time>2014-01-20T15:34:41Z</time>
      </trkpt>
      <trkpt lat="43.32288" lon="2.68218">
        <ele>96.75</ele>
        <time>2014-01-20T15:34:43Z</time>
      </trkpt>
      <trkpt lat="43.32282" lon="2.68215">
        <ele>96.75</ele>
        <time>2014-01-20T15:34:48Z</time>
      </trkpt>
      <trkpt lat="43.32266" lon="2.68209">
        <ele>96.27</ele>
        <time>2014-01-20T15:35:02Z</time>
      </trkpt>
      <trkpt lat="43.32265" lon="2.68209">
        <ele>96.27</ele>
        <time>2014-01-20T15:35:03Z</time>
      </trkpt>
      <trkpt lat="43.32251" lon="2.68204">
        <ele>95.31</ele>
        <time>2014-01-20T15:35:15Z</time>
      </trkpt>
      <trkpt lat="43.32241" lon="2.68203">
        <ele>94.83</ele>
        <time>2014-01-20T15:35:23Z</time>
      </trkpt>
      <trkpt lat="43.32233" lon="2.682">
        <ele>94.83</ele>
        <time>2014-01-20T15:35:30Z</time>
      </trkpt>
      <trkpt lat="43.32224" lon="2.68193">
        <ele>94.83</ele>
        <time>2014-01-20T15:35:38Z</time>
      </trkpt>
      <trkpt lat="43.32215" lon="2.68189">
        <ele>94.35</ele>
        <time>2014-01-20T15:35:46Z</time>
      </trkpt>
      <trkpt lat="43.32213" lon="2.68188">
        <ele>93.87</ele>
        <time>2014-01-20T15:35:48Z</time>
      </trkpt>
      <trkpt lat="43.32199" lon="2.68187">
        <ele>92.42</ele>
        <time>2014-01-20T15:36:00Z</time>
      </trkpt>
      <trkpt lat="43.32186" lon="2.68187">
        <ele>91.46</ele>
        <time>2014-01-20T15:36:13Z</time>
      </trkpt>
      <trkpt lat="43.32182" lon="2.68189">
        <ele>90.5</ele>
        <time>2014-01-20T15:36:24Z</time>
      </trkpt>
      <trkpt lat="43.32181" lon="2.68191">
        <ele>90.5</ele>
        <time>2014-01-20T15:36:26Z</time>
      </trkpt>
      <trkpt lat="43.32172" lon="2.68194">
        <ele>89.54</ele>
        <time>2014-01-20T15:36:37Z</time>
      </trkpt>
      <trkpt lat="43.32164" lon="2.68195">
        <ele>89.54</ele>
        <time>2014-01-20T15:36:45Z</time>
      </trkpt>
      <trkpt lat="43.32148" lon="2.68194">
        <ele>88.1</ele>
        <time>2014-01-20T15:36:57Z</time>
      </trkpt>
      <trkpt lat="43.32143" lon="2.68196">
        <ele>88.58</ele>
        <time>2014-01-20T15:37:02Z</time>
      </trkpt>
      <trkpt lat="43.32136" lon="2.68199">
        <ele>88.1</ele>
        <time>2014-01-20T15:37:07Z</time>
      </trkpt>
      <trkpt lat="43.32126" lon="2.68203">
        <ele>87.62</ele>
        <time>2014-01-20T15:37:18Z</time>
      </trkpt>
      <trkpt lat="43.32125" lon="2.6822">
        <ele>87.14</ele>
        <time>2014-01-20T15:37:29Z</time>
      </trkpt>
      <trkpt lat="43.3213" lon="2.68244">
        <ele>87.14</ele>
        <time>2014-01-20T15:37:44Z</time>
      </trkpt>
      <trkpt lat="43.32134" lon="2.68256">
        <ele>87.14</ele>
        <time>2014-01-20T15:37:53Z</time>
      </trkpt>
      <trkpt lat="43.32134" lon="2.68258">
        <ele>87.14</ele>
        <time>2014-01-20T15:37:55Z</time>
      </trkpt>
      <trkpt lat="43.32136" lon="2.68268">
        <ele>87.14</ele>
        <time>2014-01-20T15:38:01Z</time>
      </trkpt>
      <trkpt lat="43.32137" lon="2.68271">
        <ele>87.14</ele>
        <time>2014-01-20T15:38:03Z</time>
      </trkpt>
      <trkpt lat="43.32137" lon="2.6828">
        <ele>86.66</ele>
        <time>2014-01-20T15:38:07Z</time>
      </trkpt>
      <trkpt lat="43.32141" lon="2.68302">
        <ele>87.14</ele>
        <time>2014-01-20T15:38:19Z</time>
      </trkpt>
      <trkpt lat="43.32147" lon="2.68322">
        <ele>92.42</ele>
        <time>2014-01-20T15:38:31Z</time>
      </trkpt>
      <trkpt lat="43.32147" lon="2.68323">
        <ele>87.14</ele>
        <time>2014-01-20T15:38:32Z</time>
      </trkpt>
      <trkpt lat="43.32152" lon="2.68329">
        <ele>93.87</ele>
        <time>2014-01-20T15:38:37Z</time>
      </trkpt>
      <trkpt lat="43.32155" lon="2.68336">
        <ele>83.29</ele>
        <time>2014-01-20T15:38:43Z</time>
      </trkpt>
      <trkpt lat="43.32156" lon="2.68337">
        <ele>98.67</ele>
        <time>2014-01-20T15:38:44Z</time>
      </trkpt>
      <trkpt lat="43.32156" lon="2.68339">
        <ele>88.58</ele>
        <time>2014-01-20T15:38:45Z</time>
      </trkpt>
      <trkpt lat="43.32157" lon="2.6834">
        <ele>93.87</ele>
        <time>2014-01-20T15:38:46Z</time>
      </trkpt>
      <trkpt lat="43.32157" lon="2.68342">
        <ele>89.54</ele>
        <time>2014-01-20T15:38:47Z</time>
      </trkpt>
      <trkpt lat="43.32158" lon="2.68343">
        <ele>80.89</ele>
        <time>2014-01-20T15:38:48Z</time>
      </trkpt>
      <trkpt lat="43.32158" lon="2.68344">
        <ele>87.62</ele>
        <time>2014-01-20T15:38:49Z</time>
      </trkpt>
      <trkpt lat="43.32159" lon="2.68346">
        <ele>73.68</ele>
        <time>2014-01-20T15:38:50Z</time>
      </trkpt>
      <trkpt lat="43.32159" lon="2.68347">
        <ele>89.54</ele>
        <time>2014-01-20T15:38:51Z</time>
      </trkpt>
      <trkpt lat="43.32159" lon="2.68348">
        <ele>80.89</ele>
        <time>2014-01-20T15:38:52Z</time>
      </trkpt>
      <trkpt lat="43.32159" lon="2.68349">
        <ele>77.52</ele>
        <time>2014-01-20T15:38:53Z</time>
      </trkpt>
      <trkpt lat="43.32159" lon="2.6835">
        <ele>91.46</ele>
        <time>2014-01-20T15:38:54Z</time>
      </trkpt>
      <trkpt lat="43.32159" lon="2.6835">
        <ele>88.58</ele>
        <time>2014-01-20T15:38:55Z</time>
      </trkpt>
      <trkpt lat="43.32159" lon="2.6835">
        <ele>73.68</ele>
        <time>2014-01-20T15:38:56Z</time>
      </trkpt>
      <trkpt lat="43.32159" lon="2.68351">
        <ele>90.5</ele>
        <time>2014-01-20T15:38:57Z</time>
      </trkpt>
      <trkpt lat="43.32159" lon="2.68352">
        <ele>83.29</ele>
        <time>2014-01-20T15:38:58Z</time>
      </trkpt>
      <trkpt lat="43.3216" lon="2.68355">
        <ele>92.9</ele>
        <time>2014-01-20T15:39:01Z</time>
      </trkpt>
      <trkpt lat="43.3216" lon="2.68357">
        <ele>90.5</ele>
        <time>2014-01-20T15:39:02Z</time>
      </trkpt>
      <trkpt lat="43.3216" lon="2.68362">
        <ele>94.83</ele>
        <time>2014-01-20T15:39:05Z</time>
      </trkpt>
      <trkpt lat="43.3216" lon="2.68364">
        <ele>90.98</ele>
        <time>2014-01-20T15:39:06Z</time>
      </trkpt>
      <trkpt lat="43.3216" lon="2.68375">
        <ele>88.58</ele>
        <time>2014-01-20T15:39:19Z</time>
      </trkpt>
      <trkpt lat="43.32165" lon="2.68391">
        <ele>89.06</ele>
        <time>2014-01-20T15:39:31Z</time>
      </trkpt>
      <trkpt lat="43.32166" lon="2.68397">
        <ele>92.9</ele>
        <time>2014-01-20T15:39:37Z</time>
      </trkpt>
      <trkpt lat="43.32166" lon="2.68397">
        <ele>89.54</ele>
        <time>2014-01-20T15:39:38Z</time>
      </trkpt>
      <trkpt lat="43.32162" lon="2.68403">
        <ele>89.54</ele>
        <time>2014-01-20T15:39:51Z</time>
      </trkpt>
      <trkpt lat="43.32163" lon="2.68405">
        <ele>88.58</ele>
        <time>2014-01-20T15:40:03Z</time>
      </trkpt>
      <trkpt lat="43.32167" lon="2.68406">
        <ele>90.5</ele>
        <time>2014-01-20T15:40:15Z</time>
      </trkpt>
      <trkpt lat="43.32165" lon="2.68414">
        <ele>90.5</ele>
        <time>2014-01-20T15:40:26Z</time>
      </trkpt>
      <trkpt lat="43.3217" lon="2.6842">
        <ele>91.46</ele>
        <time>2014-01-20T15:40:42Z</time>
      </trkpt>
      <trkpt lat="43.32173" lon="2.68425">
        <ele>87.14</ele>
        <time>2014-01-20T15:40:50Z</time>
      </trkpt>
      <trkpt lat="43.32173" lon="2.68426">
        <ele>91.94</ele>
        <time>2014-01-20T15:40:51Z</time>
      </trkpt>
      <trkpt lat="43.32174" lon="2.68432">
        <ele>91.94</ele>
        <time>2014-01-20T15:41:07Z</time>
      </trkpt>
      <trkpt lat="43.32175" lon="2.68441">
        <ele>91.94</ele>
        <time>2014-01-20T15:41:12Z</time>
      </trkpt>
      <trkpt lat="43.32175" lon="2.68449">
        <ele>92.42</ele>
        <time>2014-01-20T15:41:27Z</time>
      </trkpt>
      <trkpt lat="43.32179" lon="2.68461">
        <ele>93.39</ele>
        <time>2014-01-20T15:41:39Z</time>
      </trkpt>
      <trkpt lat="43.32178" lon="2.68483">
        <ele>93.87</ele>
        <time>2014-01-20T15:41:53Z</time>
      </trkpt>
      <trkpt lat="43.32173" lon="2.68499">
        <ele>95.31</ele>
        <time>2014-01-20T15:42:08Z</time>
      </trkpt>
      <trkpt lat="43.32174" lon="2.68513">
        <ele>95.79</ele>
        <time>2014-01-20T15:42:21Z</time>
      </trkpt>
      <trkpt lat="43.32176" lon="2.6852">
        <ele>96.75</ele>
        <time>2014-01-20T15:42:27Z</time>
      </trkpt>
      <trkpt lat="43.32174" lon="2.68529">
        <ele>97.71</ele>
        <time>2014-01-20T15:42:32Z</time>
      </trkpt>
      <trkpt lat="43.3217" lon="2.68538">
        <ele>98.19</ele>
        <time>2014-01-20T15:42:38Z</time>
      </trkpt>
      <trkpt lat="43.32161" lon="2.68543">
        <ele>98.19</ele>
        <time>2014-01-20T15:42:51Z</time>
      </trkpt>
      <trkpt lat="43.32156" lon="2.68546">
        <ele>98.19</ele>
        <time>2014-01-20T15:42:58Z</time>
      </trkpt>
      <trkpt lat="43.3214" lon="2.68558">
        <ele>98.19</ele>
        <time>2014-01-20T15:43:12Z</time>
      </trkpt>
      <trkpt lat="43.32128" lon="2.68566">
        <ele>97.71</ele>
        <time>2014-01-20T15:43:24Z</time>
      </trkpt>
      <trkpt lat="43.32112" lon="2.68575">
        <ele>96.75</ele>
        <time>2014-01-20T15:43:37Z</time>
      </trkpt>
      <trkpt lat="43.32098" lon="2.68586">
        <ele>95.79</ele>
        <time>2014-01-20T15:43:51Z</time>
      </trkpt>
      <trkpt lat="43.32097" lon="2.68587">
        <ele>95.31</ele>
        <time>2014-01-20T15:44:00Z</time>
      </trkpt>
      <trkpt lat="43.32095" lon="2.6859">
        <ele>95.79</ele>
        <time>2014-01-20T15:44:03Z</time>
      </trkpt>
      <trkpt lat="43.32092" lon="2.68595">
        <ele>95.31</ele>
        <time>2014-01-20T15:44:14Z</time>
      </trkpt>
      <trkpt lat="43.32088" lon="2.68598">
        <ele>95.31</ele>
        <time>2014-01-20T15:44:18Z</time>
      </trkpt>
      <trkpt lat="43.32077" lon="2.68615">
        <ele>94.83</ele>
        <time>2014-01-20T15:44:31Z</time>
      </trkpt>
      <trkpt lat="43.32069" lon="2.68626">
        <ele>93.87</ele>
        <time>2014-01-20T15:44:40Z</time>
      </trkpt>
      <trkpt lat="43.32059" lon="2.6864">
        <ele>93.39</ele>
        <time>2014-01-20T15:44:51Z</time>
      </trkpt>
      <trkpt lat="43.32059" lon="2.68644">
        <ele>93.39</ele>
        <time>2014-01-20T15:44:54Z</time>
      </trkpt>
      <trkpt lat="43.32067" lon="2.68661">
        <ele>93.39</ele>
        <time>2014-01-20T15:45:06Z</time>
      </trkpt>
      <trkpt lat="43.32078" lon="2.68678">
        <ele>93.87</ele>
        <time>2014-01-20T15:45:20Z</time>
      </trkpt>
      <trkpt lat="43.32079" lon="2.68686">
        <ele>93.39</ele>
        <time>2014-01-20T15:45:25Z</time>
      </trkpt>
      <trkpt lat="43.32088" lon="2.68704">
        <ele>92.42</ele>
        <time>2014-01-20T15:45:40Z</time>
      </trkpt>
      <trkpt lat="43.32089" lon="2.68706">
        <ele>92.9</ele>
        <time>2014-01-20T15:45:42Z</time>
      </trkpt>
      <trkpt lat="43.32091" lon="2.68711">
        <ele>92.9</ele>
        <time>2014-01-20T15:45:46Z</time>
      </trkpt>
      <trkpt lat="43.32104" lon="2.68723">
        <ele>92.42</ele>
        <time>2014-01-20T15:46:00Z</time>
      </trkpt>
      <trkpt lat="43.3211" lon="2.6873">
        <ele>92.42</ele>
        <time>2014-01-20T15:46:07Z</time>
      </trkpt>
      <trkpt lat="43.32111" lon="2.68733">
        <ele>92.42</ele>
        <time>2014-01-20T15:46:09Z</time>
      </trkpt>
      <trkpt lat="43.32115" lon="2.68737">
        <ele>92.42</ele>
        <time>2014-01-20T15:46:13Z</time>
      </trkpt>
      <trkpt lat="43.32116" lon="2.68739">
        <ele>97.23</ele>
        <time>2014-01-20T15:46:21Z</time>
      </trkpt>
      <trkpt lat="43.32116" lon="2.68739">
        <ele>92.9</ele>
        <time>2014-01-20T15:46:22Z</time>
      </trkpt>
      <trkpt lat="43.32116" lon="2.68739">
        <ele>96.27</ele>
        <time>2014-01-20T15:46:24Z</time>
      </trkpt>
      <trkpt lat="43.32116" lon="2.68739">
        <ele>96.27</ele>
        <time>2014-01-20T15:46:25Z</time>
      </trkpt>
      <trkpt lat="43.32116" lon="2.68739">
        <ele>102.04</ele>
        <time>2014-01-20T15:46:27Z</time>
      </trkpt>
      <trkpt lat="43.32116" lon="2.68739">
        <ele>90.02</ele>
        <time>2014-01-20T15:46:28Z</time>
      </trkpt>
      <trkpt lat="43.32116" lon="2.68739">
        <ele>91.46</ele>
        <time>2014-01-20T15:46:29Z</time>
      </trkpt>
      <trkpt lat="43.32115" lon="2.68739">
        <ele>96.27</ele>
        <time>2014-01-20T15:46:31Z</time>
      </trkpt>
      <trkpt lat="43.32114" lon="2.68738">
        <ele>91.46</ele>
        <time>2014-01-20T15:46:33Z</time>
      </trkpt>
      <trkpt lat="43.32113" lon="2.68738">
        <ele>92.42</ele>
        <time>2014-01-20T15:46:34Z</time>
      </trkpt>
      <trkpt lat="43.32113" lon="2.68738">
        <ele>80.41</ele>
        <time>2014-01-20T15:46:36Z</time>
      </trkpt>
      <trkpt lat="43.32113" lon="2.68738">
        <ele>99.63</ele>
        <time>2014-01-20T15:46:37Z</time>
      </trkpt>
      <trkpt lat="43.32113" lon="2.68738">
        <ele>85.69</ele>
        <time>2014-01-20T15:46:38Z</time>
      </trkpt>
      <trkpt lat="43.32113" lon="2.68738">
        <ele>92.42</ele>
        <time>2014-01-20T15:46:40Z</time>
      </trkpt>
      <trkpt lat="43.32113" lon="2.68738">
        <ele>89.54</ele>
        <time>2014-01-20T15:46:41Z</time>
      </trkpt>
      <trkpt lat="43.32113" lon="2.68738">
        <ele>92.9</ele>
        <time>2014-01-20T15:46:42Z</time>
      </trkpt>
      <trkpt lat="43.32113" lon="2.68738">
        <ele>86.66</ele>
        <time>2014-01-20T15:46:43Z</time>
      </trkpt>
      <trkpt lat="43.32113" lon="2.68738">
        <ele>90.98</ele>
        <time>2014-01-20T15:46:44Z</time>
      </trkpt>
      <trkpt lat="43.32113" lon="2.68738">
        <ele>86.18</ele>
        <time>2014-01-20T15:46:45Z</time>
      </trkpt>
      <trkpt lat="43.32113" lon="2.68738">
        <ele>93.39</ele>
        <time>2014-01-20T15:46:46Z</time>
      </trkpt>
      <trkpt lat="43.32113" lon="2.68738">
        <ele>82.81</ele>
        <time>2014-01-20T15:46:47Z</time>
      </trkpt>
      <trkpt lat="43.32113" lon="2.68738">
        <ele>92.42</ele>
        <time>2014-01-20T15:46:48Z</time>
      </trkpt>
      <trkpt lat="43.32113" lon="2.68738">
        <ele>86.66</ele>
        <time>2014-01-20T15:46:50Z</time>
      </trkpt>
      <trkpt lat="43.32113" lon="2.68738">
        <ele>93.39</ele>
        <time>2014-01-20T15:46:51Z</time>
      </trkpt>
      <trkpt lat="43.32113" lon="2.68738">
        <ele>90.02</ele>
        <time>2014-01-20T15:46:56Z</time>
      </trkpt>
      <trkpt lat="43.32113" lon="2.68738">
        <ele>92.9</ele>
        <time>2014-01-20T15:46:57Z</time>
      </trkpt>
      <trkpt lat="43.32113" lon="2.68738">
        <ele>87.14</ele>
        <time>2014-01-20T15:47:01Z</time>
      </trkpt>
      <trkpt lat="43.32113" lon="2.68738">
        <ele>92.42</ele>
        <time>2014-01-20T15:47:02Z</time>
      </trkpt>
      <trkpt lat="43.32113" lon="2.68738">
        <ele>99.63</ele>
        <time>2014-01-20T15:47:09Z</time>
      </trkpt>
      <trkpt lat="43.32113" lon="2.68738">
        <ele>89.54</ele>
        <time>2014-01-20T15:47:10Z</time>
      </trkpt>
      <trkpt lat="43.32113" lon="2.68738">
        <ele>95.79</ele>
        <time>2014-01-20T15:47:11Z</time>
      </trkpt>
      <trkpt lat="43.32113" lon="2.68738">
        <ele>91.46</ele>
        <time>2014-01-20T15:47:14Z</time>
      </trkpt>
      <trkpt lat="43.32113" lon="2.68737">
        <ele>90.98</ele>
        <time>2014-01-20T15:47:15Z</time>
      </trkpt>
      <trkpt lat="43.32113" lon="2.68737">
        <ele>106.36</ele>
        <time>2014-01-20T15:47:16Z</time>
      </trkpt>
      <trkpt lat="43.32113" lon="2.68737">
        <ele>100.11</ele>
        <time>2014-01-20T15:47:17Z</time>
      </trkpt>
      <trkpt lat="43.32113" lon="2.68737">
        <ele>81.85</ele>
        <time>2014-01-20T15:47:18Z</time>
      </trkpt>
      <trkpt lat="43.32113" lon="2.68737">
        <ele>89.06</ele>
        <time>2014-01-20T15:47:19Z</time>
      </trkpt>
      <trkpt lat="43.32113" lon="2.68737">
        <ele>91.94</ele>
        <time>2014-01-20T15:47:20Z</time>
      </trkpt>
      <trkpt lat="43.32113" lon="2.68737">
        <ele>90.5</ele>
        <time>2014-01-20T15:47:21Z</time>
      </trkpt>
      <trkpt lat="43.32112" lon="2.68737">
        <ele>94.35</ele>
        <time>2014-01-20T15:47:22Z</time>
      </trkpt>
      <trkpt lat="43.32112" lon="2.68737">
        <ele>86.18</ele>
        <time>2014-01-20T15:47:24Z</time>
      </trkpt>
      <trkpt lat="43.32112" lon="2.68737">
        <ele>92.42</ele>
        <time>2014-01-20T15:47:25Z</time>
      </trkpt>
      <trkpt lat="43.32112" lon="2.68737">
        <ele>83.77</ele>
        <time>2014-01-20T15:47:27Z</time>
      </trkpt>
      <trkpt lat="43.32112" lon="2.68737">
        <ele>93.39</ele>
        <time>2014-01-20T15:47:28Z</time>
      </trkpt>
      <trkpt lat="43.32112" lon="2.68737">
        <ele>80.41</ele>
        <time>2014-01-20T15:47:29Z</time>
      </trkpt>
      <trkpt lat="43.32112" lon="2.68737">
        <ele>94.35</ele>
        <time>2014-01-20T15:47:31Z</time>
      </trkpt>
      <trkpt lat="43.32112" lon="2.68737">
        <ele>92.42</ele>
        <time>2014-01-20T15:47:32Z</time>
      </trkpt>
      <trkpt lat="43.32112" lon="2.68738">
        <ele>91.94</ele>
        <time>2014-01-20T15:47:38Z</time>
      </trkpt>
      <trkpt lat="43.32122" lon="2.68743">
        <ele>87.62</ele>
        <time>2014-01-20T15:47:48Z</time>
      </trkpt>
      <trkpt lat="43.32123" lon="2.68744">
        <ele>92.9</ele>
        <time>2014-01-20T15:47:49Z</time>
      </trkpt>
      <trkpt lat="43.32124" lon="2.68745">
        <ele>98.19</ele>
        <time>2014-01-20T15:47:50Z</time>
      </trkpt>
      <trkpt lat="43.32125" lon="2.68745">
        <ele>91.46</ele>
        <time>2014-01-20T15:47:51Z</time>
      </trkpt>
      <trkpt lat="43.32127" lon="2.68747">
        <ele>78.97</ele>
        <time>2014-01-20T15:47:53Z</time>
      </trkpt>
      <trkpt lat="43.32128" lon="2.68747">
        <ele>85.21</ele>
        <time>2014-01-20T15:47:54Z</time>
      </trkpt>
      <trkpt lat="43.32128" lon="2.68747">
        <ele>94.83</ele>
        <time>2014-01-20T15:47:55Z</time>
      </trkpt>
      <trkpt lat="43.32129" lon="2.68747">
        <ele>92.42</ele>
        <time>2014-01-20T15:47:56Z</time>
      </trkpt>
      <trkpt lat="43.3213" lon="2.68748">
        <ele>91.94</ele>
        <time>2014-01-20T15:47:57Z</time>
      </trkpt>
      <trkpt lat="43.32133" lon="2.68751">
        <ele>78.48</ele>
        <time>2014-01-20T15:48:00Z</time>
      </trkpt>
      <trkpt lat="43.32134" lon="2.68752">
        <ele>97.23</ele>
        <time>2014-01-20T15:48:01Z</time>
      </trkpt>
      <trkpt lat="43.32134" lon="2.68753">
        <ele>102.04</ele>
        <time>2014-01-20T15:48:02Z</time>
      </trkpt>
      <trkpt lat="43.32134" lon="2.68753">
        <ele>92.42</ele>
        <time>2014-01-20T15:48:03Z</time>
      </trkpt>
      <trkpt lat="43.32134" lon="2.68753">
        <ele>86.18</ele>
        <time>2014-01-20T15:48:05Z</time>
      </trkpt>
      <trkpt lat="43.32134" lon="2.68753">
        <ele>87.62</ele>
        <time>2014-01-20T15:48:06Z</time>
      </trkpt>
      <trkpt lat="43.32134" lon="2.68753">
        <ele>90.98</ele>
        <time>2014-01-20T15:48:07Z</time>
      </trkpt>
      <trkpt lat="43.32135" lon="2.68755">
        <ele>85.21</ele>
        <time>2014-01-20T15:48:09Z</time>
      </trkpt>
      <trkpt lat="43.32136" lon="2.68756">
        <ele>96.27</ele>
        <time>2014-01-20T15:48:10Z</time>
      </trkpt>
      <trkpt lat="43.32137" lon="2.68757">
        <ele>92.9</ele>
        <time>2014-01-20T15:48:11Z</time>
      </trkpt>
      <trkpt lat="43.32144" lon="2.68765">
        <ele>92.9</ele>
        <time>2014-01-20T15:48:25Z</time>
      </trkpt>
      <trkpt lat="43.32148" lon="2.6877">
        <ele>92.9</ele>
        <time>2014-01-20T15:48:30Z</time>
      </trkpt>
      <trkpt lat="43.32152" lon="2.68774">
        <ele>99.63</ele>
        <time>2014-01-20T15:48:34Z</time>
      </trkpt>
      <trkpt lat="43.32152" lon="2.68775">
        <ele>93.87</ele>
        <time>2014-01-20T15:48:35Z</time>
      </trkpt>
      <trkpt lat="43.32153" lon="2.68777">
        <ele>87.14</ele>
        <time>2014-01-20T15:48:39Z</time>
      </trkpt>
      <trkpt lat="43.32153" lon="2.68777">
        <ele>94.35</ele>
        <time>2014-01-20T15:48:40Z</time>
      </trkpt>
      <trkpt lat="43.32153" lon="2.6878">
        <ele>92.9</ele>
        <time>2014-01-20T15:48:49Z</time>
      </trkpt>
      <trkpt lat="43.32155" lon="2.68785">
        <ele>93.87</ele>
        <time>2014-01-20T15:48:53Z</time>
      </trkpt>
      <trkpt lat="43.32157" lon="2.68792">
        <ele>93.87</ele>
        <time>2014-01-20T15:48:57Z</time>
      </trkpt>
      <trkpt lat="43.3216" lon="2.68801">
        <ele>94.35</ele>
        <time>2014-01-20T15:49:07Z</time>
      </trkpt>
      <trkpt lat="43.32161" lon="2.68805">
        <ele>94.35</ele>
        <time>2014-01-20T15:49:10Z</time>
      </trkpt>
      <trkpt lat="43.32168" lon="2.68822">
        <ele>94.83</ele>
        <time>2014-01-20T15:49:20Z</time>
      </trkpt>
      <trkpt lat="43.3217" lon="2.68833">
        <ele>94.83</ele>
        <time>2014-01-20T15:49:26Z</time>
      </trkpt>
      <trkpt lat="43.3217" lon="2.68845">
        <ele>94.35</ele>
        <time>2014-01-20T15:49:34Z</time>
      </trkpt>
      <trkpt lat="43.32174" lon="2.68866">
        <ele>93.87</ele>
        <time>2014-01-20T15:49:47Z</time>
      </trkpt>
      <trkpt lat="43.32173" lon="2.68884">
        <ele>93.39</ele>
        <time>2014-01-20T15:50:01Z</time>
      </trkpt>
      <trkpt lat="43.32179" lon="2.68907">
        <ele>92.9</ele>
        <time>2014-01-20T15:50:15Z</time>
      </trkpt>
      <trkpt lat="43.32188" lon="2.68923">
        <ele>91.46</ele>
        <time>2014-01-20T15:50:30Z</time>
      </trkpt>
      <trkpt lat="43.32195" lon="2.68925">
        <ele>90.98</ele>
        <time>2014-01-20T15:50:42Z</time>
      </trkpt>
      <trkpt lat="43.32205" lon="2.68925">
        <ele>90.98</ele>
        <time>2014-01-20T15:50:57Z</time>
      </trkpt>
      <trkpt lat="43.32205" lon="2.68928">
        <ele>90.5</ele>
        <time>2014-01-20T15:51:13Z</time>
      </trkpt>
      <trkpt lat="43.32206" lon="2.68927">
        <ele>90.5</ele>
        <time>2014-01-20T15:51:27Z</time>
      </trkpt>
      <trkpt lat="43.32206" lon="2.68944">
        <ele>89.54</ele>
        <time>2014-01-20T15:51:39Z</time>
      </trkpt>
      <trkpt lat="43.32206" lon="2.68951">
        <ele>89.06</ele>
        <time>2014-01-20T15:51:43Z</time>
      </trkpt>
      <trkpt lat="43.32206" lon="2.68965">
        <ele>88.58</ele>
        <time>2014-01-20T15:51:51Z</time>
      </trkpt>
      <trkpt lat="43.32204" lon="2.6898">
        <ele>88.1</ele>
        <time>2014-01-20T15:52:00Z</time>
      </trkpt>
      <trkpt lat="43.32202" lon="2.69001">
        <ele>87.62</ele>
        <time>2014-01-20T15:52:15Z</time>
      </trkpt>
      <trkpt lat="43.32188" lon="2.69009">
        <ele>88.58</ele>
        <time>2014-01-20T15:52:28Z</time>
      </trkpt>
      <trkpt lat="43.32168" lon="2.69016">
        <ele>88.58</ele>
        <time>2014-01-20T15:52:44Z</time>
      </trkpt>
      <trkpt lat="43.32149" lon="2.69024">
        <ele>88.58</ele>
        <time>2014-01-20T15:52:59Z</time>
      </trkpt>
      <trkpt lat="43.32134" lon="2.69042">
        <ele>88.58</ele>
        <time>2014-01-20T15:53:16Z</time>
      </trkpt>
      <trkpt lat="43.32133" lon="2.69044">
        <ele>88.1</ele>
        <time>2014-01-20T15:53:18Z</time>
      </trkpt>
      <trkpt lat="43.32132" lon="2.69069">
        <ele>87.14</ele>
        <time>2014-01-20T15:53:33Z</time>
      </trkpt>
      <trkpt lat="43.32131" lon="2.6909">
        <ele>86.66</ele>
        <time>2014-01-20T15:53:48Z</time>
      </trkpt>
      <trkpt lat="43.32127" lon="2.69108">
        <ele>86.18</ele>
        <time>2014-01-20T15:54:03Z</time>
      </trkpt>
      <trkpt lat="43.32123" lon="2.69125">
        <ele>85.21</ele>
        <time>2014-01-20T15:54:17Z</time>
      </trkpt>
      <trkpt lat="43.32117" lon="2.6913">
        <ele>85.21</ele>
        <time>2014-01-20T15:54:21Z</time>
      </trkpt>
      <trkpt lat="43.32107" lon="2.69136">
        <ele>85.21</ele>
        <time>2014-01-20T15:54:31Z</time>
      </trkpt>
      <trkpt lat="43.32102" lon="2.69142">
        <ele>85.69</ele>
        <time>2014-01-20T15:54:37Z</time>
      </trkpt>
      <trkpt lat="43.32088" lon="2.69154">
        <ele>86.18</ele>
        <time>2014-01-20T15:54:51Z</time>
      </trkpt>
      <trkpt lat="43.32084" lon="2.69158">
        <ele>86.18</ele>
        <time>2014-01-20T15:54:55Z</time>
      </trkpt>
      <trkpt lat="43.32076" lon="2.69165">
        <ele>86.18</ele>
        <time>2014-01-20T15:55:02Z</time>
      </trkpt>
      <trkpt lat="43.32061" lon="2.69179">
        <ele>86.66</ele>
        <time>2014-01-20T15:55:18Z</time>
      </trkpt>
      <trkpt lat="43.32059" lon="2.69191">
        <ele>86.18</ele>
        <time>2014-01-20T15:55:32Z</time>
      </trkpt>
      <trkpt lat="43.32061" lon="2.69191">
        <ele>86.18</ele>
        <time>2014-01-20T15:55:38Z</time>
      </trkpt>
      <trkpt lat="43.32075" lon="2.69192">
        <ele>85.69</ele>
        <time>2014-01-20T15:55:52Z</time>
      </trkpt>
      <trkpt lat="43.32078" lon="2.69192">
        <ele>85.69</ele>
        <time>2014-01-20T15:55:56Z</time>
      </trkpt>
      <trkpt lat="43.32082" lon="2.69192">
        <ele>85.21</ele>
        <time>2014-01-20T15:56:14Z</time>
      </trkpt>
      <trkpt lat="43.32083" lon="2.69191">
        <ele>85.21</ele>
        <time>2014-01-20T15:56:35Z</time>
      </trkpt>
      <trkpt lat="43.32106" lon="2.69194">
        <ele>84.25</ele>
        <time>2014-01-20T15:56:50Z</time>
      </trkpt>
      <trkpt lat="43.32124" lon="2.69197">
        <ele>83.29</ele>
        <time>2014-01-20T15:57:03Z</time>
      </trkpt>
      <trkpt lat="43.32124" lon="2.69197">
        <ele>83.29</ele>
        <time>2014-01-20T15:57:04Z</time>
      </trkpt>
      <trkpt lat="43.32126" lon="2.69202">
        <ele>81.85</ele>
        <time>2014-01-20T15:57:07Z</time>
      </trkpt>
      <trkpt lat="43.32127" lon="2.69202">
        <ele>81.85</ele>
        <time>2014-01-20T15:57:08Z</time>
      </trkpt>
      <trkpt lat="43.32155" lon="2.69201">
        <ele>81.85</ele>
        <time>2014-01-20T15:57:27Z</time>
      </trkpt>
      <trkpt lat="43.32156" lon="2.69201">
        <ele>81.85</ele>
        <time>2014-01-20T15:57:28Z</time>
      </trkpt>
      <trkpt lat="43.32165" lon="2.69202">
        <ele>82.33</ele>
        <time>2014-01-20T15:57:34Z</time>
      </trkpt>
      <trkpt lat="43.32185" lon="2.692">
        <ele>83.77</ele>
        <time>2014-01-20T15:57:50Z</time>
      </trkpt>
      <trkpt lat="43.32202" lon="2.69202">
        <ele>84.25</ele>
        <time>2014-01-20T15:58:04Z</time>
      </trkpt>
      <trkpt lat="43.32212" lon="2.69206">
        <ele>85.21</ele>
        <time>2014-01-20T15:58:13Z</time>
      </trkpt>
      <trkpt lat="43.32232" lon="2.69214">
        <ele>86.66</ele>
        <time>2014-01-20T15:58:28Z</time>
      </trkpt>
      <trkpt lat="43.32235" lon="2.69214">
        <ele>86.66</ele>
        <time>2014-01-20T15:58:30Z</time>
      </trkpt>
      <trkpt lat="43.32239" lon="2.69214">
        <ele>87.14</ele>
        <time>2014-01-20T15:58:33Z</time>
      </trkpt>
      <trkpt lat="43.3225" lon="2.69218">
        <ele>88.1</ele>
        <time>2014-01-20T15:58:43Z</time>
      </trkpt>
      <trkpt lat="43.32267" lon="2.69221">
        <ele>89.06</ele>
        <time>2014-01-20T15:58:58Z</time>
      </trkpt>
      <trkpt lat="43.32289" lon="2.69225">
        <ele>89.54</ele>
        <time>2014-01-20T15:59:16Z</time>
      </trkpt>
      <trkpt lat="43.3231" lon="2.69229">
        <ele>89.54</ele>
        <time>2014-01-20T15:59:32Z</time>
      </trkpt>
      <trkpt lat="43.32329" lon="2.69235">
        <ele>89.54</ele>
        <time>2014-01-20T15:59:48Z</time>
      </trkpt>
      <trkpt lat="43.32346" lon="2.6925">
        <ele>89.06</ele>
        <time>2014-01-20T16:00:06Z</time>
      </trkpt>
      <trkpt lat="43.32357" lon="2.69264">
        <ele>89.54</ele>
        <time>2014-01-20T16:00:20Z</time>
      </trkpt>
      <trkpt lat="43.32361" lon="2.69269">
        <ele>89.54</ele>
        <time>2014-01-20T16:00:25Z</time>
      </trkpt>
      <trkpt lat="43.32362" lon="2.69271">
        <ele>90.02</ele>
        <time>2014-01-20T16:00:27Z</time>
      </trkpt>
      <trkpt lat="43.32373" lon="2.69282">
        <ele>90.5</ele>
        <time>2014-01-20T16:00:40Z</time>
      </trkpt>
      <trkpt lat="43.32383" lon="2.69298">
        <ele>90.5</ele>
        <time>2014-01-20T16:00:55Z</time>
      </trkpt>
      <trkpt lat="43.32392" lon="2.69315">
        <ele>90.5</ele>
        <time>2014-01-20T16:01:09Z</time>
      </trkpt>
      <trkpt lat="43.32395" lon="2.69323">
        <ele>91.46</ele>
        <time>2014-01-20T16:01:16Z</time>
      </trkpt>
      <trkpt lat="43.32409" lon="2.69342">
        <ele>90.98</ele>
        <time>2014-01-20T16:01:34Z</time>
      </trkpt>
      <trkpt lat="43.32421" lon="2.69348">
        <ele>90.98</ele>
        <time>2014-01-20T16:01:46Z</time>
      </trkpt>
      <trkpt lat="43.32431" lon="2.69352">
        <ele>90.5</ele>
        <time>2014-01-20T16:01:59Z</time>
      </trkpt>
      <trkpt lat="43.32438" lon="2.69369">
        <ele>91.46</ele>
        <time>2014-01-20T16:02:13Z</time>
      </trkpt>
      <trkpt lat="43.32439" lon="2.69374">
        <ele>91.46</ele>
        <time>2014-01-20T16:02:26Z</time>
      </trkpt>
      <trkpt lat="43.3244" lon="2.69378">
        <ele>91.94</ele>
        <time>2014-01-20T16:02:42Z</time>
      </trkpt>
      <trkpt lat="43.32439" lon="2.69381">
        <ele>91.94</ele>
        <time>2014-01-20T16:02:56Z</time>
      </trkpt>
      <trkpt lat="43.32438" lon="2.69382">
        <ele>91.94</ele>
        <time>2014-01-20T16:03:15Z</time>
      </trkpt>
      <trkpt lat="43.32437" lon="2.69383">
        <ele>93.39</ele>
        <time>2014-01-20T16:03:29Z</time>
      </trkpt>
      <trkpt lat="43.32435" lon="2.69383">
        <ele>90.5</ele>
        <time>2014-01-20T16:03:33Z</time>
      </trkpt>
      <trkpt lat="43.32436" lon="2.69387">
        <ele>91.46</ele>
        <time>2014-01-20T16:03:54Z</time>
      </trkpt>
    </trkseg>
  </trk>
</gpx>